<?xml version="1.0" encoding="UTF-8" standalone="no" ?>
<gpx xmlns="http://www.topografix.com/GPX/1/1" xmlns:xsi="http://www.w3.org/2001/XMLSchema-instance" xsi:schemaLocation="http://www.topografix.com/GPX/1/1 http://www.topografix.com/GPX/1/1/gpx.xsd" version="1.1" creator="VisuGPX - https://www.visugpx.com">
  <metadata>
    <name>14.05.2022 -étape 3  Orpierre le rochasson Serres</name>
    <desc><![CDATA[la crête du rocher de Beaumont et rochasson vaut le coup ; vues aériennes, mais la montée pour y accéder est rude, forts pourcentages dans les 20 , 25 %. surtout prévoir deux litres d'eau minimum.<br /> Au km 29,4, ne pas prendre à droite la descente sur serre. c'est du portage en descente trés dangeureux. il vaut mieux prendre à gauche direction Montclus. ]]></desc>
  </metadata>
  <trk>
    <name><![CDATA[14797629-étape 3 le Orpierre le rochasson Serres]]></name>
    <extensions>
      <line xmlns="http://www.topografix.com/GPX/gpx_style/0/2">
        <color>0000FF</color>
        <width>4</width>
      </line>
    </extensions>
    <trkseg>
      <trkpt lat="44.31361" lon="5.69277">
        <ele>688</ele>
        <time>2022-06-09T20:42:41Z</time>
      </trkpt>
      <trkpt lat="44.31364" lon="5.69275">
        <ele>689</ele>
        <time>2022-06-09T20:42:42Z</time>
      </trkpt>
      <trkpt lat="44.31364" lon="5.69272">
        <ele>689</ele>
        <time>2022-06-09T20:42:42Z</time>
      </trkpt>
      <trkpt lat="44.31357" lon="5.69271">
        <ele>688</ele>
        <time>2022-06-09T20:42:44Z</time>
      </trkpt>
      <trkpt lat="44.31349" lon="5.69275">
        <ele>687</ele>
        <time>2022-06-09T20:42:46Z</time>
      </trkpt>
      <trkpt lat="44.31346" lon="5.69274">
        <ele>687</ele>
        <time>2022-06-09T20:42:47Z</time>
      </trkpt>
      <trkpt lat="44.31345" lon="5.69262">
        <ele>688</ele>
        <time>2022-06-09T20:42:49Z</time>
      </trkpt>
      <trkpt lat="44.31344" lon="5.69267">
        <ele>687</ele>
        <time>2022-06-09T20:42:50Z</time>
      </trkpt>
      <trkpt lat="44.31309" lon="5.69215">
        <ele>689</ele>
        <time>2022-06-09T20:43:01Z</time>
      </trkpt>
      <trkpt lat="44.3129" lon="5.69172">
        <ele>690</ele>
        <time>2022-06-09T20:43:10Z</time>
      </trkpt>
      <trkpt lat="44.31291" lon="5.69168">
        <ele>691</ele>
        <time>2022-06-09T20:43:11Z</time>
      </trkpt>
      <trkpt lat="44.31293" lon="5.69175">
        <ele>691</ele>
        <time>2022-06-09T20:43:12Z</time>
      </trkpt>
      <trkpt lat="44.31293" lon="5.69173">
        <ele>691</ele>
        <time>2022-06-09T20:43:12Z</time>
      </trkpt>
      <trkpt lat="44.3129" lon="5.69173">
        <ele>690</ele>
        <time>2022-06-09T20:43:13Z</time>
      </trkpt>
      <trkpt lat="44.3128" lon="5.69114">
        <ele>694</ele>
        <time>2022-06-09T20:43:23Z</time>
      </trkpt>
      <trkpt lat="44.3128" lon="5.69057">
        <ele>697</ele>
        <time>2022-06-09T20:43:33Z</time>
      </trkpt>
      <trkpt lat="44.31284" lon="5.69021">
        <ele>698</ele>
        <time>2022-06-09T20:43:39Z</time>
      </trkpt>
      <trkpt lat="44.31288" lon="5.69005">
        <ele>700</ele>
        <time>2022-06-09T20:43:41Z</time>
      </trkpt>
      <trkpt lat="44.31292" lon="5.69002">
        <ele>701</ele>
        <time>2022-06-09T20:43:43Z</time>
      </trkpt>
      <trkpt lat="44.313" lon="5.68986">
        <ele>703</ele>
        <time>2022-06-09T20:43:46Z</time>
      </trkpt>
      <trkpt lat="44.31303" lon="5.68968">
        <ele>704</ele>
        <time>2022-06-09T20:43:49Z</time>
      </trkpt>
      <trkpt lat="44.3131" lon="5.68953">
        <ele>703</ele>
        <time>2022-06-09T20:43:52Z</time>
      </trkpt>
      <trkpt lat="44.31326" lon="5.68935">
        <ele>697</ele>
        <time>2022-06-09T20:43:57Z</time>
      </trkpt>
      <trkpt lat="44.31335" lon="5.68919">
        <ele>692</ele>
        <time>2022-06-09T20:44:00Z</time>
      </trkpt>
      <trkpt lat="44.31362" lon="5.68895">
        <ele>697</ele>
        <time>2022-06-09T20:44:08Z</time>
      </trkpt>
      <trkpt lat="44.3144" lon="5.68842">
        <ele>700</ele>
        <time>2022-06-09T20:44:28Z</time>
      </trkpt>
      <trkpt lat="44.31455" lon="5.68826">
        <ele>702</ele>
        <time>2022-06-09T20:44:32Z</time>
      </trkpt>
      <trkpt lat="44.31468" lon="5.68806">
        <ele>705</ele>
        <time>2022-06-09T20:44:37Z</time>
      </trkpt>
      <trkpt lat="44.31476" lon="5.68787">
        <ele>706</ele>
        <time>2022-06-09T20:44:40Z</time>
      </trkpt>
      <trkpt lat="44.31485" lon="5.68758">
        <ele>706</ele>
        <time>2022-06-09T20:44:46Z</time>
      </trkpt>
      <trkpt lat="44.31488" lon="5.68737">
        <ele>705</ele>
        <time>2022-06-09T20:44:49Z</time>
      </trkpt>
      <trkpt lat="44.31492" lon="5.6873">
        <ele>706</ele>
        <time>2022-06-09T20:44:51Z</time>
      </trkpt>
      <trkpt lat="44.3149" lon="5.68721">
        <ele>705</ele>
        <time>2022-06-09T20:44:52Z</time>
      </trkpt>
      <trkpt lat="44.31494" lon="5.68678">
        <ele>704</ele>
        <time>2022-06-09T20:45:00Z</time>
      </trkpt>
      <trkpt lat="44.31489" lon="5.68633">
        <ele>701</ele>
        <time>2022-06-09T20:45:07Z</time>
      </trkpt>
      <trkpt lat="44.3149" lon="5.68588">
        <ele>700</ele>
        <time>2022-06-09T20:45:15Z</time>
      </trkpt>
      <trkpt lat="44.31496" lon="5.68536">
        <ele>701</ele>
        <time>2022-06-09T20:45:24Z</time>
      </trkpt>
      <trkpt lat="44.31493" lon="5.6848">
        <ele>703</ele>
        <time>2022-06-09T20:45:33Z</time>
      </trkpt>
      <trkpt lat="44.3149" lon="5.6847">
        <ele>703</ele>
        <time>2022-06-09T20:45:35Z</time>
      </trkpt>
      <trkpt lat="44.31438" lon="5.6837">
        <ele>701</ele>
        <time>2022-06-09T20:45:55Z</time>
      </trkpt>
      <trkpt lat="44.3141" lon="5.683">
        <ele>702</ele>
        <time>2022-06-09T20:46:09Z</time>
      </trkpt>
      <trkpt lat="44.31399" lon="5.68238">
        <ele>705</ele>
        <time>2022-06-09T20:46:19Z</time>
      </trkpt>
      <trkpt lat="44.31398" lon="5.68192">
        <ele>705</ele>
        <time>2022-06-09T20:46:27Z</time>
      </trkpt>
      <trkpt lat="44.31401" lon="5.68162">
        <ele>705</ele>
        <time>2022-06-09T20:46:32Z</time>
      </trkpt>
      <trkpt lat="44.31405" lon="5.68147">
        <ele>704</ele>
        <time>2022-06-09T20:46:35Z</time>
      </trkpt>
      <trkpt lat="44.31417" lon="5.6813">
        <ele>705</ele>
        <time>2022-06-09T20:46:39Z</time>
      </trkpt>
      <trkpt lat="44.31416" lon="5.68133">
        <ele>705</ele>
        <time>2022-06-09T20:46:39Z</time>
      </trkpt>
      <trkpt lat="44.31461" lon="5.68038">
        <ele>710</ele>
        <time>2022-06-09T20:46:58Z</time>
      </trkpt>
      <trkpt lat="44.3147" lon="5.68024">
        <ele>711</ele>
        <time>2022-06-09T20:47:02Z</time>
      </trkpt>
      <trkpt lat="44.31509" lon="5.67943">
        <ele>711</ele>
        <time>2022-06-09T20:47:18Z</time>
      </trkpt>
      <trkpt lat="44.31532" lon="5.67901">
        <ele>713</ele>
        <time>2022-06-09T20:47:27Z</time>
      </trkpt>
      <trkpt lat="44.31577" lon="5.67807">
        <ele>717</ele>
        <time>2022-06-09T20:47:46Z</time>
      </trkpt>
      <trkpt lat="44.31618" lon="5.67643">
        <ele>722</ele>
        <time>2022-06-09T20:48:15Z</time>
      </trkpt>
      <trkpt lat="44.31627" lon="5.67551">
        <ele>719</ele>
        <time>2022-06-09T20:48:30Z</time>
      </trkpt>
      <trkpt lat="44.31633" lon="5.6752">
        <ele>718</ele>
        <time>2022-06-09T20:48:36Z</time>
      </trkpt>
      <trkpt lat="44.31653" lon="5.67461">
        <ele>718</ele>
        <time>2022-06-09T20:48:46Z</time>
      </trkpt>
      <trkpt lat="44.31676" lon="5.67403">
        <ele>719</ele>
        <time>2022-06-09T20:48:58Z</time>
      </trkpt>
      <trkpt lat="44.31689" lon="5.67342">
        <ele>718</ele>
        <time>2022-06-09T20:49:08Z</time>
      </trkpt>
      <trkpt lat="44.31689" lon="5.67322">
        <ele>717</ele>
        <time>2022-06-09T20:49:12Z</time>
      </trkpt>
      <trkpt lat="44.31695" lon="5.67285">
        <ele>717</ele>
        <time>2022-06-09T20:49:18Z</time>
      </trkpt>
      <trkpt lat="44.31709" lon="5.67243">
        <ele>719</ele>
        <time>2022-06-09T20:49:26Z</time>
      </trkpt>
      <trkpt lat="44.31715" lon="5.67212">
        <ele>722</ele>
        <time>2022-06-09T20:49:31Z</time>
      </trkpt>
      <trkpt lat="44.31716" lon="5.67179">
        <ele>724</ele>
        <time>2022-06-09T20:49:36Z</time>
      </trkpt>
      <trkpt lat="44.3171" lon="5.6713">
        <ele>727</ele>
        <time>2022-06-09T20:49:45Z</time>
      </trkpt>
      <trkpt lat="44.31656" lon="5.66888">
        <ele>731</ele>
        <time>2022-06-09T20:50:27Z</time>
      </trkpt>
      <trkpt lat="44.31651" lon="5.66832">
        <ele>736</ele>
        <time>2022-06-09T20:50:37Z</time>
      </trkpt>
      <trkpt lat="44.31634" lon="5.66745">
        <ele>739</ele>
        <time>2022-06-09T20:50:52Z</time>
      </trkpt>
      <trkpt lat="44.31635" lon="5.66727">
        <ele>740</ele>
        <time>2022-06-09T20:50:55Z</time>
      </trkpt>
      <trkpt lat="44.31643" lon="5.66692">
        <ele>743</ele>
        <time>2022-06-09T20:51:01Z</time>
      </trkpt>
      <trkpt lat="44.31644" lon="5.66676">
        <ele>744</ele>
        <time>2022-06-09T20:51:03Z</time>
      </trkpt>
      <trkpt lat="44.31642" lon="5.66645">
        <ele>744</ele>
        <time>2022-06-09T20:51:09Z</time>
      </trkpt>
      <trkpt lat="44.31632" lon="5.66586">
        <ele>743</ele>
        <time>2022-06-09T20:51:19Z</time>
      </trkpt>
      <trkpt lat="44.31626" lon="5.66532">
        <ele>741</ele>
        <time>2022-06-09T20:51:28Z</time>
      </trkpt>
      <trkpt lat="44.31623" lon="5.6644">
        <ele>739</ele>
        <time>2022-06-09T20:51:43Z</time>
      </trkpt>
      <trkpt lat="44.31627" lon="5.66419">
        <ele>739</ele>
        <time>2022-06-09T20:51:47Z</time>
      </trkpt>
      <trkpt lat="44.31639" lon="5.66394">
        <ele>740</ele>
        <time>2022-06-09T20:51:52Z</time>
      </trkpt>
      <trkpt lat="44.3165" lon="5.66379">
        <ele>740</ele>
        <time>2022-06-09T20:51:56Z</time>
      </trkpt>
      <trkpt lat="44.31651" lon="5.66382">
        <ele>741</ele>
        <time>2022-06-09T20:51:56Z</time>
      </trkpt>
      <trkpt lat="44.31647" lon="5.66385">
        <ele>741</ele>
        <time>2022-06-09T20:51:57Z</time>
      </trkpt>
      <trkpt lat="44.31679" lon="5.66309">
        <ele>739</ele>
        <time>2022-06-09T20:52:12Z</time>
      </trkpt>
      <trkpt lat="44.3169" lon="5.66265">
        <ele>740</ele>
        <time>2022-06-09T20:52:20Z</time>
      </trkpt>
      <trkpt lat="44.3171" lon="5.66202">
        <ele>744</ele>
        <time>2022-06-09T20:52:31Z</time>
      </trkpt>
      <trkpt lat="44.3172" lon="5.66135">
        <ele>744</ele>
        <time>2022-06-09T20:52:43Z</time>
      </trkpt>
      <trkpt lat="44.31734" lon="5.6607">
        <ele>744</ele>
        <time>2022-06-09T20:52:54Z</time>
      </trkpt>
      <trkpt lat="44.31736" lon="5.66031">
        <ele>744</ele>
        <time>2022-06-09T20:53:01Z</time>
      </trkpt>
      <trkpt lat="44.31733" lon="5.65998">
        <ele>743</ele>
        <time>2022-06-09T20:53:06Z</time>
      </trkpt>
      <trkpt lat="44.31732" lon="5.65937">
        <ele>741</ele>
        <time>2022-06-09T20:53:16Z</time>
      </trkpt>
      <trkpt lat="44.31744" lon="5.65867">
        <ele>741</ele>
        <time>2022-06-09T20:53:28Z</time>
      </trkpt>
      <trkpt lat="44.31746" lon="5.65842">
        <ele>742</ele>
        <time>2022-06-09T20:53:33Z</time>
      </trkpt>
      <trkpt lat="44.31741" lon="5.65831">
        <ele>741</ele>
        <time>2022-06-09T20:53:35Z</time>
      </trkpt>
      <trkpt lat="44.31722" lon="5.6581">
        <ele>741</ele>
        <time>2022-06-09T20:53:40Z</time>
      </trkpt>
      <trkpt lat="44.31708" lon="5.65778">
        <ele>741</ele>
        <time>2022-06-09T20:53:47Z</time>
      </trkpt>
      <trkpt lat="44.31701" lon="5.65738">
        <ele>742</ele>
        <time>2022-06-09T20:53:54Z</time>
      </trkpt>
      <trkpt lat="44.31701" lon="5.65714">
        <ele>743</ele>
        <time>2022-06-09T20:53:58Z</time>
      </trkpt>
      <trkpt lat="44.31704" lon="5.65686">
        <ele>744</ele>
        <time>2022-06-09T20:54:02Z</time>
      </trkpt>
      <trkpt lat="44.31715" lon="5.65638">
        <ele>744</ele>
        <time>2022-06-09T20:54:11Z</time>
      </trkpt>
      <trkpt lat="44.3172" lon="5.65584">
        <ele>741</ele>
        <time>2022-06-09T20:54:20Z</time>
      </trkpt>
      <trkpt lat="44.31723" lon="5.65497">
        <ele>735</ele>
        <time>2022-06-09T20:54:34Z</time>
      </trkpt>
      <trkpt lat="44.3173" lon="5.65471">
        <ele>735</ele>
        <time>2022-06-09T20:54:39Z</time>
      </trkpt>
      <trkpt lat="44.31757" lon="5.65408">
        <ele>736</ele>
        <time>2022-06-09T20:54:51Z</time>
      </trkpt>
      <trkpt lat="44.31788" lon="5.65325">
        <ele>738</ele>
        <time>2022-06-09T20:55:07Z</time>
      </trkpt>
      <trkpt lat="44.31801" lon="5.65279">
        <ele>738</ele>
        <time>2022-06-09T20:55:15Z</time>
      </trkpt>
      <trkpt lat="44.31804" lon="5.65276">
        <ele>738</ele>
        <time>2022-06-09T20:55:16Z</time>
      </trkpt>
      <trkpt lat="44.31852" lon="5.65287">
        <ele>742</ele>
        <time>2022-06-09T20:55:27Z</time>
      </trkpt>
      <trkpt lat="44.31895" lon="5.65307">
        <ele>745</ele>
        <time>2022-06-09T20:55:38Z</time>
      </trkpt>
      <trkpt lat="44.31907" lon="5.65302">
        <ele>745</ele>
        <time>2022-06-09T20:55:41Z</time>
      </trkpt>
      <trkpt lat="44.31926" lon="5.65288">
        <ele>746</ele>
        <time>2022-06-09T20:55:46Z</time>
      </trkpt>
      <trkpt lat="44.31938" lon="5.65284">
        <ele>747</ele>
        <time>2022-06-09T20:55:49Z</time>
      </trkpt>
      <trkpt lat="44.31973" lon="5.65285">
        <ele>750</ele>
        <time>2022-06-09T20:55:57Z</time>
      </trkpt>
      <trkpt lat="44.3198" lon="5.65288">
        <ele>751</ele>
        <time>2022-06-09T20:55:59Z</time>
      </trkpt>
      <trkpt lat="44.31993" lon="5.65318">
        <ele>753</ele>
        <time>2022-06-09T20:56:05Z</time>
      </trkpt>
      <trkpt lat="44.32008" lon="5.65345">
        <ele>757</ele>
        <time>2022-06-09T20:56:10Z</time>
      </trkpt>
      <trkpt lat="44.32019" lon="5.65351">
        <ele>760</ele>
        <time>2022-06-09T20:56:13Z</time>
      </trkpt>
      <trkpt lat="44.32025" lon="5.6535">
        <ele>761</ele>
        <time>2022-06-09T20:56:14Z</time>
      </trkpt>
      <trkpt lat="44.32033" lon="5.65357">
        <ele>763</ele>
        <time>2022-06-09T20:56:17Z</time>
      </trkpt>
      <trkpt lat="44.32048" lon="5.65384">
        <ele>766</ele>
        <time>2022-06-09T20:56:22Z</time>
      </trkpt>
      <trkpt lat="44.32054" lon="5.6539">
        <ele>767</ele>
        <time>2022-06-09T20:56:24Z</time>
      </trkpt>
      <trkpt lat="44.32058" lon="5.65382">
        <ele>768</ele>
        <time>2022-06-09T20:56:26Z</time>
      </trkpt>
      <trkpt lat="44.32057" lon="5.65358">
        <ele>769</ele>
        <time>2022-06-09T20:56:30Z</time>
      </trkpt>
      <trkpt lat="44.32051" lon="5.65341">
        <ele>767</ele>
        <time>2022-06-09T20:56:33Z</time>
      </trkpt>
      <trkpt lat="44.32034" lon="5.65317">
        <ele>763</ele>
        <time>2022-06-09T20:56:38Z</time>
      </trkpt>
      <trkpt lat="44.32034" lon="5.65303">
        <ele>762</ele>
        <time>2022-06-09T20:56:41Z</time>
      </trkpt>
      <trkpt lat="44.32053" lon="5.65261">
        <ele>766</ele>
        <time>2022-06-09T20:56:49Z</time>
      </trkpt>
      <trkpt lat="44.32062" lon="5.65254">
        <ele>768</ele>
        <time>2022-06-09T20:56:52Z</time>
      </trkpt>
      <trkpt lat="44.3208" lon="5.65256">
        <ele>773</ele>
        <time>2022-06-09T20:56:56Z</time>
      </trkpt>
      <trkpt lat="44.32081" lon="5.65263">
        <ele>774</ele>
        <time>2022-06-09T20:56:57Z</time>
      </trkpt>
      <trkpt lat="44.32073" lon="5.65278">
        <ele>772</ele>
        <time>2022-06-09T20:57:00Z</time>
      </trkpt>
      <trkpt lat="44.32072" lon="5.65296">
        <ele>772</ele>
        <time>2022-06-09T20:57:03Z</time>
      </trkpt>
      <trkpt lat="44.32077" lon="5.65307">
        <ele>774</ele>
        <time>2022-06-09T20:57:05Z</time>
      </trkpt>
      <trkpt lat="44.32098" lon="5.6533">
        <ele>779</ele>
        <time>2022-06-09T20:57:11Z</time>
      </trkpt>
      <trkpt lat="44.32109" lon="5.65315">
        <ele>781</ele>
        <time>2022-06-09T20:57:15Z</time>
      </trkpt>
      <trkpt lat="44.32126" lon="5.65307">
        <ele>784</ele>
        <time>2022-06-09T20:57:19Z</time>
      </trkpt>
      <trkpt lat="44.32133" lon="5.65315">
        <ele>786</ele>
        <time>2022-06-09T20:57:21Z</time>
      </trkpt>
      <trkpt lat="44.32143" lon="5.65343">
        <ele>789</ele>
        <time>2022-06-09T20:57:27Z</time>
      </trkpt>
      <trkpt lat="44.32148" lon="5.65341">
        <ele>791</ele>
        <time>2022-06-09T20:57:28Z</time>
      </trkpt>
      <trkpt lat="44.3217" lon="5.65343">
        <ele>795</ele>
        <time>2022-06-09T20:57:33Z</time>
      </trkpt>
      <trkpt lat="44.32184" lon="5.65352">
        <ele>797</ele>
        <time>2022-06-09T20:57:37Z</time>
      </trkpt>
      <trkpt lat="44.32219" lon="5.65361">
        <ele>802</ele>
        <time>2022-06-09T20:57:45Z</time>
      </trkpt>
      <trkpt lat="44.32223" lon="5.65365">
        <ele>803</ele>
        <time>2022-06-09T20:57:46Z</time>
      </trkpt>
      <trkpt lat="44.32233" lon="5.65367">
        <ele>804</ele>
        <time>2022-06-09T20:57:48Z</time>
      </trkpt>
      <trkpt lat="44.32236" lon="5.6537">
        <ele>804</ele>
        <time>2022-06-09T20:57:49Z</time>
      </trkpt>
      <trkpt lat="44.32253" lon="5.65374">
        <ele>807</ele>
        <time>2022-06-09T20:57:53Z</time>
      </trkpt>
      <trkpt lat="44.32266" lon="5.65388">
        <ele>808</ele>
        <time>2022-06-09T20:57:57Z</time>
      </trkpt>
      <trkpt lat="44.32276" lon="5.65404">
        <ele>809</ele>
        <time>2022-06-09T20:58:01Z</time>
      </trkpt>
      <trkpt lat="44.32306" lon="5.65435">
        <ele>813</ele>
        <time>2022-06-09T20:58:09Z</time>
      </trkpt>
      <trkpt lat="44.32348" lon="5.65471">
        <ele>819</ele>
        <time>2022-06-09T20:58:21Z</time>
      </trkpt>
      <trkpt lat="44.32361" lon="5.65493">
        <ele>821</ele>
        <time>2022-06-09T20:58:26Z</time>
      </trkpt>
      <trkpt lat="44.32365" lon="5.65528">
        <ele>822</ele>
        <time>2022-06-09T20:58:32Z</time>
      </trkpt>
      <trkpt lat="44.32371" lon="5.65551">
        <ele>822</ele>
        <time>2022-06-09T20:58:36Z</time>
      </trkpt>
      <trkpt lat="44.32371" lon="5.65574">
        <ele>822</ele>
        <time>2022-06-09T20:58:39Z</time>
      </trkpt>
      <trkpt lat="44.32374" lon="5.65587">
        <ele>822</ele>
        <time>2022-06-09T20:58:42Z</time>
      </trkpt>
      <trkpt lat="44.32379" lon="5.656">
        <ele>821</ele>
        <time>2022-06-09T20:58:44Z</time>
      </trkpt>
      <trkpt lat="44.32397" lon="5.65627">
        <ele>822</ele>
        <time>2022-06-09T20:58:50Z</time>
      </trkpt>
      <trkpt lat="44.32399" lon="5.65626">
        <ele>823</ele>
        <time>2022-06-09T20:58:51Z</time>
      </trkpt>
      <trkpt lat="44.324" lon="5.65617">
        <ele>824</ele>
        <time>2022-06-09T20:58:52Z</time>
      </trkpt>
      <trkpt lat="44.32397" lon="5.65609">
        <ele>824</ele>
        <time>2022-06-09T20:58:54Z</time>
      </trkpt>
      <trkpt lat="44.32398" lon="5.65603">
        <ele>825</ele>
        <time>2022-06-09T20:58:55Z</time>
      </trkpt>
      <trkpt lat="44.32415" lon="5.65586">
        <ele>830</ele>
        <time>2022-06-09T20:59:00Z</time>
      </trkpt>
      <trkpt lat="44.32428" lon="5.65568">
        <ele>833</ele>
        <time>2022-06-09T20:59:04Z</time>
      </trkpt>
      <trkpt lat="44.32435" lon="5.65564">
        <ele>835</ele>
        <time>2022-06-09T20:59:06Z</time>
      </trkpt>
      <trkpt lat="44.32436" lon="5.65566">
        <ele>835</ele>
        <time>2022-06-09T20:59:06Z</time>
      </trkpt>
      <trkpt lat="44.32453" lon="5.65571">
        <ele>839</ele>
        <time>2022-06-09T20:59:10Z</time>
      </trkpt>
      <trkpt lat="44.3246" lon="5.65568">
        <ele>840</ele>
        <time>2022-06-09T20:59:12Z</time>
      </trkpt>
      <trkpt lat="44.32468" lon="5.65571">
        <ele>842</ele>
        <time>2022-06-09T20:59:14Z</time>
      </trkpt>
      <trkpt lat="44.32475" lon="5.65579">
        <ele>844</ele>
        <time>2022-06-09T20:59:16Z</time>
      </trkpt>
      <trkpt lat="44.3248" lon="5.65593">
        <ele>845</ele>
        <time>2022-06-09T20:59:19Z</time>
      </trkpt>
      <trkpt lat="44.32506" lon="5.65595">
        <ele>851</ele>
        <time>2022-06-09T20:59:25Z</time>
      </trkpt>
      <trkpt lat="44.32514" lon="5.65592">
        <ele>852</ele>
        <time>2022-06-09T20:59:27Z</time>
      </trkpt>
      <trkpt lat="44.32537" lon="5.65601">
        <ele>855</ele>
        <time>2022-06-09T20:59:32Z</time>
      </trkpt>
      <trkpt lat="44.32554" lon="5.656">
        <ele>858</ele>
        <time>2022-06-09T20:59:36Z</time>
      </trkpt>
      <trkpt lat="44.32568" lon="5.65597">
        <ele>860</ele>
        <time>2022-06-09T20:59:40Z</time>
      </trkpt>
      <trkpt lat="44.32584" lon="5.6559">
        <ele>863</ele>
        <time>2022-06-09T20:59:44Z</time>
      </trkpt>
      <trkpt lat="44.32587" lon="5.65586">
        <ele>864</ele>
        <time>2022-06-09T20:59:44Z</time>
      </trkpt>
      <trkpt lat="44.32598" lon="5.65583">
        <ele>865</ele>
        <time>2022-06-09T20:59:47Z</time>
      </trkpt>
      <trkpt lat="44.32606" lon="5.65577">
        <ele>865</ele>
        <time>2022-06-09T20:59:49Z</time>
      </trkpt>
      <trkpt lat="44.32615" lon="5.65561">
        <ele>865</ele>
        <time>2022-06-09T20:59:53Z</time>
      </trkpt>
      <trkpt lat="44.32611" lon="5.65534">
        <ele>865</ele>
        <time>2022-06-09T20:59:57Z</time>
      </trkpt>
      <trkpt lat="44.32621" lon="5.65514">
        <ele>865</ele>
        <time>2022-06-09T21:00:01Z</time>
      </trkpt>
      <trkpt lat="44.32627" lon="5.65507">
        <ele>866</ele>
        <time>2022-06-09T21:00:03Z</time>
      </trkpt>
      <trkpt lat="44.32635" lon="5.65503">
        <ele>866</ele>
        <time>2022-06-09T21:00:05Z</time>
      </trkpt>
      <trkpt lat="44.32677" lon="5.65503">
        <ele>868</ele>
        <time>2022-06-09T21:00:15Z</time>
      </trkpt>
      <trkpt lat="44.32685" lon="5.6551">
        <ele>868</ele>
        <time>2022-06-09T21:00:17Z</time>
      </trkpt>
      <trkpt lat="44.32698" lon="5.65531">
        <ele>870</ele>
        <time>2022-06-09T21:00:22Z</time>
      </trkpt>
      <trkpt lat="44.32696" lon="5.65529">
        <ele>870</ele>
        <time>2022-06-09T21:00:22Z</time>
      </trkpt>
      <trkpt lat="44.32693" lon="5.65531">
        <ele>870</ele>
        <time>2022-06-09T21:00:23Z</time>
      </trkpt>
      <trkpt lat="44.32688" lon="5.65528">
        <ele>869</ele>
        <time>2022-06-09T21:00:24Z</time>
      </trkpt>
      <trkpt lat="44.3268" lon="5.65529">
        <ele>868</ele>
        <time>2022-06-09T21:00:26Z</time>
      </trkpt>
      <trkpt lat="44.32674" lon="5.65527">
        <ele>868</ele>
        <time>2022-06-09T21:00:28Z</time>
      </trkpt>
      <trkpt lat="44.32665" lon="5.65518">
        <ele>867</ele>
        <time>2022-06-09T21:00:30Z</time>
      </trkpt>
      <trkpt lat="44.3266" lon="5.65516">
        <ele>867</ele>
        <time>2022-06-09T21:00:31Z</time>
      </trkpt>
      <trkpt lat="44.32648" lon="5.65517">
        <ele>866</ele>
        <time>2022-06-09T21:00:34Z</time>
      </trkpt>
      <trkpt lat="44.32642" lon="5.65524">
        <ele>866</ele>
        <time>2022-06-09T21:00:36Z</time>
      </trkpt>
      <trkpt lat="44.32628" lon="5.65531">
        <ele>866</ele>
        <time>2022-06-09T21:00:40Z</time>
      </trkpt>
      <trkpt lat="44.32616" lon="5.65547">
        <ele>865</ele>
        <time>2022-06-09T21:00:43Z</time>
      </trkpt>
      <trkpt lat="44.32617" lon="5.65565">
        <ele>866</ele>
        <time>2022-06-09T21:00:46Z</time>
      </trkpt>
      <trkpt lat="44.32621" lon="5.65567">
        <ele>866</ele>
        <time>2022-06-09T21:00:47Z</time>
      </trkpt>
      <trkpt lat="44.32626" lon="5.65565">
        <ele>866</ele>
        <time>2022-06-09T21:00:49Z</time>
      </trkpt>
      <trkpt lat="44.32631" lon="5.65556">
        <ele>866</ele>
        <time>2022-06-09T21:00:51Z</time>
      </trkpt>
      <trkpt lat="44.32641" lon="5.65546">
        <ele>866</ele>
        <time>2022-06-09T21:00:53Z</time>
      </trkpt>
      <trkpt lat="44.32643" lon="5.65538">
        <ele>866</ele>
        <time>2022-06-09T21:00:55Z</time>
      </trkpt>
      <trkpt lat="44.32639" lon="5.65532">
        <ele>866</ele>
        <time>2022-06-09T21:00:56Z</time>
      </trkpt>
      <trkpt lat="44.32635" lon="5.65533">
        <ele>866</ele>
        <time>2022-06-09T21:00:57Z</time>
      </trkpt>
      <trkpt lat="44.3264" lon="5.65531">
        <ele>866</ele>
        <time>2022-06-09T21:00:58Z</time>
      </trkpt>
      <trkpt lat="44.32645" lon="5.65522">
        <ele>866</ele>
        <time>2022-06-09T21:01:00Z</time>
      </trkpt>
      <trkpt lat="44.32646" lon="5.65525">
        <ele>866</ele>
        <time>2022-06-09T21:01:01Z</time>
      </trkpt>
      <trkpt lat="44.3264" lon="5.65532">
        <ele>866</ele>
        <time>2022-06-09T21:01:03Z</time>
      </trkpt>
      <trkpt lat="44.32637" lon="5.65544">
        <ele>866</ele>
        <time>2022-06-09T21:01:05Z</time>
      </trkpt>
      <trkpt lat="44.32634" lon="5.65536">
        <ele>866</ele>
        <time>2022-06-09T21:01:06Z</time>
      </trkpt>
      <trkpt lat="44.32638" lon="5.65535">
        <ele>866</ele>
        <time>2022-06-09T21:01:07Z</time>
      </trkpt>
      <trkpt lat="44.32644" lon="5.65543">
        <ele>867</ele>
        <time>2022-06-09T21:01:09Z</time>
      </trkpt>
      <trkpt lat="44.32658" lon="5.65544">
        <ele>867</ele>
        <time>2022-06-09T21:01:12Z</time>
      </trkpt>
      <trkpt lat="44.32661" lon="5.65531">
        <ele>867</ele>
        <time>2022-06-09T21:01:15Z</time>
      </trkpt>
      <trkpt lat="44.32663" lon="5.65535">
        <ele>867</ele>
        <time>2022-06-09T21:01:16Z</time>
      </trkpt>
      <trkpt lat="44.32659" lon="5.6554">
        <ele>867</ele>
        <time>2022-06-09T21:01:17Z</time>
      </trkpt>
      <trkpt lat="44.3264" lon="5.65544">
        <ele>866</ele>
        <time>2022-06-09T21:01:21Z</time>
      </trkpt>
      <trkpt lat="44.32637" lon="5.65551">
        <ele>866</ele>
        <time>2022-06-09T21:01:23Z</time>
      </trkpt>
      <trkpt lat="44.32628" lon="5.65559">
        <ele>866</ele>
        <time>2022-06-09T21:01:25Z</time>
      </trkpt>
      <trkpt lat="44.32623" lon="5.6556">
        <ele>866</ele>
        <time>2022-06-09T21:01:26Z</time>
      </trkpt>
      <trkpt lat="44.32618" lon="5.65557">
        <ele>866</ele>
        <time>2022-06-09T21:01:28Z</time>
      </trkpt>
      <trkpt lat="44.32612" lon="5.65544">
        <ele>865</ele>
        <time>2022-06-09T21:01:30Z</time>
      </trkpt>
      <trkpt lat="44.32611" lon="5.65534">
        <ele>865</ele>
        <time>2022-06-09T21:01:32Z</time>
      </trkpt>
      <trkpt lat="44.3262" lon="5.65516">
        <ele>865</ele>
        <time>2022-06-09T21:01:36Z</time>
      </trkpt>
      <trkpt lat="44.32628" lon="5.65507">
        <ele>866</ele>
        <time>2022-06-09T21:01:38Z</time>
      </trkpt>
      <trkpt lat="44.32635" lon="5.65504">
        <ele>866</ele>
        <time>2022-06-09T21:01:40Z</time>
      </trkpt>
      <trkpt lat="44.32658" lon="5.65499">
        <ele>867</ele>
        <time>2022-06-09T21:01:45Z</time>
      </trkpt>
      <trkpt lat="44.3268" lon="5.65503">
        <ele>868</ele>
        <time>2022-06-09T21:01:50Z</time>
      </trkpt>
      <trkpt lat="44.32696" lon="5.65528">
        <ele>870</ele>
        <time>2022-06-09T21:01:56Z</time>
      </trkpt>
      <trkpt lat="44.32716" lon="5.6554">
        <ele>872</ele>
        <time>2022-06-09T21:02:01Z</time>
      </trkpt>
      <trkpt lat="44.3273" lon="5.65537">
        <ele>873</ele>
        <time>2022-06-09T21:02:04Z</time>
      </trkpt>
      <trkpt lat="44.32752" lon="5.65518">
        <ele>874</ele>
        <time>2022-06-09T21:02:10Z</time>
      </trkpt>
      <trkpt lat="44.32767" lon="5.65487">
        <ele>875</ele>
        <time>2022-06-09T21:02:17Z</time>
      </trkpt>
      <trkpt lat="44.32777" lon="5.65473">
        <ele>876</ele>
        <time>2022-06-09T21:02:20Z</time>
      </trkpt>
      <trkpt lat="44.32791" lon="5.65467">
        <ele>879</ele>
        <time>2022-06-09T21:02:23Z</time>
      </trkpt>
      <trkpt lat="44.328" lon="5.65455">
        <ele>880</ele>
        <time>2022-06-09T21:02:26Z</time>
      </trkpt>
      <trkpt lat="44.32805" lon="5.65439">
        <ele>881</ele>
        <time>2022-06-09T21:02:29Z</time>
      </trkpt>
      <trkpt lat="44.32816" lon="5.65424">
        <ele>883</ele>
        <time>2022-06-09T21:02:33Z</time>
      </trkpt>
      <trkpt lat="44.32824" lon="5.6538">
        <ele>882</ele>
        <time>2022-06-09T21:02:40Z</time>
      </trkpt>
      <trkpt lat="44.32844" lon="5.65338">
        <ele>886</ele>
        <time>2022-06-09T21:02:49Z</time>
      </trkpt>
      <trkpt lat="44.32849" lon="5.65318">
        <ele>886</ele>
        <time>2022-06-09T21:02:52Z</time>
      </trkpt>
      <trkpt lat="44.32854" lon="5.65314">
        <ele>888</ele>
        <time>2022-06-09T21:02:54Z</time>
      </trkpt>
      <trkpt lat="44.32861" lon="5.65285">
        <ele>887</ele>
        <time>2022-06-09T21:02:59Z</time>
      </trkpt>
      <trkpt lat="44.32871" lon="5.65276">
        <ele>891</ele>
        <time>2022-06-09T21:03:02Z</time>
      </trkpt>
      <trkpt lat="44.3288" lon="5.65246">
        <ele>890</ele>
        <time>2022-06-09T21:03:07Z</time>
      </trkpt>
      <trkpt lat="44.32887" lon="5.65234">
        <ele>891</ele>
        <time>2022-06-09T21:03:10Z</time>
      </trkpt>
      <trkpt lat="44.3289" lon="5.65231">
        <ele>891</ele>
        <time>2022-06-09T21:03:10Z</time>
      </trkpt>
      <trkpt lat="44.32901" lon="5.6523">
        <ele>896</ele>
        <time>2022-06-09T21:03:13Z</time>
      </trkpt>
      <trkpt lat="44.32908" lon="5.65223">
        <ele>897</ele>
        <time>2022-06-09T21:03:15Z</time>
      </trkpt>
      <trkpt lat="44.32916" lon="5.65192">
        <ele>894</ele>
        <time>2022-06-09T21:03:20Z</time>
      </trkpt>
      <trkpt lat="44.32923" lon="5.65175">
        <ele>892</ele>
        <time>2022-06-09T21:03:24Z</time>
      </trkpt>
      <trkpt lat="44.32939" lon="5.65156">
        <ele>889</ele>
        <time>2022-06-09T21:03:29Z</time>
      </trkpt>
      <trkpt lat="44.32944" lon="5.65145">
        <ele>886</ele>
        <time>2022-06-09T21:03:31Z</time>
      </trkpt>
      <trkpt lat="44.32956" lon="5.65145">
        <ele>888</ele>
        <time>2022-06-09T21:03:34Z</time>
      </trkpt>
      <trkpt lat="44.32955" lon="5.65147">
        <ele>889</ele>
        <time>2022-06-09T21:03:34Z</time>
      </trkpt>
      <trkpt lat="44.32968" lon="5.65141">
        <ele>888</ele>
        <time>2022-06-09T21:03:37Z</time>
      </trkpt>
      <trkpt lat="44.32982" lon="5.65144">
        <ele>892</ele>
        <time>2022-06-09T21:03:41Z</time>
      </trkpt>
      <trkpt lat="44.32998" lon="5.65159">
        <ele>903</ele>
        <time>2022-06-09T21:03:45Z</time>
      </trkpt>
      <trkpt lat="44.33013" lon="5.65179">
        <ele>915</ele>
        <time>2022-06-09T21:03:50Z</time>
      </trkpt>
      <trkpt lat="44.33024" lon="5.65185">
        <ele>919</ele>
        <time>2022-06-09T21:03:53Z</time>
      </trkpt>
      <trkpt lat="44.33035" lon="5.65186">
        <ele>920</ele>
        <time>2022-06-09T21:03:55Z</time>
      </trkpt>
      <trkpt lat="44.33049" lon="5.65177">
        <ele>917</ele>
        <time>2022-06-09T21:03:59Z</time>
      </trkpt>
      <trkpt lat="44.33068" lon="5.65173">
        <ele>916</ele>
        <time>2022-06-09T21:04:03Z</time>
      </trkpt>
      <trkpt lat="44.33072" lon="5.6517">
        <ele>915</ele>
        <time>2022-06-09T21:04:04Z</time>
      </trkpt>
      <trkpt lat="44.33081" lon="5.65152">
        <ele>908</ele>
        <time>2022-06-09T21:04:08Z</time>
      </trkpt>
      <trkpt lat="44.33084" lon="5.6515">
        <ele>907</ele>
        <time>2022-06-09T21:04:09Z</time>
      </trkpt>
      <trkpt lat="44.33088" lon="5.65137">
        <ele>902</ele>
        <time>2022-06-09T21:04:11Z</time>
      </trkpt>
      <trkpt lat="44.33098" lon="5.65127">
        <ele>899</ele>
        <time>2022-06-09T21:04:14Z</time>
      </trkpt>
      <trkpt lat="44.33107" lon="5.65121">
        <ele>898</ele>
        <time>2022-06-09T21:04:16Z</time>
      </trkpt>
      <trkpt lat="44.33109" lon="5.65124">
        <ele>899</ele>
        <time>2022-06-09T21:04:17Z</time>
      </trkpt>
      <trkpt lat="44.33115" lon="5.65121">
        <ele>899</ele>
        <time>2022-06-09T21:04:19Z</time>
      </trkpt>
      <trkpt lat="44.33117" lon="5.65123">
        <ele>900</ele>
        <time>2022-06-09T21:04:19Z</time>
      </trkpt>
      <trkpt lat="44.33122" lon="5.65122">
        <ele>900</ele>
        <time>2022-06-09T21:04:20Z</time>
      </trkpt>
      <trkpt lat="44.33127" lon="5.65127">
        <ele>903</ele>
        <time>2022-06-09T21:04:22Z</time>
      </trkpt>
      <trkpt lat="44.33128" lon="5.65142">
        <ele>909</ele>
        <time>2022-06-09T21:04:24Z</time>
      </trkpt>
      <trkpt lat="44.33135" lon="5.65155">
        <ele>915</ele>
        <time>2022-06-09T21:04:27Z</time>
      </trkpt>
      <trkpt lat="44.33136" lon="5.65162">
        <ele>917</ele>
        <time>2022-06-09T21:04:28Z</time>
      </trkpt>
      <trkpt lat="44.33134" lon="5.65208">
        <ele>933</ele>
        <time>2022-06-09T21:04:36Z</time>
      </trkpt>
      <trkpt lat="44.33161" lon="5.65259">
        <ele>945</ele>
        <time>2022-06-09T21:04:46Z</time>
      </trkpt>
      <trkpt lat="44.33171" lon="5.65296">
        <ele>953</ele>
        <time>2022-06-09T21:04:53Z</time>
      </trkpt>
      <trkpt lat="44.33171" lon="5.65312">
        <ele>956</ele>
        <time>2022-06-09T21:04:56Z</time>
      </trkpt>
      <trkpt lat="44.33168" lon="5.65318">
        <ele>956</ele>
        <time>2022-06-09T21:04:57Z</time>
      </trkpt>
      <trkpt lat="44.33169" lon="5.65326">
        <ele>958</ele>
        <time>2022-06-09T21:04:58Z</time>
      </trkpt>
      <trkpt lat="44.33172" lon="5.65332">
        <ele>960</ele>
        <time>2022-06-09T21:05:00Z</time>
      </trkpt>
      <trkpt lat="44.33178" lon="5.65335">
        <ele>963</ele>
        <time>2022-06-09T21:05:01Z</time>
      </trkpt>
      <trkpt lat="44.33191" lon="5.65324">
        <ele>964</ele>
        <time>2022-06-09T21:05:05Z</time>
      </trkpt>
      <trkpt lat="44.33211" lon="5.65298">
        <ele>965</ele>
        <time>2022-06-09T21:05:11Z</time>
      </trkpt>
      <trkpt lat="44.33217" lon="5.65286">
        <ele>964</ele>
        <time>2022-06-09T21:05:13Z</time>
      </trkpt>
      <trkpt lat="44.33219" lon="5.65285">
        <ele>965</ele>
        <time>2022-06-09T21:05:14Z</time>
      </trkpt>
      <trkpt lat="44.33223" lon="5.65288">
        <ele>967</ele>
        <time>2022-06-09T21:05:15Z</time>
      </trkpt>
      <trkpt lat="44.33227" lon="5.65284">
        <ele>967</ele>
        <time>2022-06-09T21:05:16Z</time>
      </trkpt>
      <trkpt lat="44.33236" lon="5.65254">
        <ele>964</ele>
        <time>2022-06-09T21:05:22Z</time>
      </trkpt>
      <trkpt lat="44.33244" lon="5.65241">
        <ele>963</ele>
        <time>2022-06-09T21:05:24Z</time>
      </trkpt>
      <trkpt lat="44.33248" lon="5.65228">
        <ele>962</ele>
        <time>2022-06-09T21:05:27Z</time>
      </trkpt>
      <trkpt lat="44.33248" lon="5.6523">
        <ele>962</ele>
        <time>2022-06-09T21:05:27Z</time>
      </trkpt>
      <trkpt lat="44.33248" lon="5.65205">
        <ele>957</ele>
        <time>2022-06-09T21:05:31Z</time>
      </trkpt>
      <trkpt lat="44.33258" lon="5.65194">
        <ele>960</ele>
        <time>2022-06-09T21:05:34Z</time>
      </trkpt>
      <trkpt lat="44.33263" lon="5.6518">
        <ele>960</ele>
        <time>2022-06-09T21:05:37Z</time>
      </trkpt>
      <trkpt lat="44.33263" lon="5.65152">
        <ele>952</ele>
        <time>2022-06-09T21:05:42Z</time>
      </trkpt>
      <trkpt lat="44.33267" lon="5.65144">
        <ele>951</ele>
        <time>2022-06-09T21:05:43Z</time>
      </trkpt>
      <trkpt lat="44.33279" lon="5.65131">
        <ele>952</ele>
        <time>2022-06-09T21:05:47Z</time>
      </trkpt>
      <trkpt lat="44.33293" lon="5.65129">
        <ele>958</ele>
        <time>2022-06-09T21:05:50Z</time>
      </trkpt>
      <trkpt lat="44.33319" lon="5.65118">
        <ele>965</ele>
        <time>2022-06-09T21:05:56Z</time>
      </trkpt>
      <trkpt lat="44.33333" lon="5.65118">
        <ele>972</ele>
        <time>2022-06-09T21:06:00Z</time>
      </trkpt>
      <trkpt lat="44.33349" lon="5.65111">
        <ele>972</ele>
        <time>2022-06-09T21:06:04Z</time>
      </trkpt>
      <trkpt lat="44.33368" lon="5.65115">
        <ele>978</ele>
        <time>2022-06-09T21:06:08Z</time>
      </trkpt>
      <trkpt lat="44.33375" lon="5.65122">
        <ele>983</ele>
        <time>2022-06-09T21:06:10Z</time>
      </trkpt>
      <trkpt lat="44.33385" lon="5.65123">
        <ele>986</ele>
        <time>2022-06-09T21:06:12Z</time>
      </trkpt>
      <trkpt lat="44.33394" lon="5.6512">
        <ele>986</ele>
        <time>2022-06-09T21:06:15Z</time>
      </trkpt>
      <trkpt lat="44.33398" lon="5.65121">
        <ele>987</ele>
        <time>2022-06-09T21:06:15Z</time>
      </trkpt>
      <trkpt lat="44.33401" lon="5.65117">
        <ele>986</ele>
        <time>2022-06-09T21:06:16Z</time>
      </trkpt>
      <trkpt lat="44.33412" lon="5.65112">
        <ele>986</ele>
        <time>2022-06-09T21:06:19Z</time>
      </trkpt>
      <trkpt lat="44.33426" lon="5.65111">
        <ele>987</ele>
        <time>2022-06-09T21:06:22Z</time>
      </trkpt>
      <trkpt lat="44.33432" lon="5.65113">
        <ele>988</ele>
        <time>2022-06-09T21:06:24Z</time>
      </trkpt>
      <trkpt lat="44.33435" lon="5.65119">
        <ele>992</ele>
        <time>2022-06-09T21:06:25Z</time>
      </trkpt>
      <trkpt lat="44.33451" lon="5.65127">
        <ele>997</ele>
        <time>2022-06-09T21:06:29Z</time>
      </trkpt>
      <trkpt lat="44.33469" lon="5.65131">
        <ele>1000</ele>
        <time>2022-06-09T21:06:33Z</time>
      </trkpt>
      <trkpt lat="44.33492" lon="5.65132">
        <ele>1002</ele>
        <time>2022-06-09T21:06:39Z</time>
      </trkpt>
      <trkpt lat="44.33508" lon="5.65125">
        <ele>1000</ele>
        <time>2022-06-09T21:06:43Z</time>
      </trkpt>
      <trkpt lat="44.33552" lon="5.65092">
        <ele>991</ele>
        <time>2022-06-09T21:06:54Z</time>
      </trkpt>
      <trkpt lat="44.33576" lon="5.65079">
        <ele>991</ele>
        <time>2022-06-09T21:07:00Z</time>
      </trkpt>
      <trkpt lat="44.33599" lon="5.65075">
        <ele>997</ele>
        <time>2022-06-09T21:07:06Z</time>
      </trkpt>
      <trkpt lat="44.3362" lon="5.65065">
        <ele>1002</ele>
        <time>2022-06-09T21:07:11Z</time>
      </trkpt>
      <trkpt lat="44.33621" lon="5.65063">
        <ele>1002</ele>
        <time>2022-06-09T21:07:11Z</time>
      </trkpt>
      <trkpt lat="44.33619" lon="5.65062">
        <ele>1002</ele>
        <time>2022-06-09T21:07:12Z</time>
      </trkpt>
      <trkpt lat="44.33624" lon="5.65057">
        <ele>1003</ele>
        <time>2022-06-09T21:07:13Z</time>
      </trkpt>
      <trkpt lat="44.33626" lon="5.65049">
        <ele>1003</ele>
        <time>2022-06-09T21:07:15Z</time>
      </trkpt>
      <trkpt lat="44.33637" lon="5.65042">
        <ele>1005</ele>
        <time>2022-06-09T21:07:17Z</time>
      </trkpt>
      <trkpt lat="44.3365" lon="5.65024">
        <ele>1006</ele>
        <time>2022-06-09T21:07:22Z</time>
      </trkpt>
      <trkpt lat="44.33659" lon="5.65017">
        <ele>1007</ele>
        <time>2022-06-09T21:07:24Z</time>
      </trkpt>
      <trkpt lat="44.33667" lon="5.65016">
        <ele>1008</ele>
        <time>2022-06-09T21:07:26Z</time>
      </trkpt>
      <trkpt lat="44.3368" lon="5.6501">
        <ele>1010</ele>
        <time>2022-06-09T21:07:29Z</time>
      </trkpt>
      <trkpt lat="44.337" lon="5.64991">
        <ele>1013</ele>
        <time>2022-06-09T21:07:35Z</time>
      </trkpt>
      <trkpt lat="44.33703" lon="5.64991">
        <ele>1014</ele>
        <time>2022-06-09T21:07:36Z</time>
      </trkpt>
      <trkpt lat="44.33733" lon="5.64954">
        <ele>1019</ele>
        <time>2022-06-09T21:07:45Z</time>
      </trkpt>
      <trkpt lat="44.33741" lon="5.64956">
        <ele>1019</ele>
        <time>2022-06-09T21:07:47Z</time>
      </trkpt>
      <trkpt lat="44.33742" lon="5.64951">
        <ele>1019</ele>
        <time>2022-06-09T21:07:48Z</time>
      </trkpt>
      <trkpt lat="44.33754" lon="5.64942">
        <ele>1019</ele>
        <time>2022-06-09T21:07:51Z</time>
      </trkpt>
      <trkpt lat="44.33758" lon="5.64936">
        <ele>1019</ele>
        <time>2022-06-09T21:07:52Z</time>
      </trkpt>
      <trkpt lat="44.33767" lon="5.64934">
        <ele>1020</ele>
        <time>2022-06-09T21:07:54Z</time>
      </trkpt>
      <trkpt lat="44.33774" lon="5.64924">
        <ele>1020</ele>
        <time>2022-06-09T21:07:57Z</time>
      </trkpt>
      <trkpt lat="44.33777" lon="5.64926">
        <ele>1020</ele>
        <time>2022-06-09T21:07:57Z</time>
      </trkpt>
      <trkpt lat="44.3378" lon="5.64905">
        <ele>1021</ele>
        <time>2022-06-09T21:08:01Z</time>
      </trkpt>
      <trkpt lat="44.33785" lon="5.649">
        <ele>1022</ele>
        <time>2022-06-09T21:08:02Z</time>
      </trkpt>
      <trkpt lat="44.33798" lon="5.64899">
        <ele>1023</ele>
        <time>2022-06-09T21:08:05Z</time>
      </trkpt>
      <trkpt lat="44.33822" lon="5.64875">
        <ele>1027</ele>
        <time>2022-06-09T21:08:12Z</time>
      </trkpt>
      <trkpt lat="44.33833" lon="5.64868">
        <ele>1027</ele>
        <time>2022-06-09T21:08:15Z</time>
      </trkpt>
      <trkpt lat="44.33836" lon="5.64864">
        <ele>1028</ele>
        <time>2022-06-09T21:08:16Z</time>
      </trkpt>
      <trkpt lat="44.33834" lon="5.64858">
        <ele>1028</ele>
        <time>2022-06-09T21:08:17Z</time>
      </trkpt>
      <trkpt lat="44.33836" lon="5.64844">
        <ele>1029</ele>
        <time>2022-06-09T21:08:20Z</time>
      </trkpt>
      <trkpt lat="44.33838" lon="5.64842">
        <ele>1030</ele>
        <time>2022-06-09T21:08:20Z</time>
      </trkpt>
      <trkpt lat="44.33844" lon="5.64845">
        <ele>1032</ele>
        <time>2022-06-09T21:08:22Z</time>
      </trkpt>
      <trkpt lat="44.33845" lon="5.64837">
        <ele>1032</ele>
        <time>2022-06-09T21:08:23Z</time>
      </trkpt>
      <trkpt lat="44.33836" lon="5.64835">
        <ele>1030</ele>
        <time>2022-06-09T21:08:25Z</time>
      </trkpt>
      <trkpt lat="44.33826" lon="5.64821">
        <ele>1032</ele>
        <time>2022-06-09T21:08:29Z</time>
      </trkpt>
      <trkpt lat="44.33813" lon="5.6482">
        <ele>1033</ele>
        <time>2022-06-09T21:08:32Z</time>
      </trkpt>
      <trkpt lat="44.33805" lon="5.64811">
        <ele>1035</ele>
        <time>2022-06-09T21:08:34Z</time>
      </trkpt>
      <trkpt lat="44.33803" lon="5.64812">
        <ele>1035</ele>
        <time>2022-06-09T21:08:34Z</time>
      </trkpt>
      <trkpt lat="44.33795" lon="5.64805">
        <ele>1036</ele>
        <time>2022-06-09T21:08:37Z</time>
      </trkpt>
      <trkpt lat="44.3379" lon="5.64791">
        <ele>1039</ele>
        <time>2022-06-09T21:08:39Z</time>
      </trkpt>
      <trkpt lat="44.33785" lon="5.64788">
        <ele>1040</ele>
        <time>2022-06-09T21:08:41Z</time>
      </trkpt>
      <trkpt lat="44.33775" lon="5.6477">
        <ele>1044</ele>
        <time>2022-06-09T21:08:44Z</time>
      </trkpt>
      <trkpt lat="44.33775" lon="5.64765">
        <ele>1045</ele>
        <time>2022-06-09T21:08:45Z</time>
      </trkpt>
      <trkpt lat="44.33768" lon="5.64757">
        <ele>1047</ele>
        <time>2022-06-09T21:08:47Z</time>
      </trkpt>
      <trkpt lat="44.33765" lon="5.64739">
        <ele>1051</ele>
        <time>2022-06-09T21:08:50Z</time>
      </trkpt>
      <trkpt lat="44.33759" lon="5.64732">
        <ele>1052</ele>
        <time>2022-06-09T21:08:52Z</time>
      </trkpt>
      <trkpt lat="44.33758" lon="5.64716">
        <ele>1056</ele>
        <time>2022-06-09T21:08:55Z</time>
      </trkpt>
      <trkpt lat="44.33748" lon="5.64705">
        <ele>1058</ele>
        <time>2022-06-09T21:08:58Z</time>
      </trkpt>
      <trkpt lat="44.33746" lon="5.64696">
        <ele>1060</ele>
        <time>2022-06-09T21:08:59Z</time>
      </trkpt>
      <trkpt lat="44.33732" lon="5.64683">
        <ele>1062</ele>
        <time>2022-06-09T21:09:03Z</time>
      </trkpt>
      <trkpt lat="44.33724" lon="5.64682">
        <ele>1063</ele>
        <time>2022-06-09T21:09:05Z</time>
      </trkpt>
      <trkpt lat="44.33717" lon="5.64678">
        <ele>1063</ele>
        <time>2022-06-09T21:09:07Z</time>
      </trkpt>
      <trkpt lat="44.33712" lon="5.6467">
        <ele>1064</ele>
        <time>2022-06-09T21:09:09Z</time>
      </trkpt>
      <trkpt lat="44.33705" lon="5.64668">
        <ele>1064</ele>
        <time>2022-06-09T21:09:10Z</time>
      </trkpt>
      <trkpt lat="44.33693" lon="5.64657">
        <ele>1064</ele>
        <time>2022-06-09T21:09:14Z</time>
      </trkpt>
      <trkpt lat="44.33693" lon="5.64644">
        <ele>1065</ele>
        <time>2022-06-09T21:09:16Z</time>
      </trkpt>
      <trkpt lat="44.33707" lon="5.64626">
        <ele>1068</ele>
        <time>2022-06-09T21:09:20Z</time>
      </trkpt>
      <trkpt lat="44.33716" lon="5.6462">
        <ele>1070</ele>
        <time>2022-06-09T21:09:23Z</time>
      </trkpt>
      <trkpt lat="44.33718" lon="5.64621">
        <ele>1070</ele>
        <time>2022-06-09T21:09:23Z</time>
      </trkpt>
      <trkpt lat="44.33723" lon="5.64611">
        <ele>1072</ele>
        <time>2022-06-09T21:09:25Z</time>
      </trkpt>
      <trkpt lat="44.33727" lon="5.64593">
        <ele>1076</ele>
        <time>2022-06-09T21:09:28Z</time>
      </trkpt>
      <trkpt lat="44.33738" lon="5.64575">
        <ele>1081</ele>
        <time>2022-06-09T21:09:32Z</time>
      </trkpt>
      <trkpt lat="44.33739" lon="5.64558">
        <ele>1083</ele>
        <time>2022-06-09T21:09:35Z</time>
      </trkpt>
      <trkpt lat="44.33738" lon="5.64548">
        <ele>1084</ele>
        <time>2022-06-09T21:09:37Z</time>
      </trkpt>
      <trkpt lat="44.33735" lon="5.64544">
        <ele>1084</ele>
        <time>2022-06-09T21:09:38Z</time>
      </trkpt>
      <trkpt lat="44.33733" lon="5.64497">
        <ele>1087</ele>
        <time>2022-06-09T21:09:46Z</time>
      </trkpt>
      <trkpt lat="44.33727" lon="5.64477">
        <ele>1083</ele>
        <time>2022-06-09T21:09:49Z</time>
      </trkpt>
      <trkpt lat="44.33728" lon="5.64468">
        <ele>1082</ele>
        <time>2022-06-09T21:09:51Z</time>
      </trkpt>
      <trkpt lat="44.33731" lon="5.64464">
        <ele>1082</ele>
        <time>2022-06-09T21:09:52Z</time>
      </trkpt>
      <trkpt lat="44.33741" lon="5.64459">
        <ele>1085</ele>
        <time>2022-06-09T21:09:54Z</time>
      </trkpt>
      <trkpt lat="44.33747" lon="5.64445">
        <ele>1085</ele>
        <time>2022-06-09T21:09:57Z</time>
      </trkpt>
      <trkpt lat="44.33764" lon="5.64436">
        <ele>1093</ele>
        <time>2022-06-09T21:10:01Z</time>
      </trkpt>
      <trkpt lat="44.33778" lon="5.64415">
        <ele>1100</ele>
        <time>2022-06-09T21:10:06Z</time>
      </trkpt>
      <trkpt lat="44.33787" lon="5.64396">
        <ele>1104</ele>
        <time>2022-06-09T21:10:10Z</time>
      </trkpt>
      <trkpt lat="44.33792" lon="5.64394">
        <ele>1107</ele>
        <time>2022-06-09T21:10:11Z</time>
      </trkpt>
      <trkpt lat="44.33797" lon="5.64378">
        <ele>1109</ele>
        <time>2022-06-09T21:10:14Z</time>
      </trkpt>
      <trkpt lat="44.33802" lon="5.64375">
        <ele>1112</ele>
        <time>2022-06-09T21:10:15Z</time>
      </trkpt>
      <trkpt lat="44.33805" lon="5.64358">
        <ele>1113</ele>
        <time>2022-06-09T21:10:18Z</time>
      </trkpt>
      <trkpt lat="44.3381" lon="5.64348">
        <ele>1115</ele>
        <time>2022-06-09T21:10:20Z</time>
      </trkpt>
      <trkpt lat="44.33807" lon="5.64334">
        <ele>1112</ele>
        <time>2022-06-09T21:10:23Z</time>
      </trkpt>
      <trkpt lat="44.33808" lon="5.64308">
        <ele>1111</ele>
        <time>2022-06-09T21:10:27Z</time>
      </trkpt>
      <trkpt lat="44.33803" lon="5.64269">
        <ele>1106</ele>
        <time>2022-06-09T21:10:34Z</time>
      </trkpt>
      <trkpt lat="44.33803" lon="5.64251">
        <ele>1106</ele>
        <time>2022-06-09T21:10:37Z</time>
      </trkpt>
      <trkpt lat="44.33808" lon="5.64231">
        <ele>1106</ele>
        <time>2022-06-09T21:10:40Z</time>
      </trkpt>
      <trkpt lat="44.33821" lon="5.64205">
        <ele>1109</ele>
        <time>2022-06-09T21:10:46Z</time>
      </trkpt>
      <trkpt lat="44.33823" lon="5.64202">
        <ele>1110</ele>
        <time>2022-06-09T21:10:46Z</time>
      </trkpt>
      <trkpt lat="44.33831" lon="5.642">
        <ele>1114</ele>
        <time>2022-06-09T21:10:48Z</time>
      </trkpt>
      <trkpt lat="44.33856" lon="5.64174">
        <ele>1120</ele>
        <time>2022-06-09T21:10:55Z</time>
      </trkpt>
      <trkpt lat="44.33879" lon="5.64141">
        <ele>1119</ele>
        <time>2022-06-09T21:11:03Z</time>
      </trkpt>
      <trkpt lat="44.33903" lon="5.64113">
        <ele>1117</ele>
        <time>2022-06-09T21:11:10Z</time>
      </trkpt>
      <trkpt lat="44.33921" lon="5.64099">
        <ele>1118</ele>
        <time>2022-06-09T21:11:15Z</time>
      </trkpt>
      <trkpt lat="44.33947" lon="5.64093">
        <ele>1126</ele>
        <time>2022-06-09T21:11:21Z</time>
      </trkpt>
      <trkpt lat="44.33956" lon="5.64088">
        <ele>1128</ele>
        <time>2022-06-09T21:11:24Z</time>
      </trkpt>
      <trkpt lat="44.33992" lon="5.64037">
        <ele>1134</ele>
        <time>2022-06-09T21:11:36Z</time>
      </trkpt>
      <trkpt lat="44.34" lon="5.64022">
        <ele>1137</ele>
        <time>2022-06-09T21:11:39Z</time>
      </trkpt>
      <trkpt lat="44.33998" lon="5.64006">
        <ele>1134</ele>
        <time>2022-06-09T21:11:41Z</time>
      </trkpt>
      <trkpt lat="44.33986" lon="5.63967">
        <ele>1126</ele>
        <time>2022-06-09T21:11:49Z</time>
      </trkpt>
      <trkpt lat="44.33983" lon="5.63945">
        <ele>1124</ele>
        <time>2022-06-09T21:11:52Z</time>
      </trkpt>
      <trkpt lat="44.33985" lon="5.63931">
        <ele>1125</ele>
        <time>2022-06-09T21:11:55Z</time>
      </trkpt>
      <trkpt lat="44.33983" lon="5.63921">
        <ele>1124</ele>
        <time>2022-06-09T21:11:56Z</time>
      </trkpt>
      <trkpt lat="44.33992" lon="5.63891">
        <ele>1125</ele>
        <time>2022-06-09T21:12:02Z</time>
      </trkpt>
      <trkpt lat="44.34002" lon="5.63874">
        <ele>1128</ele>
        <time>2022-06-09T21:12:05Z</time>
      </trkpt>
      <trkpt lat="44.34013" lon="5.63861">
        <ele>1131</ele>
        <time>2022-06-09T21:12:09Z</time>
      </trkpt>
      <trkpt lat="44.3404" lon="5.63846">
        <ele>1143</ele>
        <time>2022-06-09T21:12:16Z</time>
      </trkpt>
      <trkpt lat="44.34052" lon="5.63824">
        <ele>1146</ele>
        <time>2022-06-09T21:12:20Z</time>
      </trkpt>
      <trkpt lat="44.34058" lon="5.6378">
        <ele>1146</ele>
        <time>2022-06-09T21:12:28Z</time>
      </trkpt>
      <trkpt lat="44.34059" lon="5.63749">
        <ele>1145</ele>
        <time>2022-06-09T21:12:33Z</time>
      </trkpt>
      <trkpt lat="44.34051" lon="5.63716">
        <ele>1143</ele>
        <time>2022-06-09T21:12:39Z</time>
      </trkpt>
      <trkpt lat="44.34043" lon="5.63652">
        <ele>1144</ele>
        <time>2022-06-09T21:12:50Z</time>
      </trkpt>
      <trkpt lat="44.34035" lon="5.63636">
        <ele>1143</ele>
        <time>2022-06-09T21:12:53Z</time>
      </trkpt>
      <trkpt lat="44.34031" lon="5.63617">
        <ele>1144</ele>
        <time>2022-06-09T21:12:56Z</time>
      </trkpt>
      <trkpt lat="44.34023" lon="5.63596">
        <ele>1144</ele>
        <time>2022-06-09T21:13:00Z</time>
      </trkpt>
      <trkpt lat="44.34016" lon="5.63552">
        <ele>1146</ele>
        <time>2022-06-09T21:13:08Z</time>
      </trkpt>
      <trkpt lat="44.34008" lon="5.63521">
        <ele>1147</ele>
        <time>2022-06-09T21:13:13Z</time>
      </trkpt>
      <trkpt lat="44.34002" lon="5.63508">
        <ele>1147</ele>
        <time>2022-06-09T21:13:16Z</time>
      </trkpt>
      <trkpt lat="44.33983" lon="5.63487">
        <ele>1141</ele>
        <time>2022-06-09T21:13:21Z</time>
      </trkpt>
      <trkpt lat="44.33979" lon="5.63474">
        <ele>1141</ele>
        <time>2022-06-09T21:13:24Z</time>
      </trkpt>
      <trkpt lat="44.33979" lon="5.63457">
        <ele>1143</ele>
        <time>2022-06-09T21:13:27Z</time>
      </trkpt>
      <trkpt lat="44.33986" lon="5.63409">
        <ele>1150</ele>
        <time>2022-06-09T21:13:35Z</time>
      </trkpt>
      <trkpt lat="44.33983" lon="5.63391">
        <ele>1150</ele>
        <time>2022-06-09T21:13:38Z</time>
      </trkpt>
      <trkpt lat="44.33985" lon="5.63372">
        <ele>1150</ele>
        <time>2022-06-09T21:13:41Z</time>
      </trkpt>
      <trkpt lat="44.33993" lon="5.63368">
        <ele>1152</ele>
        <time>2022-06-09T21:13:43Z</time>
      </trkpt>
      <trkpt lat="44.33994" lon="5.6337">
        <ele>1152</ele>
        <time>2022-06-09T21:13:43Z</time>
      </trkpt>
      <trkpt lat="44.33992" lon="5.63367">
        <ele>1152</ele>
        <time>2022-06-09T21:13:44Z</time>
      </trkpt>
      <trkpt lat="44.33988" lon="5.63373">
        <ele>1151</ele>
        <time>2022-06-09T21:13:46Z</time>
      </trkpt>
      <trkpt lat="44.34005" lon="5.63362">
        <ele>1153</ele>
        <time>2022-06-09T21:13:50Z</time>
      </trkpt>
      <trkpt lat="44.34025" lon="5.63341">
        <ele>1150</ele>
        <time>2022-06-09T21:13:56Z</time>
      </trkpt>
      <trkpt lat="44.34051" lon="5.63325">
        <ele>1145</ele>
        <time>2022-06-09T21:14:02Z</time>
      </trkpt>
      <trkpt lat="44.34061" lon="5.6332">
        <ele>1143</ele>
        <time>2022-06-09T21:14:05Z</time>
      </trkpt>
      <trkpt lat="44.34069" lon="5.63323">
        <ele>1142</ele>
        <time>2022-06-09T21:14:07Z</time>
      </trkpt>
      <trkpt lat="44.34076" lon="5.63322">
        <ele>1141</ele>
        <time>2022-06-09T21:14:08Z</time>
      </trkpt>
      <trkpt lat="44.34093" lon="5.63292">
        <ele>1135</ele>
        <time>2022-06-09T21:14:15Z</time>
      </trkpt>
      <trkpt lat="44.34143" lon="5.63237">
        <ele>1122</ele>
        <time>2022-06-09T21:14:30Z</time>
      </trkpt>
      <trkpt lat="44.34166" lon="5.632">
        <ele>1114</ele>
        <time>2022-06-09T21:14:38Z</time>
      </trkpt>
      <trkpt lat="44.34171" lon="5.6318">
        <ele>1111</ele>
        <time>2022-06-09T21:14:41Z</time>
      </trkpt>
      <trkpt lat="44.34194" lon="5.63151">
        <ele>1105</ele>
        <time>2022-06-09T21:14:49Z</time>
      </trkpt>
      <trkpt lat="44.34205" lon="5.63144">
        <ele>1103</ele>
        <time>2022-06-09T21:14:51Z</time>
      </trkpt>
      <trkpt lat="44.34216" lon="5.63133">
        <ele>1100</ele>
        <time>2022-06-09T21:14:55Z</time>
      </trkpt>
      <trkpt lat="44.34229" lon="5.63106">
        <ele>1096</ele>
        <time>2022-06-09T21:15:00Z</time>
      </trkpt>
      <trkpt lat="44.3425" lon="5.63089">
        <ele>1092</ele>
        <time>2022-06-09T21:15:06Z</time>
      </trkpt>
      <trkpt lat="44.34265" lon="5.63083">
        <ele>1090</ele>
        <time>2022-06-09T21:15:09Z</time>
      </trkpt>
      <trkpt lat="44.34294" lon="5.63061">
        <ele>1085</ele>
        <time>2022-06-09T21:15:17Z</time>
      </trkpt>
      <trkpt lat="44.343" lon="5.6306">
        <ele>1084</ele>
        <time>2022-06-09T21:15:18Z</time>
      </trkpt>
      <trkpt lat="44.34305" lon="5.63064">
        <ele>1085</ele>
        <time>2022-06-09T21:15:20Z</time>
      </trkpt>
      <trkpt lat="44.34298" lon="5.63074">
        <ele>1086</ele>
        <time>2022-06-09T21:15:22Z</time>
      </trkpt>
      <trkpt lat="44.34296" lon="5.63082">
        <ele>1088</ele>
        <time>2022-06-09T21:15:24Z</time>
      </trkpt>
      <trkpt lat="44.34295" lon="5.63117">
        <ele>1090</ele>
        <time>2022-06-09T21:15:29Z</time>
      </trkpt>
      <trkpt lat="44.3429" lon="5.63137">
        <ele>1091</ele>
        <time>2022-06-09T21:15:33Z</time>
      </trkpt>
      <trkpt lat="44.34283" lon="5.6315">
        <ele>1093</ele>
        <time>2022-06-09T21:15:36Z</time>
      </trkpt>
      <trkpt lat="44.34274" lon="5.63159">
        <ele>1095</ele>
        <time>2022-06-09T21:15:38Z</time>
      </trkpt>
      <trkpt lat="44.34251" lon="5.63191">
        <ele>1101</ele>
        <time>2022-06-09T21:15:46Z</time>
      </trkpt>
      <trkpt lat="44.34246" lon="5.63203">
        <ele>1103</ele>
        <time>2022-06-09T21:15:48Z</time>
      </trkpt>
      <trkpt lat="44.34251" lon="5.63217">
        <ele>1103</ele>
        <time>2022-06-09T21:15:51Z</time>
      </trkpt>
      <trkpt lat="44.34262" lon="5.63233">
        <ele>1102</ele>
        <time>2022-06-09T21:15:54Z</time>
      </trkpt>
      <trkpt lat="44.34274" lon="5.63258">
        <ele>1102</ele>
        <time>2022-06-09T21:16:00Z</time>
      </trkpt>
      <trkpt lat="44.34277" lon="5.63268">
        <ele>1103</ele>
        <time>2022-06-09T21:16:01Z</time>
      </trkpt>
      <trkpt lat="44.34278" lon="5.63293">
        <ele>1105</ele>
        <time>2022-06-09T21:16:06Z</time>
      </trkpt>
      <trkpt lat="44.34285" lon="5.63309">
        <ele>1105</ele>
        <time>2022-06-09T21:16:09Z</time>
      </trkpt>
      <trkpt lat="44.34291" lon="5.63343">
        <ele>1108</ele>
        <time>2022-06-09T21:16:14Z</time>
      </trkpt>
      <trkpt lat="44.34298" lon="5.63364">
        <ele>1108</ele>
        <time>2022-06-09T21:16:18Z</time>
      </trkpt>
      <trkpt lat="44.34314" lon="5.63399">
        <ele>1108</ele>
        <time>2022-06-09T21:16:25Z</time>
      </trkpt>
      <trkpt lat="44.34323" lon="5.63427">
        <ele>1109</ele>
        <time>2022-06-09T21:16:30Z</time>
      </trkpt>
      <trkpt lat="44.34333" lon="5.63503">
        <ele>1116</ele>
        <time>2022-06-09T21:16:43Z</time>
      </trkpt>
      <trkpt lat="44.34343" lon="5.63529">
        <ele>1115</ele>
        <time>2022-06-09T21:16:48Z</time>
      </trkpt>
      <trkpt lat="44.34355" lon="5.63548">
        <ele>1112</ele>
        <time>2022-06-09T21:16:52Z</time>
      </trkpt>
      <trkpt lat="44.34361" lon="5.63572">
        <ele>1112</ele>
        <time>2022-06-09T21:16:57Z</time>
      </trkpt>
      <trkpt lat="44.34362" lon="5.63592">
        <ele>1112</ele>
        <time>2022-06-09T21:17:00Z</time>
      </trkpt>
      <trkpt lat="44.34359" lon="5.63648">
        <ele>1114</ele>
        <time>2022-06-09T21:17:09Z</time>
      </trkpt>
      <trkpt lat="44.34334" lon="5.63808">
        <ele>1127</ele>
        <time>2022-06-09T21:17:37Z</time>
      </trkpt>
      <trkpt lat="44.34332" lon="5.63829">
        <ele>1128</ele>
        <time>2022-06-09T21:17:40Z</time>
      </trkpt>
      <trkpt lat="44.34333" lon="5.63861">
        <ele>1130</ele>
        <time>2022-06-09T21:17:46Z</time>
      </trkpt>
      <trkpt lat="44.34327" lon="5.63877">
        <ele>1133</ele>
        <time>2022-06-09T21:17:49Z</time>
      </trkpt>
      <trkpt lat="44.34337" lon="5.63892">
        <ele>1130</ele>
        <time>2022-06-09T21:17:52Z</time>
      </trkpt>
      <trkpt lat="44.34344" lon="5.63913">
        <ele>1130</ele>
        <time>2022-06-09T21:17:56Z</time>
      </trkpt>
      <trkpt lat="44.34372" lon="5.63932">
        <ele>1125</ele>
        <time>2022-06-09T21:18:03Z</time>
      </trkpt>
      <trkpt lat="44.34378" lon="5.63933">
        <ele>1124</ele>
        <time>2022-06-09T21:18:05Z</time>
      </trkpt>
      <trkpt lat="44.34396" lon="5.63954">
        <ele>1125</ele>
        <time>2022-06-09T21:18:10Z</time>
      </trkpt>
      <trkpt lat="44.34418" lon="5.63965">
        <ele>1124</ele>
        <time>2022-06-09T21:18:16Z</time>
      </trkpt>
      <trkpt lat="44.34434" lon="5.63969">
        <ele>1122</ele>
        <time>2022-06-09T21:18:19Z</time>
      </trkpt>
      <trkpt lat="44.34453" lon="5.63983">
        <ele>1123</ele>
        <time>2022-06-09T21:18:24Z</time>
      </trkpt>
      <trkpt lat="44.34459" lon="5.6398">
        <ele>1121</ele>
        <time>2022-06-09T21:18:26Z</time>
      </trkpt>
      <trkpt lat="44.34469" lon="5.63984">
        <ele>1121</ele>
        <time>2022-06-09T21:18:28Z</time>
      </trkpt>
      <trkpt lat="44.34474" lon="5.63989">
        <ele>1121</ele>
        <time>2022-06-09T21:18:30Z</time>
      </trkpt>
      <trkpt lat="44.3448" lon="5.6399">
        <ele>1120</ele>
        <time>2022-06-09T21:18:31Z</time>
      </trkpt>
      <trkpt lat="44.34485" lon="5.63999">
        <ele>1122</ele>
        <time>2022-06-09T21:18:33Z</time>
      </trkpt>
      <trkpt lat="44.34484" lon="5.64004">
        <ele>1124</ele>
        <time>2022-06-09T21:18:34Z</time>
      </trkpt>
      <trkpt lat="44.34488" lon="5.64008">
        <ele>1124</ele>
        <time>2022-06-09T21:18:35Z</time>
      </trkpt>
      <trkpt lat="44.34521" lon="5.6403">
        <ele>1127</ele>
        <time>2022-06-09T21:18:44Z</time>
      </trkpt>
      <trkpt lat="44.34531" lon="5.64034">
        <ele>1127</ele>
        <time>2022-06-09T21:18:46Z</time>
      </trkpt>
      <trkpt lat="44.3455" lon="5.64031">
        <ele>1126</ele>
        <time>2022-06-09T21:18:51Z</time>
      </trkpt>
      <trkpt lat="44.34573" lon="5.64041">
        <ele>1127</ele>
        <time>2022-06-09T21:18:56Z</time>
      </trkpt>
      <trkpt lat="44.3459" lon="5.64038">
        <ele>1126</ele>
        <time>2022-06-09T21:19:00Z</time>
      </trkpt>
      <trkpt lat="44.34596" lon="5.64043">
        <ele>1127</ele>
        <time>2022-06-09T21:19:02Z</time>
      </trkpt>
      <trkpt lat="44.34604" lon="5.64043">
        <ele>1126</ele>
        <time>2022-06-09T21:19:04Z</time>
      </trkpt>
      <trkpt lat="44.34628" lon="5.64064">
        <ele>1130</ele>
        <time>2022-06-09T21:19:10Z</time>
      </trkpt>
      <trkpt lat="44.34628" lon="5.64069">
        <ele>1131</ele>
        <time>2022-06-09T21:19:11Z</time>
      </trkpt>
      <trkpt lat="44.34639" lon="5.64075">
        <ele>1132</ele>
        <time>2022-06-09T21:19:14Z</time>
      </trkpt>
      <trkpt lat="44.34645" lon="5.64074">
        <ele>1131</ele>
        <time>2022-06-09T21:19:15Z</time>
      </trkpt>
      <trkpt lat="44.3465" lon="5.64078">
        <ele>1132</ele>
        <time>2022-06-09T21:19:17Z</time>
      </trkpt>
      <trkpt lat="44.34669" lon="5.64105">
        <ele>1138</ele>
        <time>2022-06-09T21:19:23Z</time>
      </trkpt>
      <trkpt lat="44.34685" lon="5.64117">
        <ele>1143</ele>
        <time>2022-06-09T21:19:27Z</time>
      </trkpt>
      <trkpt lat="44.34691" lon="5.64119">
        <ele>1144</ele>
        <time>2022-06-09T21:19:29Z</time>
      </trkpt>
      <trkpt lat="44.34702" lon="5.6411">
        <ele>1143</ele>
        <time>2022-06-09T21:19:32Z</time>
      </trkpt>
      <trkpt lat="44.34711" lon="5.64106">
        <ele>1143</ele>
        <time>2022-06-09T21:19:34Z</time>
      </trkpt>
      <trkpt lat="44.34721" lon="5.64094">
        <ele>1142</ele>
        <time>2022-06-09T21:19:37Z</time>
      </trkpt>
      <trkpt lat="44.3472" lon="5.6409">
        <ele>1141</ele>
        <time>2022-06-09T21:19:38Z</time>
      </trkpt>
      <trkpt lat="44.34728" lon="5.64068">
        <ele>1138</ele>
        <time>2022-06-09T21:19:42Z</time>
      </trkpt>
      <trkpt lat="44.34742" lon="5.64052">
        <ele>1138</ele>
        <time>2022-06-09T21:19:46Z</time>
      </trkpt>
      <trkpt lat="44.34753" lon="5.6403">
        <ele>1136</ele>
        <time>2022-06-09T21:19:50Z</time>
      </trkpt>
      <trkpt lat="44.34762" lon="5.63988">
        <ele>1129</ele>
        <time>2022-06-09T21:19:58Z</time>
      </trkpt>
      <trkpt lat="44.34761" lon="5.63978">
        <ele>1126</ele>
        <time>2022-06-09T21:19:59Z</time>
      </trkpt>
      <trkpt lat="44.34766" lon="5.63971">
        <ele>1125</ele>
        <time>2022-06-09T21:20:01Z</time>
      </trkpt>
      <trkpt lat="44.34771" lon="5.63955">
        <ele>1122</ele>
        <time>2022-06-09T21:20:04Z</time>
      </trkpt>
      <trkpt lat="44.34787" lon="5.63921">
        <ele>1117</ele>
        <time>2022-06-09T21:20:11Z</time>
      </trkpt>
      <trkpt lat="44.34806" lon="5.63893">
        <ele>1113</ele>
        <time>2022-06-09T21:20:17Z</time>
      </trkpt>
      <trkpt lat="44.34814" lon="5.63891">
        <ele>1114</ele>
        <time>2022-06-09T21:20:19Z</time>
      </trkpt>
      <trkpt lat="44.3483" lon="5.63871">
        <ele>1113</ele>
        <time>2022-06-09T21:20:24Z</time>
      </trkpt>
      <trkpt lat="44.34853" lon="5.63851">
        <ele>1110</ele>
        <time>2022-06-09T21:20:30Z</time>
      </trkpt>
      <trkpt lat="44.34882" lon="5.6385">
        <ele>1113</ele>
        <time>2022-06-09T21:20:37Z</time>
      </trkpt>
      <trkpt lat="44.34895" lon="5.63831">
        <ele>1111</ele>
        <time>2022-06-09T21:20:42Z</time>
      </trkpt>
      <trkpt lat="44.34898" lon="5.6383">
        <ele>1111</ele>
        <time>2022-06-09T21:20:42Z</time>
      </trkpt>
      <trkpt lat="44.34906" lon="5.63807">
        <ele>1108</ele>
        <time>2022-06-09T21:20:47Z</time>
      </trkpt>
      <trkpt lat="44.34913" lon="5.63795">
        <ele>1107</ele>
        <time>2022-06-09T21:20:49Z</time>
      </trkpt>
      <trkpt lat="44.34918" lon="5.63777">
        <ele>1105</ele>
        <time>2022-06-09T21:20:52Z</time>
      </trkpt>
      <trkpt lat="44.34918" lon="5.63768">
        <ele>1104</ele>
        <time>2022-06-09T21:20:54Z</time>
      </trkpt>
      <trkpt lat="44.34947" lon="5.63694">
        <ele>1092</ele>
        <time>2022-06-09T21:21:08Z</time>
      </trkpt>
      <trkpt lat="44.34961" lon="5.63671">
        <ele>1088</ele>
        <time>2022-06-09T21:21:13Z</time>
      </trkpt>
      <trkpt lat="44.34964" lon="5.63668">
        <ele>1088</ele>
        <time>2022-06-09T21:21:14Z</time>
      </trkpt>
      <trkpt lat="44.34967" lon="5.63669">
        <ele>1088</ele>
        <time>2022-06-09T21:21:15Z</time>
      </trkpt>
      <trkpt lat="44.34974" lon="5.63658">
        <ele>1087</ele>
        <time>2022-06-09T21:21:17Z</time>
      </trkpt>
      <trkpt lat="44.34984" lon="5.63648">
        <ele>1085</ele>
        <time>2022-06-09T21:21:20Z</time>
      </trkpt>
      <trkpt lat="44.34988" lon="5.63647">
        <ele>1085</ele>
        <time>2022-06-09T21:21:21Z</time>
      </trkpt>
      <trkpt lat="44.34998" lon="5.6365">
        <ele>1087</ele>
        <time>2022-06-09T21:21:23Z</time>
      </trkpt>
      <trkpt lat="44.35009" lon="5.63667">
        <ele>1090</ele>
        <time>2022-06-09T21:21:27Z</time>
      </trkpt>
      <trkpt lat="44.35012" lon="5.63676">
        <ele>1091</ele>
        <time>2022-06-09T21:21:29Z</time>
      </trkpt>
      <trkpt lat="44.35047" lon="5.63724">
        <ele>1099</ele>
        <time>2022-06-09T21:21:40Z</time>
      </trkpt>
      <trkpt lat="44.35066" lon="5.63738">
        <ele>1101</ele>
        <time>2022-06-09T21:21:45Z</time>
      </trkpt>
      <trkpt lat="44.35069" lon="5.63744">
        <ele>1102</ele>
        <time>2022-06-09T21:21:47Z</time>
      </trkpt>
      <trkpt lat="44.35085" lon="5.63759">
        <ele>1105</ele>
        <time>2022-06-09T21:21:51Z</time>
      </trkpt>
      <trkpt lat="44.35097" lon="5.63775">
        <ele>1108</ele>
        <time>2022-06-09T21:21:55Z</time>
      </trkpt>
      <trkpt lat="44.35118" lon="5.63793">
        <ele>1111</ele>
        <time>2022-06-09T21:22:01Z</time>
      </trkpt>
      <trkpt lat="44.35124" lon="5.63794">
        <ele>1111</ele>
        <time>2022-06-09T21:22:02Z</time>
      </trkpt>
      <trkpt lat="44.35135" lon="5.63802">
        <ele>1113</ele>
        <time>2022-06-09T21:22:05Z</time>
      </trkpt>
      <trkpt lat="44.35139" lon="5.63808">
        <ele>1114</ele>
        <time>2022-06-09T21:22:06Z</time>
      </trkpt>
      <trkpt lat="44.35152" lon="5.63818">
        <ele>1116</ele>
        <time>2022-06-09T21:22:10Z</time>
      </trkpt>
      <trkpt lat="44.35173" lon="5.6385">
        <ele>1116</ele>
        <time>2022-06-09T21:22:17Z</time>
      </trkpt>
      <trkpt lat="44.35178" lon="5.63875">
        <ele>1114</ele>
        <time>2022-06-09T21:22:21Z</time>
      </trkpt>
      <trkpt lat="44.35225" lon="5.63854">
        <ele>1114</ele>
        <time>2022-06-09T21:22:33Z</time>
      </trkpt>
      <trkpt lat="44.35287" lon="5.63858">
        <ele>1112</ele>
        <time>2022-06-09T21:22:47Z</time>
      </trkpt>
      <trkpt lat="44.35311" lon="5.63866">
        <ele>1111</ele>
        <time>2022-06-09T21:22:53Z</time>
      </trkpt>
      <trkpt lat="44.35319" lon="5.63866">
        <ele>1111</ele>
        <time>2022-06-09T21:22:55Z</time>
      </trkpt>
      <trkpt lat="44.35339" lon="5.63876">
        <ele>1109</ele>
        <time>2022-06-09T21:23:00Z</time>
      </trkpt>
      <trkpt lat="44.35358" lon="5.6389">
        <ele>1107</ele>
        <time>2022-06-09T21:23:05Z</time>
      </trkpt>
      <trkpt lat="44.35382" lon="5.639">
        <ele>1106</ele>
        <time>2022-06-09T21:23:11Z</time>
      </trkpt>
      <trkpt lat="44.35388" lon="5.63906">
        <ele>1106</ele>
        <time>2022-06-09T21:23:13Z</time>
      </trkpt>
      <trkpt lat="44.35395" lon="5.63922">
        <ele>1104</ele>
        <time>2022-06-09T21:23:16Z</time>
      </trkpt>
      <trkpt lat="44.35401" lon="5.63926">
        <ele>1103</ele>
        <time>2022-06-09T21:23:17Z</time>
      </trkpt>
      <trkpt lat="44.35423" lon="5.63926">
        <ele>1102</ele>
        <time>2022-06-09T21:23:22Z</time>
      </trkpt>
      <trkpt lat="44.35431" lon="5.63923">
        <ele>1102</ele>
        <time>2022-06-09T21:23:24Z</time>
      </trkpt>
      <trkpt lat="44.35475" lon="5.63923">
        <ele>1093</ele>
        <time>2022-06-09T21:23:35Z</time>
      </trkpt>
      <trkpt lat="44.35497" lon="5.63915">
        <ele>1090</ele>
        <time>2022-06-09T21:23:40Z</time>
      </trkpt>
      <trkpt lat="44.35502" lon="5.63915">
        <ele>1090</ele>
        <time>2022-06-09T21:23:41Z</time>
      </trkpt>
      <trkpt lat="44.35507" lon="5.63919">
        <ele>1089</ele>
        <time>2022-06-09T21:23:42Z</time>
      </trkpt>
      <trkpt lat="44.35516" lon="5.63915">
        <ele>1089</ele>
        <time>2022-06-09T21:23:45Z</time>
      </trkpt>
      <trkpt lat="44.35524" lon="5.63916">
        <ele>1089</ele>
        <time>2022-06-09T21:23:47Z</time>
      </trkpt>
      <trkpt lat="44.3554" lon="5.63913">
        <ele>1088</ele>
        <time>2022-06-09T21:23:50Z</time>
      </trkpt>
      <trkpt lat="44.35537" lon="5.63909">
        <ele>1088</ele>
        <time>2022-06-09T21:23:51Z</time>
      </trkpt>
      <trkpt lat="44.35535" lon="5.63912">
        <ele>1088</ele>
        <time>2022-06-09T21:23:52Z</time>
      </trkpt>
      <trkpt lat="44.35537" lon="5.63911">
        <ele>1088</ele>
        <time>2022-06-09T21:23:52Z</time>
      </trkpt>
      <trkpt lat="44.3554" lon="5.63915">
        <ele>1088</ele>
        <time>2022-06-09T21:23:53Z</time>
      </trkpt>
      <trkpt lat="44.35551" lon="5.63913">
        <ele>1088</ele>
        <time>2022-06-09T21:23:56Z</time>
      </trkpt>
      <trkpt lat="44.3557" lon="5.6392">
        <ele>1087</ele>
        <time>2022-06-09T21:24:01Z</time>
      </trkpt>
      <trkpt lat="44.356" lon="5.63922">
        <ele>1084</ele>
        <time>2022-06-09T21:24:08Z</time>
      </trkpt>
      <trkpt lat="44.35608" lon="5.63927">
        <ele>1083</ele>
        <time>2022-06-09T21:24:10Z</time>
      </trkpt>
      <trkpt lat="44.35618" lon="5.63922">
        <ele>1083</ele>
        <time>2022-06-09T21:24:12Z</time>
      </trkpt>
      <trkpt lat="44.35624" lon="5.63928">
        <ele>1081</ele>
        <time>2022-06-09T21:24:14Z</time>
      </trkpt>
      <trkpt lat="44.35631" lon="5.63929">
        <ele>1081</ele>
        <time>2022-06-09T21:24:15Z</time>
      </trkpt>
      <trkpt lat="44.35632" lon="5.6392">
        <ele>1082</ele>
        <time>2022-06-09T21:24:17Z</time>
      </trkpt>
      <trkpt lat="44.35606" lon="5.63882">
        <ele>1081</ele>
        <time>2022-06-09T21:24:26Z</time>
      </trkpt>
      <trkpt lat="44.35604" lon="5.63876">
        <ele>1080</ele>
        <time>2022-06-09T21:24:27Z</time>
      </trkpt>
      <trkpt lat="44.35558" lon="5.63823">
        <ele>1078</ele>
        <time>2022-06-09T21:24:41Z</time>
      </trkpt>
      <trkpt lat="44.35544" lon="5.63802">
        <ele>1074</ele>
        <time>2022-06-09T21:24:46Z</time>
      </trkpt>
      <trkpt lat="44.35544" lon="5.63793">
        <ele>1072</ele>
        <time>2022-06-09T21:24:47Z</time>
      </trkpt>
      <trkpt lat="44.35551" lon="5.63797">
        <ele>1073</ele>
        <time>2022-06-09T21:24:49Z</time>
      </trkpt>
      <trkpt lat="44.35571" lon="5.63772">
        <ele>1065</ele>
        <time>2022-06-09T21:24:55Z</time>
      </trkpt>
      <trkpt lat="44.35584" lon="5.63766">
        <ele>1062</ele>
        <time>2022-06-09T21:24:58Z</time>
      </trkpt>
      <trkpt lat="44.35632" lon="5.63789">
        <ele>1057</ele>
        <time>2022-06-09T21:25:10Z</time>
      </trkpt>
      <trkpt lat="44.35714" lon="5.63815">
        <ele>1040</ele>
        <time>2022-06-09T21:25:30Z</time>
      </trkpt>
      <trkpt lat="44.35735" lon="5.63826">
        <ele>1036</ele>
        <time>2022-06-09T21:25:35Z</time>
      </trkpt>
      <trkpt lat="44.35754" lon="5.63853">
        <ele>1035</ele>
        <time>2022-06-09T21:25:41Z</time>
      </trkpt>
      <trkpt lat="44.35762" lon="5.63869">
        <ele>1035</ele>
        <time>2022-06-09T21:25:45Z</time>
      </trkpt>
      <trkpt lat="44.35799" lon="5.6391">
        <ele>1024</ele>
        <time>2022-06-09T21:25:56Z</time>
      </trkpt>
      <trkpt lat="44.35803" lon="5.63928">
        <ele>1021</ele>
        <time>2022-06-09T21:25:59Z</time>
      </trkpt>
      <trkpt lat="44.35796" lon="5.63985">
        <ele>1021</ele>
        <time>2022-06-09T21:26:08Z</time>
      </trkpt>
      <trkpt lat="44.35789" lon="5.64015">
        <ele>1020</ele>
        <time>2022-06-09T21:26:14Z</time>
      </trkpt>
      <trkpt lat="44.35777" lon="5.64038">
        <ele>1020</ele>
        <time>2022-06-09T21:26:18Z</time>
      </trkpt>
      <trkpt lat="44.35767" lon="5.64047">
        <ele>1023</ele>
        <time>2022-06-09T21:26:21Z</time>
      </trkpt>
      <trkpt lat="44.3576" lon="5.64059">
        <ele>1024</ele>
        <time>2022-06-09T21:26:24Z</time>
      </trkpt>
      <trkpt lat="44.35749" lon="5.64084">
        <ele>1022</ele>
        <time>2022-06-09T21:26:29Z</time>
      </trkpt>
      <trkpt lat="44.35729" lon="5.64116">
        <ele>1012</ele>
        <time>2022-06-09T21:26:36Z</time>
      </trkpt>
      <trkpt lat="44.35718" lon="5.64142">
        <ele>1002</ele>
        <time>2022-06-09T21:26:41Z</time>
      </trkpt>
      <trkpt lat="44.3571" lon="5.64154">
        <ele>997</ele>
        <time>2022-06-09T21:26:44Z</time>
      </trkpt>
      <trkpt lat="44.35702" lon="5.64158">
        <ele>996</ele>
        <time>2022-06-09T21:26:46Z</time>
      </trkpt>
      <trkpt lat="44.35691" lon="5.64159">
        <ele>997</ele>
        <time>2022-06-09T21:26:48Z</time>
      </trkpt>
      <trkpt lat="44.35663" lon="5.64168">
        <ele>994</ele>
        <time>2022-06-09T21:26:55Z</time>
      </trkpt>
      <trkpt lat="44.35643" lon="5.64169">
        <ele>989</ele>
        <time>2022-06-09T21:27:00Z</time>
      </trkpt>
      <trkpt lat="44.35628" lon="5.64167">
        <ele>987</ele>
        <time>2022-06-09T21:27:03Z</time>
      </trkpt>
      <trkpt lat="44.35594" lon="5.64157">
        <ele>986</ele>
        <time>2022-06-09T21:27:11Z</time>
      </trkpt>
      <trkpt lat="44.35589" lon="5.64158">
        <ele>985</ele>
        <time>2022-06-09T21:27:12Z</time>
      </trkpt>
      <trkpt lat="44.35593" lon="5.64167">
        <ele>981</ele>
        <time>2022-06-09T21:27:14Z</time>
      </trkpt>
      <trkpt lat="44.35599" lon="5.64169">
        <ele>981</ele>
        <time>2022-06-09T21:27:16Z</time>
      </trkpt>
      <trkpt lat="44.3563" lon="5.64192">
        <ele>977</ele>
        <time>2022-06-09T21:27:24Z</time>
      </trkpt>
      <trkpt lat="44.35643" lon="5.64196">
        <ele>978</ele>
        <time>2022-06-09T21:27:27Z</time>
      </trkpt>
      <trkpt lat="44.35661" lon="5.64192">
        <ele>984</ele>
        <time>2022-06-09T21:27:31Z</time>
      </trkpt>
      <trkpt lat="44.35662" lon="5.64194">
        <ele>983</ele>
        <time>2022-06-09T21:27:32Z</time>
      </trkpt>
      <trkpt lat="44.35653" lon="5.64203">
        <ele>977</ele>
        <time>2022-06-09T21:27:34Z</time>
      </trkpt>
      <trkpt lat="44.3563" lon="5.64209">
        <ele>970</ele>
        <time>2022-06-09T21:27:40Z</time>
      </trkpt>
      <trkpt lat="44.35604" lon="5.64206">
        <ele>966</ele>
        <time>2022-06-09T21:27:46Z</time>
      </trkpt>
      <trkpt lat="44.35596" lon="5.64203">
        <ele>966</ele>
        <time>2022-06-09T21:27:48Z</time>
      </trkpt>
      <trkpt lat="44.35577" lon="5.64204">
        <ele>964</ele>
        <time>2022-06-09T21:27:52Z</time>
      </trkpt>
      <trkpt lat="44.35551" lon="5.64199">
        <ele>970</ele>
        <time>2022-06-09T21:27:58Z</time>
      </trkpt>
      <trkpt lat="44.35535" lon="5.64204">
        <ele>970</ele>
        <time>2022-06-09T21:28:02Z</time>
      </trkpt>
      <trkpt lat="44.35512" lon="5.64233">
        <ele>961</ele>
        <time>2022-06-09T21:28:09Z</time>
      </trkpt>
      <trkpt lat="44.35491" lon="5.64298">
        <ele>938</ele>
        <time>2022-06-09T21:28:21Z</time>
      </trkpt>
      <trkpt lat="44.35476" lon="5.64327">
        <ele>928</ele>
        <time>2022-06-09T21:28:27Z</time>
      </trkpt>
      <trkpt lat="44.35472" lon="5.6434">
        <ele>922</ele>
        <time>2022-06-09T21:28:30Z</time>
      </trkpt>
      <trkpt lat="44.35487" lon="5.64337">
        <ele>922</ele>
        <time>2022-06-09T21:28:33Z</time>
      </trkpt>
      <trkpt lat="44.35505" lon="5.64327">
        <ele>924</ele>
        <time>2022-06-09T21:28:38Z</time>
      </trkpt>
      <trkpt lat="44.35513" lon="5.64327">
        <ele>923</ele>
        <time>2022-06-09T21:28:39Z</time>
      </trkpt>
      <trkpt lat="44.35497" lon="5.64345">
        <ele>917</ele>
        <time>2022-06-09T21:28:44Z</time>
      </trkpt>
      <trkpt lat="44.35439" lon="5.64378">
        <ele>903</ele>
        <time>2022-06-09T21:28:59Z</time>
      </trkpt>
      <trkpt lat="44.35423" lon="5.64381">
        <ele>902</ele>
        <time>2022-06-09T21:29:03Z</time>
      </trkpt>
      <trkpt lat="44.35402" lon="5.6438">
        <ele>903</ele>
        <time>2022-06-09T21:29:08Z</time>
      </trkpt>
      <trkpt lat="44.35377" lon="5.6439">
        <ele>896</ele>
        <time>2022-06-09T21:29:14Z</time>
      </trkpt>
      <trkpt lat="44.35318" lon="5.64366">
        <ele>910</ele>
        <time>2022-06-09T21:29:28Z</time>
      </trkpt>
      <trkpt lat="44.35313" lon="5.64367">
        <ele>911</ele>
        <time>2022-06-09T21:29:29Z</time>
      </trkpt>
      <trkpt lat="44.35309" lon="5.64371">
        <ele>910</ele>
        <time>2022-06-09T21:29:30Z</time>
      </trkpt>
      <trkpt lat="44.35305" lon="5.6437">
        <ele>912</ele>
        <time>2022-06-09T21:29:31Z</time>
      </trkpt>
      <trkpt lat="44.35298" lon="5.64385">
        <ele>910</ele>
        <time>2022-06-09T21:29:34Z</time>
      </trkpt>
      <trkpt lat="44.353" lon="5.64402">
        <ele>904</ele>
        <time>2022-06-09T21:29:37Z</time>
      </trkpt>
      <trkpt lat="44.35308" lon="5.6442">
        <ele>896</ele>
        <time>2022-06-09T21:29:41Z</time>
      </trkpt>
      <trkpt lat="44.35316" lon="5.64427">
        <ele>892</ele>
        <time>2022-06-09T21:29:43Z</time>
      </trkpt>
      <trkpt lat="44.35323" lon="5.64458">
        <ele>889</ele>
        <time>2022-06-09T21:29:48Z</time>
      </trkpt>
      <trkpt lat="44.35339" lon="5.64485">
        <ele>881</ele>
        <time>2022-06-09T21:29:54Z</time>
      </trkpt>
      <trkpt lat="44.3535" lon="5.6451">
        <ele>879</ele>
        <time>2022-06-09T21:29:59Z</time>
      </trkpt>
      <trkpt lat="44.3535" lon="5.64515">
        <ele>881</ele>
        <time>2022-06-09T21:30:00Z</time>
      </trkpt>
      <trkpt lat="44.35369" lon="5.64548">
        <ele>881</ele>
        <time>2022-06-09T21:30:07Z</time>
      </trkpt>
      <trkpt lat="44.35397" lon="5.6459">
        <ele>880</ele>
        <time>2022-06-09T21:30:17Z</time>
      </trkpt>
      <trkpt lat="44.35405" lon="5.64597">
        <ele>879</ele>
        <time>2022-06-09T21:30:19Z</time>
      </trkpt>
      <trkpt lat="44.35427" lon="5.64626">
        <ele>879</ele>
        <time>2022-06-09T21:30:26Z</time>
      </trkpt>
      <trkpt lat="44.35472" lon="5.64666">
        <ele>870</ele>
        <time>2022-06-09T21:30:38Z</time>
      </trkpt>
      <trkpt lat="44.35478" lon="5.64668">
        <ele>868</ele>
        <time>2022-06-09T21:30:40Z</time>
      </trkpt>
      <trkpt lat="44.35492" lon="5.64685">
        <ele>867</ele>
        <time>2022-06-09T21:30:44Z</time>
      </trkpt>
      <trkpt lat="44.35528" lon="5.64747">
        <ele>869</ele>
        <time>2022-06-09T21:30:57Z</time>
      </trkpt>
      <trkpt lat="44.35546" lon="5.64772">
        <ele>862</ele>
        <time>2022-06-09T21:31:03Z</time>
      </trkpt>
      <trkpt lat="44.35556" lon="5.648">
        <ele>861</ele>
        <time>2022-06-09T21:31:09Z</time>
      </trkpt>
      <trkpt lat="44.35561" lon="5.64828">
        <ele>863</ele>
        <time>2022-06-09T21:31:13Z</time>
      </trkpt>
      <trkpt lat="44.35566" lon="5.64839">
        <ele>860</ele>
        <time>2022-06-09T21:31:16Z</time>
      </trkpt>
      <trkpt lat="44.35564" lon="5.64871">
        <ele>859</ele>
        <time>2022-06-09T21:31:21Z</time>
      </trkpt>
      <trkpt lat="44.35551" lon="5.64914">
        <ele>864</ele>
        <time>2022-06-09T21:31:29Z</time>
      </trkpt>
      <trkpt lat="44.35549" lon="5.64957">
        <ele>859</ele>
        <time>2022-06-09T21:31:36Z</time>
      </trkpt>
      <trkpt lat="44.35544" lon="5.64978">
        <ele>859</ele>
        <time>2022-06-09T21:31:40Z</time>
      </trkpt>
      <trkpt lat="44.35536" lon="5.65046">
        <ele>851</ele>
        <time>2022-06-09T21:31:51Z</time>
      </trkpt>
      <trkpt lat="44.35521" lon="5.65095">
        <ele>849</ele>
        <time>2022-06-09T21:32:00Z</time>
      </trkpt>
      <trkpt lat="44.35524" lon="5.65106">
        <ele>844</ele>
        <time>2022-06-09T21:32:02Z</time>
      </trkpt>
      <trkpt lat="44.35515" lon="5.65134">
        <ele>840</ele>
        <time>2022-06-09T21:32:07Z</time>
      </trkpt>
      <trkpt lat="44.35511" lon="5.65176">
        <ele>830</ele>
        <time>2022-06-09T21:32:14Z</time>
      </trkpt>
      <trkpt lat="44.35505" lon="5.65191">
        <ele>829</ele>
        <time>2022-06-09T21:32:17Z</time>
      </trkpt>
      <trkpt lat="44.35505" lon="5.65209">
        <ele>823</ele>
        <time>2022-06-09T21:32:20Z</time>
      </trkpt>
      <trkpt lat="44.35495" lon="5.65248">
        <ele>814</ele>
        <time>2022-06-09T21:32:27Z</time>
      </trkpt>
      <trkpt lat="44.35495" lon="5.65265">
        <ele>811</ele>
        <time>2022-06-09T21:32:30Z</time>
      </trkpt>
      <trkpt lat="44.35497" lon="5.65262">
        <ele>811</ele>
        <time>2022-06-09T21:32:30Z</time>
      </trkpt>
      <trkpt lat="44.35498" lon="5.65264">
        <ele>811</ele>
        <time>2022-06-09T21:32:31Z</time>
      </trkpt>
      <trkpt lat="44.35488" lon="5.6529">
        <ele>807</ele>
        <time>2022-06-09T21:32:36Z</time>
      </trkpt>
      <trkpt lat="44.35492" lon="5.65293">
        <ele>806</ele>
        <time>2022-06-09T21:32:37Z</time>
      </trkpt>
      <trkpt lat="44.35503" lon="5.65286">
        <ele>805</ele>
        <time>2022-06-09T21:32:40Z</time>
      </trkpt>
      <trkpt lat="44.35494" lon="5.65329">
        <ele>799</ele>
        <time>2022-06-09T21:32:47Z</time>
      </trkpt>
      <trkpt lat="44.35495" lon="5.65335">
        <ele>798</ele>
        <time>2022-06-09T21:32:48Z</time>
      </trkpt>
      <trkpt lat="44.35489" lon="5.65346">
        <ele>796</ele>
        <time>2022-06-09T21:32:50Z</time>
      </trkpt>
      <trkpt lat="44.35475" lon="5.65357">
        <ele>795</ele>
        <time>2022-06-09T21:32:54Z</time>
      </trkpt>
      <trkpt lat="44.35469" lon="5.65365">
        <ele>793</ele>
        <time>2022-06-09T21:32:56Z</time>
      </trkpt>
      <trkpt lat="44.35458" lon="5.65386">
        <ele>790</ele>
        <time>2022-06-09T21:33:01Z</time>
      </trkpt>
      <trkpt lat="44.35456" lon="5.65399">
        <ele>788</ele>
        <time>2022-06-09T21:33:03Z</time>
      </trkpt>
      <trkpt lat="44.35459" lon="5.65421">
        <ele>784</ele>
        <time>2022-06-09T21:33:06Z</time>
      </trkpt>
      <trkpt lat="44.35461" lon="5.65418">
        <ele>784</ele>
        <time>2022-06-09T21:33:07Z</time>
      </trkpt>
      <trkpt lat="44.35473" lon="5.65453">
        <ele>782</ele>
        <time>2022-06-09T21:33:14Z</time>
      </trkpt>
      <trkpt lat="44.35515" lon="5.65554">
        <ele>778</ele>
        <time>2022-06-09T21:33:33Z</time>
      </trkpt>
      <trkpt lat="44.35522" lon="5.65582">
        <ele>778</ele>
        <time>2022-06-09T21:33:38Z</time>
      </trkpt>
      <trkpt lat="44.35522" lon="5.65596">
        <ele>779</ele>
        <time>2022-06-09T21:33:40Z</time>
      </trkpt>
      <trkpt lat="44.35511" lon="5.6553">
        <ele>779</ele>
        <time>2022-06-09T21:33:52Z</time>
      </trkpt>
      <trkpt lat="44.35513" lon="5.65489">
        <ele>778</ele>
        <time>2022-06-09T21:33:59Z</time>
      </trkpt>
      <trkpt lat="44.35516" lon="5.65475">
        <ele>779</ele>
        <time>2022-06-09T21:34:01Z</time>
      </trkpt>
      <trkpt lat="44.35522" lon="5.6547">
        <ele>778</ele>
        <time>2022-06-09T21:34:03Z</time>
      </trkpt>
      <trkpt lat="44.35559" lon="5.65467">
        <ele>772</ele>
        <time>2022-06-09T21:34:11Z</time>
      </trkpt>
      <trkpt lat="44.35596" lon="5.65459">
        <ele>766</ele>
        <time>2022-06-09T21:34:20Z</time>
      </trkpt>
      <trkpt lat="44.356" lon="5.65456">
        <ele>765</ele>
        <time>2022-06-09T21:34:21Z</time>
      </trkpt>
      <trkpt lat="44.35601" lon="5.65445">
        <ele>765</ele>
        <time>2022-06-09T21:34:23Z</time>
      </trkpt>
      <trkpt lat="44.35599" lon="5.65439">
        <ele>766</ele>
        <time>2022-06-09T21:34:24Z</time>
      </trkpt>
      <trkpt lat="44.35593" lon="5.65427">
        <ele>768</ele>
        <time>2022-06-09T21:34:27Z</time>
      </trkpt>
      <trkpt lat="44.35568" lon="5.65395">
        <ele>774</ele>
        <time>2022-06-09T21:34:34Z</time>
      </trkpt>
      <trkpt lat="44.35566" lon="5.65385">
        <ele>775</ele>
        <time>2022-06-09T21:34:36Z</time>
      </trkpt>
      <trkpt lat="44.35568" lon="5.65382">
        <ele>774</ele>
        <time>2022-06-09T21:34:37Z</time>
      </trkpt>
      <trkpt lat="44.356" lon="5.65419">
        <ele>767</ele>
        <time>2022-06-09T21:34:47Z</time>
      </trkpt>
      <trkpt lat="44.35628" lon="5.65433">
        <ele>759</ele>
        <time>2022-06-09T21:34:54Z</time>
      </trkpt>
      <trkpt lat="44.35658" lon="5.65442">
        <ele>752</ele>
        <time>2022-06-09T21:35:01Z</time>
      </trkpt>
      <trkpt lat="44.3567" lon="5.6545">
        <ele>749</ele>
        <time>2022-06-09T21:35:04Z</time>
      </trkpt>
      <trkpt lat="44.35681" lon="5.65465">
        <ele>747</ele>
        <time>2022-06-09T21:35:07Z</time>
      </trkpt>
      <trkpt lat="44.35693" lon="5.65498">
        <ele>744</ele>
        <time>2022-06-09T21:35:14Z</time>
      </trkpt>
      <trkpt lat="44.35699" lon="5.65528">
        <ele>742</ele>
        <time>2022-06-09T21:35:19Z</time>
      </trkpt>
      <trkpt lat="44.35696" lon="5.65535">
        <ele>743</ele>
        <time>2022-06-09T21:35:20Z</time>
      </trkpt>
      <trkpt lat="44.35669" lon="5.65549">
        <ele>749</ele>
        <time>2022-06-09T21:35:27Z</time>
      </trkpt>
      <trkpt lat="44.35663" lon="5.65555">
        <ele>751</ele>
        <time>2022-06-09T21:35:29Z</time>
      </trkpt>
      <trkpt lat="44.3566" lon="5.65563">
        <ele>751</ele>
        <time>2022-06-09T21:35:30Z</time>
      </trkpt>
      <trkpt lat="44.35662" lon="5.65571">
        <ele>751</ele>
        <time>2022-06-09T21:35:32Z</time>
      </trkpt>
      <trkpt lat="44.35668" lon="5.65578">
        <ele>749</ele>
        <time>2022-06-09T21:35:33Z</time>
      </trkpt>
      <trkpt lat="44.35712" lon="5.65614">
        <ele>740</ele>
        <time>2022-06-09T21:35:45Z</time>
      </trkpt>
      <trkpt lat="44.35723" lon="5.65621">
        <ele>737</ele>
        <time>2022-06-09T21:35:48Z</time>
      </trkpt>
      <trkpt lat="44.35727" lon="5.65619">
        <ele>736</ele>
        <time>2022-06-09T21:35:49Z</time>
      </trkpt>
      <trkpt lat="44.35735" lon="5.65599">
        <ele>734</ele>
        <time>2022-06-09T21:35:53Z</time>
      </trkpt>
      <trkpt lat="44.3574" lon="5.65575">
        <ele>732</ele>
        <time>2022-06-09T21:35:57Z</time>
      </trkpt>
      <trkpt lat="44.35746" lon="5.65568">
        <ele>731</ele>
        <time>2022-06-09T21:35:59Z</time>
      </trkpt>
      <trkpt lat="44.35753" lon="5.65565">
        <ele>730</ele>
        <time>2022-06-09T21:36:01Z</time>
      </trkpt>
      <trkpt lat="44.35802" lon="5.65555">
        <ele>731</ele>
        <time>2022-06-09T21:36:12Z</time>
      </trkpt>
      <trkpt lat="44.35816" lon="5.65557">
        <ele>732</ele>
        <time>2022-06-09T21:36:15Z</time>
      </trkpt>
      <trkpt lat="44.35839" lon="5.65569">
        <ele>734</ele>
        <time>2022-06-09T21:36:21Z</time>
      </trkpt>
      <trkpt lat="44.35845" lon="5.65568">
        <ele>737</ele>
        <time>2022-06-09T21:36:23Z</time>
      </trkpt>
      <trkpt lat="44.35849" lon="5.65564">
        <ele>738</ele>
        <time>2022-06-09T21:36:24Z</time>
      </trkpt>
      <trkpt lat="44.35857" lon="5.65545">
        <ele>739</ele>
        <time>2022-06-09T21:36:27Z</time>
      </trkpt>
      <trkpt lat="44.35866" lon="5.65496">
        <ele>738</ele>
        <time>2022-06-09T21:36:36Z</time>
      </trkpt>
      <trkpt lat="44.35889" lon="5.65423">
        <ele>737</ele>
        <time>2022-06-09T21:36:49Z</time>
      </trkpt>
      <trkpt lat="44.35916" lon="5.65373">
        <ele>738</ele>
        <time>2022-06-09T21:37:00Z</time>
      </trkpt>
      <trkpt lat="44.35966" lon="5.65253">
        <ele>744</ele>
        <time>2022-06-09T21:37:23Z</time>
      </trkpt>
      <trkpt lat="44.35985" lon="5.65227">
        <ele>745</ele>
        <time>2022-06-09T21:37:29Z</time>
      </trkpt>
      <trkpt lat="44.36015" lon="5.65194">
        <ele>747</ele>
        <time>2022-06-09T21:37:38Z</time>
      </trkpt>
      <trkpt lat="44.36049" lon="5.65132">
        <ele>746</ele>
        <time>2022-06-09T21:37:51Z</time>
      </trkpt>
      <trkpt lat="44.36079" lon="5.65108">
        <ele>747</ele>
        <time>2022-06-09T21:37:59Z</time>
      </trkpt>
      <trkpt lat="44.36125" lon="5.65091">
        <ele>749</ele>
        <time>2022-06-09T21:38:10Z</time>
      </trkpt>
      <trkpt lat="44.36144" lon="5.65076">
        <ele>750</ele>
        <time>2022-06-09T21:38:15Z</time>
      </trkpt>
      <trkpt lat="44.36159" lon="5.65059">
        <ele>750</ele>
        <time>2022-06-09T21:38:20Z</time>
      </trkpt>
      <trkpt lat="44.36184" lon="5.65007">
        <ele>747</ele>
        <time>2022-06-09T21:38:30Z</time>
      </trkpt>
      <trkpt lat="44.36197" lon="5.64946">
        <ele>745</ele>
        <time>2022-06-09T21:38:41Z</time>
      </trkpt>
      <trkpt lat="44.36199" lon="5.64927">
        <ele>744</ele>
        <time>2022-06-09T21:38:44Z</time>
      </trkpt>
      <trkpt lat="44.36201" lon="5.64923">
        <ele>744</ele>
        <time>2022-06-09T21:38:45Z</time>
      </trkpt>
      <trkpt lat="44.36207" lon="5.6492">
        <ele>744</ele>
        <time>2022-06-09T21:38:46Z</time>
      </trkpt>
      <trkpt lat="44.36227" lon="5.64929">
        <ele>745</ele>
        <time>2022-06-09T21:38:51Z</time>
      </trkpt>
      <trkpt lat="44.36285" lon="5.64936">
        <ele>748</ele>
        <time>2022-06-09T21:39:05Z</time>
      </trkpt>
      <trkpt lat="44.36305" lon="5.64942">
        <ele>750</ele>
        <time>2022-06-09T21:39:10Z</time>
      </trkpt>
      <trkpt lat="44.36317" lon="5.64947">
        <ele>751</ele>
        <time>2022-06-09T21:39:13Z</time>
      </trkpt>
      <trkpt lat="44.36352" lon="5.64973">
        <ele>755</ele>
        <time>2022-06-09T21:39:22Z</time>
      </trkpt>
      <trkpt lat="44.36357" lon="5.64979">
        <ele>756</ele>
        <time>2022-06-09T21:39:23Z</time>
      </trkpt>
      <trkpt lat="44.36366" lon="5.6498">
        <ele>756</ele>
        <time>2022-06-09T21:39:25Z</time>
      </trkpt>
      <trkpt lat="44.36383" lon="5.64992">
        <ele>757</ele>
        <time>2022-06-09T21:39:30Z</time>
      </trkpt>
      <trkpt lat="44.36403" lon="5.65002">
        <ele>758</ele>
        <time>2022-06-09T21:39:35Z</time>
      </trkpt>
      <trkpt lat="44.3643" lon="5.64999">
        <ele>758</ele>
        <time>2022-06-09T21:39:41Z</time>
      </trkpt>
      <trkpt lat="44.3644" lon="5.65001">
        <ele>758</ele>
        <time>2022-06-09T21:39:44Z</time>
      </trkpt>
      <trkpt lat="44.36459" lon="5.65007">
        <ele>759</ele>
        <time>2022-06-09T21:39:48Z</time>
      </trkpt>
      <trkpt lat="44.36469" lon="5.65013">
        <ele>760</ele>
        <time>2022-06-09T21:39:51Z</time>
      </trkpt>
      <trkpt lat="44.3649" lon="5.65017">
        <ele>761</ele>
        <time>2022-06-09T21:39:56Z</time>
      </trkpt>
      <trkpt lat="44.36541" lon="5.65039">
        <ele>764</ele>
        <time>2022-06-09T21:40:08Z</time>
      </trkpt>
      <trkpt lat="44.36563" lon="5.65039">
        <ele>765</ele>
        <time>2022-06-09T21:40:13Z</time>
      </trkpt>
      <trkpt lat="44.3658" lon="5.65044">
        <ele>767</ele>
        <time>2022-06-09T21:40:17Z</time>
      </trkpt>
      <trkpt lat="44.36586" lon="5.65048">
        <ele>767</ele>
        <time>2022-06-09T21:40:19Z</time>
      </trkpt>
      <trkpt lat="44.36625" lon="5.65058">
        <ele>769</ele>
        <time>2022-06-09T21:40:28Z</time>
      </trkpt>
      <trkpt lat="44.36655" lon="5.65056">
        <ele>770</ele>
        <time>2022-06-09T21:40:35Z</time>
      </trkpt>
      <trkpt lat="44.36687" lon="5.65046">
        <ele>770</ele>
        <time>2022-06-09T21:40:43Z</time>
      </trkpt>
      <trkpt lat="44.36703" lon="5.65044">
        <ele>770</ele>
        <time>2022-06-09T21:40:47Z</time>
      </trkpt>
      <trkpt lat="44.36728" lon="5.65049">
        <ele>770</ele>
        <time>2022-06-09T21:40:52Z</time>
      </trkpt>
      <trkpt lat="44.36742" lon="5.65057">
        <ele>771</ele>
        <time>2022-06-09T21:40:56Z</time>
      </trkpt>
      <trkpt lat="44.36765" lon="5.65064">
        <ele>772</ele>
        <time>2022-06-09T21:41:01Z</time>
      </trkpt>
      <trkpt lat="44.36781" lon="5.65076">
        <ele>773</ele>
        <time>2022-06-09T21:41:06Z</time>
      </trkpt>
      <trkpt lat="44.3683" lon="5.65101">
        <ele>779</ele>
        <time>2022-06-09T21:41:18Z</time>
      </trkpt>
      <trkpt lat="44.3689" lon="5.65148">
        <ele>786</ele>
        <time>2022-06-09T21:41:34Z</time>
      </trkpt>
      <trkpt lat="44.36932" lon="5.65171">
        <ele>786</ele>
        <time>2022-06-09T21:41:44Z</time>
      </trkpt>
      <trkpt lat="44.36959" lon="5.65191">
        <ele>789</ele>
        <time>2022-06-09T21:41:52Z</time>
      </trkpt>
      <trkpt lat="44.36969" lon="5.65202">
        <ele>790</ele>
        <time>2022-06-09T21:41:55Z</time>
      </trkpt>
      <trkpt lat="44.36995" lon="5.6522">
        <ele>791</ele>
        <time>2022-06-09T21:42:01Z</time>
      </trkpt>
      <trkpt lat="44.37031" lon="5.65236">
        <ele>791</ele>
        <time>2022-06-09T21:42:10Z</time>
      </trkpt>
      <trkpt lat="44.37064" lon="5.65246">
        <ele>789</ele>
        <time>2022-06-09T21:42:18Z</time>
      </trkpt>
      <trkpt lat="44.37105" lon="5.65255">
        <ele>788</ele>
        <time>2022-06-09T21:42:28Z</time>
      </trkpt>
      <trkpt lat="44.37139" lon="5.65244">
        <ele>787</ele>
        <time>2022-06-09T21:42:36Z</time>
      </trkpt>
      <trkpt lat="44.3719" lon="5.65238">
        <ele>789</ele>
        <time>2022-06-09T21:42:48Z</time>
      </trkpt>
      <trkpt lat="44.37242" lon="5.65219">
        <ele>792</ele>
        <time>2022-06-09T21:43:00Z</time>
      </trkpt>
      <trkpt lat="44.37284" lon="5.65198">
        <ele>793</ele>
        <time>2022-06-09T21:43:11Z</time>
      </trkpt>
      <trkpt lat="44.3731" lon="5.65189">
        <ele>794</ele>
        <time>2022-06-09T21:43:17Z</time>
      </trkpt>
      <trkpt lat="44.37336" lon="5.65186">
        <ele>795</ele>
        <time>2022-06-09T21:43:23Z</time>
      </trkpt>
      <trkpt lat="44.37359" lon="5.65192">
        <ele>796</ele>
        <time>2022-06-09T21:43:29Z</time>
      </trkpt>
      <trkpt lat="44.37382" lon="5.65189">
        <ele>797</ele>
        <time>2022-06-09T21:43:34Z</time>
      </trkpt>
      <trkpt lat="44.37392" lon="5.6519">
        <ele>797</ele>
        <time>2022-06-09T21:43:36Z</time>
      </trkpt>
      <trkpt lat="44.37424" lon="5.65221">
        <ele>801</ele>
        <time>2022-06-09T21:43:45Z</time>
      </trkpt>
      <trkpt lat="44.37433" lon="5.65226">
        <ele>801</ele>
        <time>2022-06-09T21:43:48Z</time>
      </trkpt>
      <trkpt lat="44.37457" lon="5.65228">
        <ele>802</ele>
        <time>2022-06-09T21:43:53Z</time>
      </trkpt>
      <trkpt lat="44.37464" lon="5.65226">
        <ele>802</ele>
        <time>2022-06-09T21:43:55Z</time>
      </trkpt>
      <trkpt lat="44.37471" lon="5.65213">
        <ele>802</ele>
        <time>2022-06-09T21:43:58Z</time>
      </trkpt>
      <trkpt lat="44.37468" lon="5.65215">
        <ele>802</ele>
        <time>2022-06-09T21:43:58Z</time>
      </trkpt>
      <trkpt lat="44.37469" lon="5.65225">
        <ele>802</ele>
        <time>2022-06-09T21:44:00Z</time>
      </trkpt>
      <trkpt lat="44.37508" lon="5.65246">
        <ele>803</ele>
        <time>2022-06-09T21:44:10Z</time>
      </trkpt>
      <trkpt lat="44.37523" lon="5.65256">
        <ele>804</ele>
        <time>2022-06-09T21:44:14Z</time>
      </trkpt>
      <trkpt lat="44.3753" lon="5.65265">
        <ele>805</ele>
        <time>2022-06-09T21:44:16Z</time>
      </trkpt>
      <trkpt lat="44.37553" lon="5.65305">
        <ele>808</ele>
        <time>2022-06-09T21:44:25Z</time>
      </trkpt>
      <trkpt lat="44.37559" lon="5.6531">
        <ele>808</ele>
        <time>2022-06-09T21:44:26Z</time>
      </trkpt>
      <trkpt lat="44.3756" lon="5.65326">
        <ele>808</ele>
        <time>2022-06-09T21:44:29Z</time>
      </trkpt>
      <trkpt lat="44.37572" lon="5.65379">
        <ele>813</ele>
        <time>2022-06-09T21:44:38Z</time>
      </trkpt>
      <trkpt lat="44.37573" lon="5.65399">
        <ele>815</ele>
        <time>2022-06-09T21:44:42Z</time>
      </trkpt>
      <trkpt lat="44.3757" lon="5.65406">
        <ele>816</ele>
        <time>2022-06-09T21:44:43Z</time>
      </trkpt>
      <trkpt lat="44.37567" lon="5.65407">
        <ele>817</ele>
        <time>2022-06-09T21:44:44Z</time>
      </trkpt>
      <trkpt lat="44.37552" lon="5.65394">
        <ele>816</ele>
        <time>2022-06-09T21:44:48Z</time>
      </trkpt>
      <trkpt lat="44.37525" lon="5.65382">
        <ele>817</ele>
        <time>2022-06-09T21:44:54Z</time>
      </trkpt>
      <trkpt lat="44.37511" lon="5.65385">
        <ele>818</ele>
        <time>2022-06-09T21:44:58Z</time>
      </trkpt>
      <trkpt lat="44.37504" lon="5.6539">
        <ele>819</ele>
        <time>2022-06-09T21:44:59Z</time>
      </trkpt>
      <trkpt lat="44.37488" lon="5.65394">
        <ele>821</ele>
        <time>2022-06-09T21:45:03Z</time>
      </trkpt>
      <trkpt lat="44.37477" lon="5.654">
        <ele>822</ele>
        <time>2022-06-09T21:45:06Z</time>
      </trkpt>
      <trkpt lat="44.37467" lon="5.65401">
        <ele>823</ele>
        <time>2022-06-09T21:45:08Z</time>
      </trkpt>
      <trkpt lat="44.37447" lon="5.65393">
        <ele>823</ele>
        <time>2022-06-09T21:45:13Z</time>
      </trkpt>
      <trkpt lat="44.37437" lon="5.65394">
        <ele>823</ele>
        <time>2022-06-09T21:45:16Z</time>
      </trkpt>
      <trkpt lat="44.37429" lon="5.65396">
        <ele>824</ele>
        <time>2022-06-09T21:45:17Z</time>
      </trkpt>
      <trkpt lat="44.37409" lon="5.65417">
        <ele>829</ele>
        <time>2022-06-09T21:45:23Z</time>
      </trkpt>
      <trkpt lat="44.37391" lon="5.65426">
        <ele>831</ele>
        <time>2022-06-09T21:45:28Z</time>
      </trkpt>
      <trkpt lat="44.37385" lon="5.65439">
        <ele>834</ele>
        <time>2022-06-09T21:45:30Z</time>
      </trkpt>
      <trkpt lat="44.37387" lon="5.65447">
        <ele>836</ele>
        <time>2022-06-09T21:45:32Z</time>
      </trkpt>
      <trkpt lat="44.37391" lon="5.6545">
        <ele>837</ele>
        <time>2022-06-09T21:45:33Z</time>
      </trkpt>
      <trkpt lat="44.37427" lon="5.65451">
        <ele>836</ele>
        <time>2022-06-09T21:45:41Z</time>
      </trkpt>
      <trkpt lat="44.37437" lon="5.6546">
        <ele>838</ele>
        <time>2022-06-09T21:45:44Z</time>
      </trkpt>
      <trkpt lat="44.37471" lon="5.65504">
        <ele>845</ele>
        <time>2022-06-09T21:45:55Z</time>
      </trkpt>
      <trkpt lat="44.37486" lon="5.65535">
        <ele>850</ele>
        <time>2022-06-09T21:46:01Z</time>
      </trkpt>
      <trkpt lat="44.37525" lon="5.6558">
        <ele>853</ele>
        <time>2022-06-09T21:46:13Z</time>
      </trkpt>
      <trkpt lat="44.37532" lon="5.65592">
        <ele>854</ele>
        <time>2022-06-09T21:46:15Z</time>
      </trkpt>
      <trkpt lat="44.37538" lon="5.6561">
        <ele>856</ele>
        <time>2022-06-09T21:46:19Z</time>
      </trkpt>
      <trkpt lat="44.37546" lon="5.65621">
        <ele>857</ele>
        <time>2022-06-09T21:46:21Z</time>
      </trkpt>
      <trkpt lat="44.37555" lon="5.6563">
        <ele>857</ele>
        <time>2022-06-09T21:46:24Z</time>
      </trkpt>
      <trkpt lat="44.37565" lon="5.65632">
        <ele>856</ele>
        <time>2022-06-09T21:46:26Z</time>
      </trkpt>
      <trkpt lat="44.37568" lon="5.65639">
        <ele>856</ele>
        <time>2022-06-09T21:46:28Z</time>
      </trkpt>
      <trkpt lat="44.37566" lon="5.65646">
        <ele>858</ele>
        <time>2022-06-09T21:46:29Z</time>
      </trkpt>
      <trkpt lat="44.37563" lon="5.65652">
        <ele>860</ele>
        <time>2022-06-09T21:46:30Z</time>
      </trkpt>
      <trkpt lat="44.37556" lon="5.65654">
        <ele>861</ele>
        <time>2022-06-09T21:46:32Z</time>
      </trkpt>
      <trkpt lat="44.37547" lon="5.65646">
        <ele>861</ele>
        <time>2022-06-09T21:46:34Z</time>
      </trkpt>
      <trkpt lat="44.3754" lon="5.65644">
        <ele>862</ele>
        <time>2022-06-09T21:46:36Z</time>
      </trkpt>
      <trkpt lat="44.37522" lon="5.65656">
        <ele>867</ele>
        <time>2022-06-09T21:46:41Z</time>
      </trkpt>
      <trkpt lat="44.37506" lon="5.65657">
        <ele>870</ele>
        <time>2022-06-09T21:46:44Z</time>
      </trkpt>
      <trkpt lat="44.37494" lon="5.65663">
        <ele>873</ele>
        <time>2022-06-09T21:46:47Z</time>
      </trkpt>
      <trkpt lat="44.37489" lon="5.65663">
        <ele>873</ele>
        <time>2022-06-09T21:46:49Z</time>
      </trkpt>
      <trkpt lat="44.37481" lon="5.65659">
        <ele>873</ele>
        <time>2022-06-09T21:46:51Z</time>
      </trkpt>
      <trkpt lat="44.3747" lon="5.65643">
        <ele>871</ele>
        <time>2022-06-09T21:46:54Z</time>
      </trkpt>
      <trkpt lat="44.37463" lon="5.65637">
        <ele>871</ele>
        <time>2022-06-09T21:46:56Z</time>
      </trkpt>
      <trkpt lat="44.37459" lon="5.65636">
        <ele>871</ele>
        <time>2022-06-09T21:46:57Z</time>
      </trkpt>
      <trkpt lat="44.37446" lon="5.65642">
        <ele>873</ele>
        <time>2022-06-09T21:47:00Z</time>
      </trkpt>
      <trkpt lat="44.3743" lon="5.65639">
        <ele>874</ele>
        <time>2022-06-09T21:47:04Z</time>
      </trkpt>
      <trkpt lat="44.37416" lon="5.65643">
        <ele>876</ele>
        <time>2022-06-09T21:47:07Z</time>
      </trkpt>
      <trkpt lat="44.37406" lon="5.6566">
        <ele>880</ele>
        <time>2022-06-09T21:47:11Z</time>
      </trkpt>
      <trkpt lat="44.37389" lon="5.65667">
        <ele>883</ele>
        <time>2022-06-09T21:47:15Z</time>
      </trkpt>
      <trkpt lat="44.37376" lon="5.65678">
        <ele>886</ele>
        <time>2022-06-09T21:47:19Z</time>
      </trkpt>
      <trkpt lat="44.37361" lon="5.65678">
        <ele>887</ele>
        <time>2022-06-09T21:47:22Z</time>
      </trkpt>
      <trkpt lat="44.37352" lon="5.65664">
        <ele>885</ele>
        <time>2022-06-09T21:47:25Z</time>
      </trkpt>
      <trkpt lat="44.37345" lon="5.65666">
        <ele>886</ele>
        <time>2022-06-09T21:47:27Z</time>
      </trkpt>
      <trkpt lat="44.37341" lon="5.65677">
        <ele>889</ele>
        <time>2022-06-09T21:47:29Z</time>
      </trkpt>
      <trkpt lat="44.37344" lon="5.65691">
        <ele>891</ele>
        <time>2022-06-09T21:47:32Z</time>
      </trkpt>
      <trkpt lat="44.37348" lon="5.65696">
        <ele>892</ele>
        <time>2022-06-09T21:47:33Z</time>
      </trkpt>
      <trkpt lat="44.37366" lon="5.65712">
        <ele>894</ele>
        <time>2022-06-09T21:47:38Z</time>
      </trkpt>
      <trkpt lat="44.37375" lon="5.65717">
        <ele>894</ele>
        <time>2022-06-09T21:47:40Z</time>
      </trkpt>
      <trkpt lat="44.37378" lon="5.65722">
        <ele>895</ele>
        <time>2022-06-09T21:47:41Z</time>
      </trkpt>
      <trkpt lat="44.37383" lon="5.65724">
        <ele>895</ele>
        <time>2022-06-09T21:47:42Z</time>
      </trkpt>
      <trkpt lat="44.37405" lon="5.65748">
        <ele>898</ele>
        <time>2022-06-09T21:47:49Z</time>
      </trkpt>
      <trkpt lat="44.37412" lon="5.6575">
        <ele>897</ele>
        <time>2022-06-09T21:47:51Z</time>
      </trkpt>
      <trkpt lat="44.37423" lon="5.65747">
        <ele>896</ele>
        <time>2022-06-09T21:47:53Z</time>
      </trkpt>
      <trkpt lat="44.3743" lon="5.6575">
        <ele>896</ele>
        <time>2022-06-09T21:47:55Z</time>
      </trkpt>
      <trkpt lat="44.37456" lon="5.65791">
        <ele>903</ele>
        <time>2022-06-09T21:48:04Z</time>
      </trkpt>
      <trkpt lat="44.37467" lon="5.65801">
        <ele>904</ele>
        <time>2022-06-09T21:48:07Z</time>
      </trkpt>
      <trkpt lat="44.3749" lon="5.65829">
        <ele>906</ele>
        <time>2022-06-09T21:48:14Z</time>
      </trkpt>
      <trkpt lat="44.37511" lon="5.65866">
        <ele>908</ele>
        <time>2022-06-09T21:48:22Z</time>
      </trkpt>
      <trkpt lat="44.37516" lon="5.65884">
        <ele>908</ele>
        <time>2022-06-09T21:48:25Z</time>
      </trkpt>
      <trkpt lat="44.37515" lon="5.65919">
        <ele>915</ele>
        <time>2022-06-09T21:48:31Z</time>
      </trkpt>
      <trkpt lat="44.37523" lon="5.6599">
        <ele>920</ele>
        <time>2022-06-09T21:48:43Z</time>
      </trkpt>
      <trkpt lat="44.37523" lon="5.66024">
        <ele>919</ele>
        <time>2022-06-09T21:48:49Z</time>
      </trkpt>
      <trkpt lat="44.37519" lon="5.66034">
        <ele>920</ele>
        <time>2022-06-09T21:48:51Z</time>
      </trkpt>
      <trkpt lat="44.37507" lon="5.66048">
        <ele>924</ele>
        <time>2022-06-09T21:48:54Z</time>
      </trkpt>
      <trkpt lat="44.37491" lon="5.66055">
        <ele>928</ele>
        <time>2022-06-09T21:48:58Z</time>
      </trkpt>
      <trkpt lat="44.37476" lon="5.66066">
        <ele>930</ele>
        <time>2022-06-09T21:49:02Z</time>
      </trkpt>
      <trkpt lat="44.37452" lon="5.66069">
        <ele>934</ele>
        <time>2022-06-09T21:49:08Z</time>
      </trkpt>
      <trkpt lat="44.37433" lon="5.66075">
        <ele>937</ele>
        <time>2022-06-09T21:49:12Z</time>
      </trkpt>
      <trkpt lat="44.37416" lon="5.66084">
        <ele>939</ele>
        <time>2022-06-09T21:49:17Z</time>
      </trkpt>
      <trkpt lat="44.37401" lon="5.66096">
        <ele>942</ele>
        <time>2022-06-09T21:49:21Z</time>
      </trkpt>
      <trkpt lat="44.37389" lon="5.66112">
        <ele>944</ele>
        <time>2022-06-09T21:49:25Z</time>
      </trkpt>
      <trkpt lat="44.37376" lon="5.66119">
        <ele>946</ele>
        <time>2022-06-09T21:49:28Z</time>
      </trkpt>
      <trkpt lat="44.37356" lon="5.66124">
        <ele>950</ele>
        <time>2022-06-09T21:49:33Z</time>
      </trkpt>
      <trkpt lat="44.37341" lon="5.66131">
        <ele>952</ele>
        <time>2022-06-09T21:49:36Z</time>
      </trkpt>
      <trkpt lat="44.37318" lon="5.66154">
        <ele>953</ele>
        <time>2022-06-09T21:49:43Z</time>
      </trkpt>
      <trkpt lat="44.37311" lon="5.66157">
        <ele>953</ele>
        <time>2022-06-09T21:49:45Z</time>
      </trkpt>
      <trkpt lat="44.37308" lon="5.66161">
        <ele>953</ele>
        <time>2022-06-09T21:49:46Z</time>
      </trkpt>
      <trkpt lat="44.37309" lon="5.66166">
        <ele>952</ele>
        <time>2022-06-09T21:49:46Z</time>
      </trkpt>
      <trkpt lat="44.37306" lon="5.66163">
        <ele>953</ele>
        <time>2022-06-09T21:49:47Z</time>
      </trkpt>
      <trkpt lat="44.37315" lon="5.66164">
        <ele>952</ele>
        <time>2022-06-09T21:49:49Z</time>
      </trkpt>
      <trkpt lat="44.37324" lon="5.66194">
        <ele>952</ele>
        <time>2022-06-09T21:49:55Z</time>
      </trkpt>
      <trkpt lat="44.37333" lon="5.66199">
        <ele>951</ele>
        <time>2022-06-09T21:49:57Z</time>
      </trkpt>
      <trkpt lat="44.37351" lon="5.66217">
        <ele>950</ele>
        <time>2022-06-09T21:50:02Z</time>
      </trkpt>
      <trkpt lat="44.37354" lon="5.66224">
        <ele>951</ele>
        <time>2022-06-09T21:50:04Z</time>
      </trkpt>
      <trkpt lat="44.37381" lon="5.66259">
        <ele>953</ele>
        <time>2022-06-09T21:50:12Z</time>
      </trkpt>
      <trkpt lat="44.37394" lon="5.66268">
        <ele>954</ele>
        <time>2022-06-09T21:50:16Z</time>
      </trkpt>
      <trkpt lat="44.37404" lon="5.66267">
        <ele>953</ele>
        <time>2022-06-09T21:50:18Z</time>
      </trkpt>
      <trkpt lat="44.37409" lon="5.66269">
        <ele>953</ele>
        <time>2022-06-09T21:50:19Z</time>
      </trkpt>
      <trkpt lat="44.37423" lon="5.66295">
        <ele>956</ele>
        <time>2022-06-09T21:50:25Z</time>
      </trkpt>
      <trkpt lat="44.37442" lon="5.66311">
        <ele>956</ele>
        <time>2022-06-09T21:50:30Z</time>
      </trkpt>
      <trkpt lat="44.37449" lon="5.66313">
        <ele>956</ele>
        <time>2022-06-09T21:50:31Z</time>
      </trkpt>
      <trkpt lat="44.37466" lon="5.6633">
        <ele>956</ele>
        <time>2022-06-09T21:50:36Z</time>
      </trkpt>
      <trkpt lat="44.37479" lon="5.66352">
        <ele>958</ele>
        <time>2022-06-09T21:50:41Z</time>
      </trkpt>
      <trkpt lat="44.3749" lon="5.6638">
        <ele>962</ele>
        <time>2022-06-09T21:50:46Z</time>
      </trkpt>
      <trkpt lat="44.37494" lon="5.66407">
        <ele>965</ele>
        <time>2022-06-09T21:50:51Z</time>
      </trkpt>
      <trkpt lat="44.37503" lon="5.66435">
        <ele>969</ele>
        <time>2022-06-09T21:50:56Z</time>
      </trkpt>
      <trkpt lat="44.37513" lon="5.66451">
        <ele>970</ele>
        <time>2022-06-09T21:51:00Z</time>
      </trkpt>
      <trkpt lat="44.3753" lon="5.6646">
        <ele>969</ele>
        <time>2022-06-09T21:51:04Z</time>
      </trkpt>
      <trkpt lat="44.37535" lon="5.66468">
        <ele>969</ele>
        <time>2022-06-09T21:51:06Z</time>
      </trkpt>
      <trkpt lat="44.37538" lon="5.66479">
        <ele>971</ele>
        <time>2022-06-09T21:51:08Z</time>
      </trkpt>
      <trkpt lat="44.37559" lon="5.66507">
        <ele>972</ele>
        <time>2022-06-09T21:51:14Z</time>
      </trkpt>
      <trkpt lat="44.37574" lon="5.66532">
        <ele>974</ele>
        <time>2022-06-09T21:51:20Z</time>
      </trkpt>
      <trkpt lat="44.37589" lon="5.66549">
        <ele>974</ele>
        <time>2022-06-09T21:51:24Z</time>
      </trkpt>
      <trkpt lat="44.37602" lon="5.66571">
        <ele>974</ele>
        <time>2022-06-09T21:51:29Z</time>
      </trkpt>
      <trkpt lat="44.37606" lon="5.66585">
        <ele>975</ele>
        <time>2022-06-09T21:51:32Z</time>
      </trkpt>
      <trkpt lat="44.37606" lon="5.66598">
        <ele>976</ele>
        <time>2022-06-09T21:51:34Z</time>
      </trkpt>
      <trkpt lat="44.37602" lon="5.66616">
        <ele>979</ele>
        <time>2022-06-09T21:51:37Z</time>
      </trkpt>
      <trkpt lat="44.37584" lon="5.66642">
        <ele>985</ele>
        <time>2022-06-09T21:51:43Z</time>
      </trkpt>
      <trkpt lat="44.37566" lon="5.66659">
        <ele>991</ele>
        <time>2022-06-09T21:51:48Z</time>
      </trkpt>
      <trkpt lat="44.37559" lon="5.66673">
        <ele>995</ele>
        <time>2022-06-09T21:51:51Z</time>
      </trkpt>
      <trkpt lat="44.3755" lon="5.66708">
        <ele>1006</ele>
        <time>2022-06-09T21:51:57Z</time>
      </trkpt>
      <trkpt lat="44.37549" lon="5.66721">
        <ele>1009</ele>
        <time>2022-06-09T21:51:59Z</time>
      </trkpt>
      <trkpt lat="44.37551" lon="5.66726">
        <ele>1009</ele>
        <time>2022-06-09T21:52:00Z</time>
      </trkpt>
      <trkpt lat="44.37557" lon="5.66728">
        <ele>1008</ele>
        <time>2022-06-09T21:52:02Z</time>
      </trkpt>
      <trkpt lat="44.37574" lon="5.66717">
        <ele>1000</ele>
        <time>2022-06-09T21:52:06Z</time>
      </trkpt>
      <trkpt lat="44.37589" lon="5.66714">
        <ele>996</ele>
        <time>2022-06-09T21:52:10Z</time>
      </trkpt>
      <trkpt lat="44.37612" lon="5.6672">
        <ele>996</ele>
        <time>2022-06-09T21:52:15Z</time>
      </trkpt>
      <trkpt lat="44.37625" lon="5.6672">
        <ele>995</ele>
        <time>2022-06-09T21:52:18Z</time>
      </trkpt>
      <trkpt lat="44.37655" lon="5.66725">
        <ele>995</ele>
        <time>2022-06-09T21:52:25Z</time>
      </trkpt>
      <trkpt lat="44.37668" lon="5.66725">
        <ele>994</ele>
        <time>2022-06-09T21:52:28Z</time>
      </trkpt>
      <trkpt lat="44.37709" lon="5.66717">
        <ele>992</ele>
        <time>2022-06-09T21:52:38Z</time>
      </trkpt>
      <trkpt lat="44.37732" lon="5.66723">
        <ele>995</ele>
        <time>2022-06-09T21:52:43Z</time>
      </trkpt>
      <trkpt lat="44.37743" lon="5.66737">
        <ele>1000</ele>
        <time>2022-06-09T21:52:47Z</time>
      </trkpt>
      <trkpt lat="44.37773" lon="5.6676">
        <ele>1007</ele>
        <time>2022-06-09T21:52:55Z</time>
      </trkpt>
      <trkpt lat="44.37786" lon="5.66775">
        <ele>1012</ele>
        <time>2022-06-09T21:52:59Z</time>
      </trkpt>
      <trkpt lat="44.37808" lon="5.66831">
        <ele>1028</ele>
        <time>2022-06-09T21:53:09Z</time>
      </trkpt>
      <trkpt lat="44.37812" lon="5.66837">
        <ele>1030</ele>
        <time>2022-06-09T21:53:11Z</time>
      </trkpt>
      <trkpt lat="44.37819" lon="5.6684">
        <ele>1030</ele>
        <time>2022-06-09T21:53:13Z</time>
      </trkpt>
      <trkpt lat="44.3784" lon="5.66822">
        <ele>1024</ele>
        <time>2022-06-09T21:53:18Z</time>
      </trkpt>
      <trkpt lat="44.37844" lon="5.66814">
        <ele>1023</ele>
        <time>2022-06-09T21:53:20Z</time>
      </trkpt>
      <trkpt lat="44.37854" lon="5.66804">
        <ele>1022</ele>
        <time>2022-06-09T21:53:23Z</time>
      </trkpt>
      <trkpt lat="44.37869" lon="5.6677">
        <ele>1016</ele>
        <time>2022-06-09T21:53:29Z</time>
      </trkpt>
      <trkpt lat="44.37878" lon="5.66767">
        <ele>1017</ele>
        <time>2022-06-09T21:53:32Z</time>
      </trkpt>
      <trkpt lat="44.3789" lon="5.66751">
        <ele>1016</ele>
        <time>2022-06-09T21:53:36Z</time>
      </trkpt>
      <trkpt lat="44.37901" lon="5.66745">
        <ele>1017</ele>
        <time>2022-06-09T21:53:38Z</time>
      </trkpt>
      <trkpt lat="44.37935" lon="5.66746">
        <ele>1025</ele>
        <time>2022-06-09T21:53:46Z</time>
      </trkpt>
      <trkpt lat="44.3795" lon="5.66742">
        <ele>1028</ele>
        <time>2022-06-09T21:53:50Z</time>
      </trkpt>
      <trkpt lat="44.37958" lon="5.66738">
        <ele>1029</ele>
        <time>2022-06-09T21:53:52Z</time>
      </trkpt>
      <trkpt lat="44.37977" lon="5.66722">
        <ele>1032</ele>
        <time>2022-06-09T21:53:57Z</time>
      </trkpt>
      <trkpt lat="44.37994" lon="5.66704">
        <ele>1034</ele>
        <time>2022-06-09T21:54:02Z</time>
      </trkpt>
      <trkpt lat="44.38009" lon="5.66683">
        <ele>1036</ele>
        <time>2022-06-09T21:54:07Z</time>
      </trkpt>
      <trkpt lat="44.38016" lon="5.66679">
        <ele>1037</ele>
        <time>2022-06-09T21:54:09Z</time>
      </trkpt>
      <trkpt lat="44.38026" lon="5.66667">
        <ele>1039</ele>
        <time>2022-06-09T21:54:12Z</time>
      </trkpt>
      <trkpt lat="44.38033" lon="5.66648">
        <ele>1039</ele>
        <time>2022-06-09T21:54:15Z</time>
      </trkpt>
      <trkpt lat="44.38033" lon="5.66629">
        <ele>1037</ele>
        <time>2022-06-09T21:54:18Z</time>
      </trkpt>
      <trkpt lat="44.38036" lon="5.66614">
        <ele>1036</ele>
        <time>2022-06-09T21:54:21Z</time>
      </trkpt>
      <trkpt lat="44.38047" lon="5.66601">
        <ele>1037</ele>
        <time>2022-06-09T21:54:24Z</time>
      </trkpt>
      <trkpt lat="44.38054" lon="5.66599">
        <ele>1038</ele>
        <time>2022-06-09T21:54:26Z</time>
      </trkpt>
      <trkpt lat="44.38061" lon="5.6659">
        <ele>1038</ele>
        <time>2022-06-09T21:54:28Z</time>
      </trkpt>
      <trkpt lat="44.38069" lon="5.6659">
        <ele>1039</ele>
        <time>2022-06-09T21:54:30Z</time>
      </trkpt>
      <trkpt lat="44.38086" lon="5.66595">
        <ele>1043</ele>
        <time>2022-06-09T21:54:34Z</time>
      </trkpt>
      <trkpt lat="44.38105" lon="5.66594">
        <ele>1044</ele>
        <time>2022-06-09T21:54:39Z</time>
      </trkpt>
      <trkpt lat="44.38139" lon="5.66617">
        <ele>1051</ele>
        <time>2022-06-09T21:54:48Z</time>
      </trkpt>
      <trkpt lat="44.38189" lon="5.66634">
        <ele>1059</ele>
        <time>2022-06-09T21:55:00Z</time>
      </trkpt>
      <trkpt lat="44.38214" lon="5.66625">
        <ele>1060</ele>
        <time>2022-06-09T21:55:06Z</time>
      </trkpt>
      <trkpt lat="44.38233" lon="5.66625">
        <ele>1061</ele>
        <time>2022-06-09T21:55:10Z</time>
      </trkpt>
      <trkpt lat="44.38256" lon="5.66633">
        <ele>1065</ele>
        <time>2022-06-09T21:55:16Z</time>
      </trkpt>
      <trkpt lat="44.38279" lon="5.66651">
        <ele>1070</ele>
        <time>2022-06-09T21:55:22Z</time>
      </trkpt>
      <trkpt lat="44.383" lon="5.66662">
        <ele>1074</ele>
        <time>2022-06-09T21:55:27Z</time>
      </trkpt>
      <trkpt lat="44.38319" lon="5.66676">
        <ele>1078</ele>
        <time>2022-06-09T21:55:32Z</time>
      </trkpt>
      <trkpt lat="44.38336" lon="5.6668">
        <ele>1080</ele>
        <time>2022-06-09T21:55:36Z</time>
      </trkpt>
      <trkpt lat="44.38357" lon="5.66677">
        <ele>1079</ele>
        <time>2022-06-09T21:55:41Z</time>
      </trkpt>
      <trkpt lat="44.38368" lon="5.66678">
        <ele>1080</ele>
        <time>2022-06-09T21:55:43Z</time>
      </trkpt>
      <trkpt lat="44.38373" lon="5.66683">
        <ele>1080</ele>
        <time>2022-06-09T21:55:45Z</time>
      </trkpt>
      <trkpt lat="44.38379" lon="5.66696">
        <ele>1080</ele>
        <time>2022-06-09T21:55:47Z</time>
      </trkpt>
      <trkpt lat="44.38376" lon="5.66718">
        <ele>1082</ele>
        <time>2022-06-09T21:55:51Z</time>
      </trkpt>
      <trkpt lat="44.38369" lon="5.66729">
        <ele>1083</ele>
        <time>2022-06-09T21:55:54Z</time>
      </trkpt>
      <trkpt lat="44.38342" lon="5.66737">
        <ele>1086</ele>
        <time>2022-06-09T21:56:00Z</time>
      </trkpt>
      <trkpt lat="44.38337" lon="5.66747">
        <ele>1088</ele>
        <time>2022-06-09T21:56:02Z</time>
      </trkpt>
      <trkpt lat="44.38331" lon="5.66749">
        <ele>1089</ele>
        <time>2022-06-09T21:56:04Z</time>
      </trkpt>
      <trkpt lat="44.38308" lon="5.66768">
        <ele>1091</ele>
        <time>2022-06-09T21:56:10Z</time>
      </trkpt>
      <trkpt lat="44.3829" lon="5.66776">
        <ele>1092</ele>
        <time>2022-06-09T21:56:14Z</time>
      </trkpt>
      <trkpt lat="44.3827" lon="5.668">
        <ele>1096</ele>
        <time>2022-06-09T21:56:20Z</time>
      </trkpt>
      <trkpt lat="44.38255" lon="5.66811">
        <ele>1098</ele>
        <time>2022-06-09T21:56:24Z</time>
      </trkpt>
      <trkpt lat="44.38246" lon="5.66814">
        <ele>1098</ele>
        <time>2022-06-09T21:56:27Z</time>
      </trkpt>
      <trkpt lat="44.38231" lon="5.66827">
        <ele>1099</ele>
        <time>2022-06-09T21:56:31Z</time>
      </trkpt>
      <trkpt lat="44.38224" lon="5.66835">
        <ele>1100</ele>
        <time>2022-06-09T21:56:33Z</time>
      </trkpt>
      <trkpt lat="44.38216" lon="5.66855">
        <ele>1104</ele>
        <time>2022-06-09T21:56:37Z</time>
      </trkpt>
      <trkpt lat="44.38214" lon="5.66862">
        <ele>1106</ele>
        <time>2022-06-09T21:56:38Z</time>
      </trkpt>
      <trkpt lat="44.38215" lon="5.6688">
        <ele>1110</ele>
        <time>2022-06-09T21:56:41Z</time>
      </trkpt>
      <trkpt lat="44.38217" lon="5.66889">
        <ele>1113</ele>
        <time>2022-06-09T21:56:42Z</time>
      </trkpt>
      <trkpt lat="44.38226" lon="5.66901">
        <ele>1117</ele>
        <time>2022-06-09T21:56:45Z</time>
      </trkpt>
      <trkpt lat="44.38245" lon="5.66897">
        <ele>1118</ele>
        <time>2022-06-09T21:56:50Z</time>
      </trkpt>
      <trkpt lat="44.38258" lon="5.66898">
        <ele>1120</ele>
        <time>2022-06-09T21:56:53Z</time>
      </trkpt>
      <trkpt lat="44.38272" lon="5.66892">
        <ele>1119</ele>
        <time>2022-06-09T21:56:56Z</time>
      </trkpt>
      <trkpt lat="44.38281" lon="5.66892">
        <ele>1120</ele>
        <time>2022-06-09T21:56:58Z</time>
      </trkpt>
      <trkpt lat="44.38291" lon="5.66885">
        <ele>1119</ele>
        <time>2022-06-09T21:57:01Z</time>
      </trkpt>
      <trkpt lat="44.38298" lon="5.66884">
        <ele>1119</ele>
        <time>2022-06-09T21:57:03Z</time>
      </trkpt>
      <trkpt lat="44.38303" lon="5.66885">
        <ele>1120</ele>
        <time>2022-06-09T21:57:04Z</time>
      </trkpt>
      <trkpt lat="44.38319" lon="5.66896">
        <ele>1124</ele>
        <time>2022-06-09T21:57:08Z</time>
      </trkpt>
      <trkpt lat="44.38336" lon="5.66898">
        <ele>1125</ele>
        <time>2022-06-09T21:57:12Z</time>
      </trkpt>
      <trkpt lat="44.3835" lon="5.66909">
        <ele>1126</ele>
        <time>2022-06-09T21:57:16Z</time>
      </trkpt>
      <trkpt lat="44.38357" lon="5.66921">
        <ele>1128</ele>
        <time>2022-06-09T21:57:18Z</time>
      </trkpt>
      <trkpt lat="44.38369" lon="5.6693">
        <ele>1129</ele>
        <time>2022-06-09T21:57:21Z</time>
      </trkpt>
      <trkpt lat="44.38373" lon="5.66939">
        <ele>1131</ele>
        <time>2022-06-09T21:57:23Z</time>
      </trkpt>
      <trkpt lat="44.38391" lon="5.66959">
        <ele>1134</ele>
        <time>2022-06-09T21:57:29Z</time>
      </trkpt>
      <trkpt lat="44.38398" lon="5.66975">
        <ele>1139</ele>
        <time>2022-06-09T21:57:32Z</time>
      </trkpt>
      <trkpt lat="44.38394" lon="5.66976">
        <ele>1140</ele>
        <time>2022-06-09T21:57:33Z</time>
      </trkpt>
      <trkpt lat="44.38384" lon="5.66972">
        <ele>1140</ele>
        <time>2022-06-09T21:57:35Z</time>
      </trkpt>
      <trkpt lat="44.38368" lon="5.66958">
        <ele>1138</ele>
        <time>2022-06-09T21:57:40Z</time>
      </trkpt>
      <trkpt lat="44.38352" lon="5.66956">
        <ele>1140</ele>
        <time>2022-06-09T21:57:43Z</time>
      </trkpt>
      <trkpt lat="44.38333" lon="5.66958">
        <ele>1144</ele>
        <time>2022-06-09T21:57:48Z</time>
      </trkpt>
      <trkpt lat="44.38303" lon="5.66973">
        <ele>1148</ele>
        <time>2022-06-09T21:57:55Z</time>
      </trkpt>
      <trkpt lat="44.38288" lon="5.66989">
        <ele>1153</ele>
        <time>2022-06-09T21:58:00Z</time>
      </trkpt>
      <trkpt lat="44.3828" lon="5.66992">
        <ele>1153</ele>
        <time>2022-06-09T21:58:01Z</time>
      </trkpt>
      <trkpt lat="44.38259" lon="5.66991">
        <ele>1152</ele>
        <time>2022-06-09T21:58:06Z</time>
      </trkpt>
      <trkpt lat="44.38251" lon="5.66994">
        <ele>1153</ele>
        <time>2022-06-09T21:58:08Z</time>
      </trkpt>
      <trkpt lat="44.38231" lon="5.67013">
        <ele>1160</ele>
        <time>2022-06-09T21:58:14Z</time>
      </trkpt>
      <trkpt lat="44.38214" lon="5.67012">
        <ele>1158</ele>
        <time>2022-06-09T21:58:18Z</time>
      </trkpt>
      <trkpt lat="44.38202" lon="5.67027">
        <ele>1164</ele>
        <time>2022-06-09T21:58:22Z</time>
      </trkpt>
      <trkpt lat="44.38187" lon="5.67035">
        <ele>1167</ele>
        <time>2022-06-09T21:58:25Z</time>
      </trkpt>
      <trkpt lat="44.38166" lon="5.67039">
        <ele>1167</ele>
        <time>2022-06-09T21:58:30Z</time>
      </trkpt>
      <trkpt lat="44.38157" lon="5.67036">
        <ele>1165</ele>
        <time>2022-06-09T21:58:33Z</time>
      </trkpt>
      <trkpt lat="44.3815" lon="5.67037">
        <ele>1165</ele>
        <time>2022-06-09T21:58:34Z</time>
      </trkpt>
      <trkpt lat="44.38138" lon="5.67046">
        <ele>1168</ele>
        <time>2022-06-09T21:58:37Z</time>
      </trkpt>
      <trkpt lat="44.38131" lon="5.67044">
        <ele>1166</ele>
        <time>2022-06-09T21:58:39Z</time>
      </trkpt>
      <trkpt lat="44.3812" lon="5.67046">
        <ele>1166</ele>
        <time>2022-06-09T21:58:42Z</time>
      </trkpt>
      <trkpt lat="44.38106" lon="5.67045">
        <ele>1165</ele>
        <time>2022-06-09T21:58:45Z</time>
      </trkpt>
      <trkpt lat="44.38094" lon="5.67053">
        <ele>1167</ele>
        <time>2022-06-09T21:58:48Z</time>
      </trkpt>
      <trkpt lat="44.38082" lon="5.67066">
        <ele>1172</ele>
        <time>2022-06-09T21:58:52Z</time>
      </trkpt>
      <trkpt lat="44.38076" lon="5.67069">
        <ele>1172</ele>
        <time>2022-06-09T21:58:53Z</time>
      </trkpt>
      <trkpt lat="44.38074" lon="5.67079">
        <ele>1176</ele>
        <time>2022-06-09T21:58:55Z</time>
      </trkpt>
      <trkpt lat="44.38082" lon="5.67077">
        <ele>1176</ele>
        <time>2022-06-09T21:58:57Z</time>
      </trkpt>
      <trkpt lat="44.38088" lon="5.67079">
        <ele>1178</ele>
        <time>2022-06-09T21:58:58Z</time>
      </trkpt>
      <trkpt lat="44.381" lon="5.67076">
        <ele>1177</ele>
        <time>2022-06-09T21:59:01Z</time>
      </trkpt>
      <trkpt lat="44.38101" lon="5.67078">
        <ele>1178</ele>
        <time>2022-06-09T21:59:01Z</time>
      </trkpt>
      <trkpt lat="44.38122" lon="5.6708">
        <ele>1181</ele>
        <time>2022-06-09T21:59:06Z</time>
      </trkpt>
      <trkpt lat="44.38153" lon="5.6708">
        <ele>1183</ele>
        <time>2022-06-09T21:59:14Z</time>
      </trkpt>
      <trkpt lat="44.38157" lon="5.67098">
        <ele>1190</ele>
        <time>2022-06-09T21:59:17Z</time>
      </trkpt>
      <trkpt lat="44.3813" lon="5.67115">
        <ele>1192</ele>
        <time>2022-06-09T21:59:24Z</time>
      </trkpt>
      <trkpt lat="44.38104" lon="5.67138">
        <ele>1196</ele>
        <time>2022-06-09T21:59:31Z</time>
      </trkpt>
      <trkpt lat="44.38092" lon="5.67152">
        <ele>1199</ele>
        <time>2022-06-09T21:59:34Z</time>
      </trkpt>
      <trkpt lat="44.38083" lon="5.67158">
        <ele>1200</ele>
        <time>2022-06-09T21:59:37Z</time>
      </trkpt>
      <trkpt lat="44.3807" lon="5.67175">
        <ele>1201</ele>
        <time>2022-06-09T21:59:41Z</time>
      </trkpt>
      <trkpt lat="44.38058" lon="5.67199">
        <ele>1204</ele>
        <time>2022-06-09T21:59:46Z</time>
      </trkpt>
      <trkpt lat="44.38058" lon="5.67206">
        <ele>1205</ele>
        <time>2022-06-09T21:59:47Z</time>
      </trkpt>
      <trkpt lat="44.38049" lon="5.67229">
        <ele>1208</ele>
        <time>2022-06-09T21:59:51Z</time>
      </trkpt>
      <trkpt lat="44.38037" lon="5.67249">
        <ele>1209</ele>
        <time>2022-06-09T21:59:56Z</time>
      </trkpt>
      <trkpt lat="44.38023" lon="5.67266">
        <ele>1211</ele>
        <time>2022-06-09T22:00:00Z</time>
      </trkpt>
      <trkpt lat="44.38001" lon="5.67278">
        <ele>1211</ele>
        <time>2022-06-09T22:00:06Z</time>
      </trkpt>
      <trkpt lat="44.37976" lon="5.67321">
        <ele>1217</ele>
        <time>2022-06-09T22:00:15Z</time>
      </trkpt>
      <trkpt lat="44.37934" lon="5.67355">
        <ele>1217</ele>
        <time>2022-06-09T22:00:26Z</time>
      </trkpt>
      <trkpt lat="44.37929" lon="5.67362">
        <ele>1217</ele>
        <time>2022-06-09T22:00:28Z</time>
      </trkpt>
      <trkpt lat="44.37922" lon="5.67386">
        <ele>1222</ele>
        <time>2022-06-09T22:00:32Z</time>
      </trkpt>
      <trkpt lat="44.37926" lon="5.67408">
        <ele>1228</ele>
        <time>2022-06-09T22:00:36Z</time>
      </trkpt>
      <trkpt lat="44.37919" lon="5.67411">
        <ele>1227</ele>
        <time>2022-06-09T22:00:38Z</time>
      </trkpt>
      <trkpt lat="44.37914" lon="5.67409">
        <ele>1226</ele>
        <time>2022-06-09T22:00:39Z</time>
      </trkpt>
      <trkpt lat="44.37904" lon="5.67412">
        <ele>1227</ele>
        <time>2022-06-09T22:00:41Z</time>
      </trkpt>
      <trkpt lat="44.37896" lon="5.6741">
        <ele>1226</ele>
        <time>2022-06-09T22:00:43Z</time>
      </trkpt>
      <trkpt lat="44.37885" lon="5.67421">
        <ele>1229</ele>
        <time>2022-06-09T22:00:46Z</time>
      </trkpt>
      <trkpt lat="44.37875" lon="5.67427">
        <ele>1230</ele>
        <time>2022-06-09T22:00:49Z</time>
      </trkpt>
      <trkpt lat="44.37869" lon="5.67429">
        <ele>1231</ele>
        <time>2022-06-09T22:00:50Z</time>
      </trkpt>
      <trkpt lat="44.37868" lon="5.67425">
        <ele>1230</ele>
        <time>2022-06-09T22:00:51Z</time>
      </trkpt>
      <trkpt lat="44.37863" lon="5.67429">
        <ele>1231</ele>
        <time>2022-06-09T22:00:52Z</time>
      </trkpt>
      <trkpt lat="44.37852" lon="5.67431">
        <ele>1231</ele>
        <time>2022-06-09T22:00:55Z</time>
      </trkpt>
      <trkpt lat="44.3784" lon="5.67437">
        <ele>1232</ele>
        <time>2022-06-09T22:00:58Z</time>
      </trkpt>
      <trkpt lat="44.37816" lon="5.67458">
        <ele>1238</ele>
        <time>2022-06-09T22:01:04Z</time>
      </trkpt>
      <trkpt lat="44.37777" lon="5.67469">
        <ele>1241</ele>
        <time>2022-06-09T22:01:14Z</time>
      </trkpt>
      <trkpt lat="44.37716" lon="5.675">
        <ele>1250</ele>
        <time>2022-06-09T22:01:29Z</time>
      </trkpt>
      <trkpt lat="44.37709" lon="5.67496">
        <ele>1250</ele>
        <time>2022-06-09T22:01:31Z</time>
      </trkpt>
      <trkpt lat="44.37704" lon="5.67498">
        <ele>1250</ele>
        <time>2022-06-09T22:01:32Z</time>
      </trkpt>
      <trkpt lat="44.37681" lon="5.67496">
        <ele>1251</ele>
        <time>2022-06-09T22:01:37Z</time>
      </trkpt>
      <trkpt lat="44.37673" lon="5.67501">
        <ele>1252</ele>
        <time>2022-06-09T22:01:39Z</time>
      </trkpt>
      <trkpt lat="44.37669" lon="5.67498">
        <ele>1251</ele>
        <time>2022-06-09T22:01:40Z</time>
      </trkpt>
      <trkpt lat="44.3766" lon="5.67501">
        <ele>1252</ele>
        <time>2022-06-09T22:01:43Z</time>
      </trkpt>
      <trkpt lat="44.37663" lon="5.67512">
        <ele>1256</ele>
        <time>2022-06-09T22:01:45Z</time>
      </trkpt>
      <trkpt lat="44.37667" lon="5.67517">
        <ele>1257</ele>
        <time>2022-06-09T22:01:46Z</time>
      </trkpt>
      <trkpt lat="44.37675" lon="5.67518">
        <ele>1257</ele>
        <time>2022-06-09T22:01:48Z</time>
      </trkpt>
      <trkpt lat="44.37691" lon="5.67538">
        <ele>1263</ele>
        <time>2022-06-09T22:01:53Z</time>
      </trkpt>
      <trkpt lat="44.37702" lon="5.67547">
        <ele>1265</ele>
        <time>2022-06-09T22:01:56Z</time>
      </trkpt>
      <trkpt lat="44.37734" lon="5.67559">
        <ele>1267</ele>
        <time>2022-06-09T22:02:03Z</time>
      </trkpt>
      <trkpt lat="44.3774" lon="5.67567">
        <ele>1269</ele>
        <time>2022-06-09T22:02:05Z</time>
      </trkpt>
      <trkpt lat="44.37743" lon="5.67567">
        <ele>1269</ele>
        <time>2022-06-09T22:02:06Z</time>
      </trkpt>
      <trkpt lat="44.3775" lon="5.67574">
        <ele>1270</ele>
        <time>2022-06-09T22:02:08Z</time>
      </trkpt>
      <trkpt lat="44.37769" lon="5.67582">
        <ele>1271</ele>
        <time>2022-06-09T22:02:13Z</time>
      </trkpt>
      <trkpt lat="44.3778" lon="5.67591">
        <ele>1273</ele>
        <time>2022-06-09T22:02:16Z</time>
      </trkpt>
      <trkpt lat="44.37789" lon="5.67594">
        <ele>1274</ele>
        <time>2022-06-09T22:02:18Z</time>
      </trkpt>
      <trkpt lat="44.37796" lon="5.67602">
        <ele>1276</ele>
        <time>2022-06-09T22:02:20Z</time>
      </trkpt>
      <trkpt lat="44.37812" lon="5.6761">
        <ele>1277</ele>
        <time>2022-06-09T22:02:24Z</time>
      </trkpt>
      <trkpt lat="44.37818" lon="5.67609">
        <ele>1276</ele>
        <time>2022-06-09T22:02:25Z</time>
      </trkpt>
      <trkpt lat="44.3783" lon="5.67613">
        <ele>1277</ele>
        <time>2022-06-09T22:02:28Z</time>
      </trkpt>
      <trkpt lat="44.3784" lon="5.67613">
        <ele>1277</ele>
        <time>2022-06-09T22:02:30Z</time>
      </trkpt>
      <trkpt lat="44.37859" lon="5.67628">
        <ele>1282</ele>
        <time>2022-06-09T22:02:36Z</time>
      </trkpt>
      <trkpt lat="44.3787" lon="5.67628">
        <ele>1282</ele>
        <time>2022-06-09T22:02:38Z</time>
      </trkpt>
      <trkpt lat="44.37899" lon="5.67649">
        <ele>1290</ele>
        <time>2022-06-09T22:02:46Z</time>
      </trkpt>
      <trkpt lat="44.3791" lon="5.67649">
        <ele>1290</ele>
        <time>2022-06-09T22:02:48Z</time>
      </trkpt>
      <trkpt lat="44.37929" lon="5.67657">
        <ele>1293</ele>
        <time>2022-06-09T22:02:53Z</time>
      </trkpt>
      <trkpt lat="44.3795" lon="5.67671">
        <ele>1296</ele>
        <time>2022-06-09T22:02:58Z</time>
      </trkpt>
      <trkpt lat="44.37963" lon="5.67671">
        <ele>1296</ele>
        <time>2022-06-09T22:03:01Z</time>
      </trkpt>
      <trkpt lat="44.37974" lon="5.67676">
        <ele>1297</ele>
        <time>2022-06-09T22:03:04Z</time>
      </trkpt>
      <trkpt lat="44.37983" lon="5.67676">
        <ele>1297</ele>
        <time>2022-06-09T22:03:06Z</time>
      </trkpt>
      <trkpt lat="44.38007" lon="5.67684">
        <ele>1299</ele>
        <time>2022-06-09T22:03:12Z</time>
      </trkpt>
      <trkpt lat="44.38033" lon="5.67684">
        <ele>1302</ele>
        <time>2022-06-09T22:03:18Z</time>
      </trkpt>
      <trkpt lat="44.38057" lon="5.67678">
        <ele>1304</ele>
        <time>2022-06-09T22:03:24Z</time>
      </trkpt>
      <trkpt lat="44.38068" lon="5.6767">
        <ele>1304</ele>
        <time>2022-06-09T22:03:27Z</time>
      </trkpt>
      <trkpt lat="44.3808" lon="5.67672">
        <ele>1306</ele>
        <time>2022-06-09T22:03:29Z</time>
      </trkpt>
      <trkpt lat="44.38091" lon="5.67664">
        <ele>1306</ele>
        <time>2022-06-09T22:03:32Z</time>
      </trkpt>
      <trkpt lat="44.38098" lon="5.67666">
        <ele>1307</ele>
        <time>2022-06-09T22:03:34Z</time>
      </trkpt>
      <trkpt lat="44.3811" lon="5.67663">
        <ele>1309</ele>
        <time>2022-06-09T22:03:37Z</time>
      </trkpt>
      <trkpt lat="44.38131" lon="5.67649">
        <ele>1310</ele>
        <time>2022-06-09T22:03:42Z</time>
      </trkpt>
      <trkpt lat="44.38174" lon="5.6764">
        <ele>1316</ele>
        <time>2022-06-09T22:03:52Z</time>
      </trkpt>
      <trkpt lat="44.38191" lon="5.6763">
        <ele>1317</ele>
        <time>2022-06-09T22:03:57Z</time>
      </trkpt>
      <trkpt lat="44.38192" lon="5.67626">
        <ele>1316</ele>
        <time>2022-06-09T22:03:58Z</time>
      </trkpt>
      <trkpt lat="44.38198" lon="5.67622">
        <ele>1317</ele>
        <time>2022-06-09T22:03:59Z</time>
      </trkpt>
      <trkpt lat="44.38224" lon="5.67608">
        <ele>1318</ele>
        <time>2022-06-09T22:04:06Z</time>
      </trkpt>
      <trkpt lat="44.3824" lon="5.67607">
        <ele>1321</ele>
        <time>2022-06-09T22:04:09Z</time>
      </trkpt>
      <trkpt lat="44.38253" lon="5.67602">
        <ele>1321</ele>
        <time>2022-06-09T22:04:12Z</time>
      </trkpt>
      <trkpt lat="44.38264" lon="5.67593">
        <ele>1321</ele>
        <time>2022-06-09T22:04:15Z</time>
      </trkpt>
      <trkpt lat="44.38267" lon="5.67593">
        <ele>1321</ele>
        <time>2022-06-09T22:04:16Z</time>
      </trkpt>
      <trkpt lat="44.3827" lon="5.67597">
        <ele>1322</ele>
        <time>2022-06-09T22:04:17Z</time>
      </trkpt>
      <trkpt lat="44.3827" lon="5.67603">
        <ele>1324</ele>
        <time>2022-06-09T22:04:18Z</time>
      </trkpt>
      <trkpt lat="44.38256" lon="5.67617">
        <ele>1324</ele>
        <time>2022-06-09T22:04:22Z</time>
      </trkpt>
      <trkpt lat="44.38231" lon="5.67667">
        <ele>1329</ele>
        <time>2022-06-09T22:04:32Z</time>
      </trkpt>
      <trkpt lat="44.38217" lon="5.67688">
        <ele>1331</ele>
        <time>2022-06-09T22:04:37Z</time>
      </trkpt>
      <trkpt lat="44.38212" lon="5.67712">
        <ele>1334</ele>
        <time>2022-06-09T22:04:41Z</time>
      </trkpt>
      <trkpt lat="44.38204" lon="5.6773">
        <ele>1336</ele>
        <time>2022-06-09T22:04:45Z</time>
      </trkpt>
      <trkpt lat="44.382" lon="5.67747">
        <ele>1338</ele>
        <time>2022-06-09T22:04:48Z</time>
      </trkpt>
      <trkpt lat="44.38187" lon="5.67773">
        <ele>1339</ele>
        <time>2022-06-09T22:04:53Z</time>
      </trkpt>
      <trkpt lat="44.38178" lon="5.67818">
        <ele>1344</ele>
        <time>2022-06-09T22:05:01Z</time>
      </trkpt>
      <trkpt lat="44.38174" lon="5.67826">
        <ele>1344</ele>
        <time>2022-06-09T22:05:03Z</time>
      </trkpt>
      <trkpt lat="44.3816" lon="5.6784">
        <ele>1346</ele>
        <time>2022-06-09T22:05:07Z</time>
      </trkpt>
      <trkpt lat="44.38144" lon="5.67873">
        <ele>1350</ele>
        <time>2022-06-09T22:05:13Z</time>
      </trkpt>
      <trkpt lat="44.38126" lon="5.67927">
        <ele>1358</ele>
        <time>2022-06-09T22:05:23Z</time>
      </trkpt>
      <trkpt lat="44.38112" lon="5.68009">
        <ele>1370</ele>
        <time>2022-06-09T22:05:37Z</time>
      </trkpt>
      <trkpt lat="44.381" lon="5.68042">
        <ele>1374</ele>
        <time>2022-06-09T22:05:43Z</time>
      </trkpt>
      <trkpt lat="44.38097" lon="5.68061">
        <ele>1376</ele>
        <time>2022-06-09T22:05:47Z</time>
      </trkpt>
      <trkpt lat="44.38089" lon="5.68076">
        <ele>1378</ele>
        <time>2022-06-09T22:05:50Z</time>
      </trkpt>
      <trkpt lat="44.38082" lon="5.68097">
        <ele>1380</ele>
        <time>2022-06-09T22:05:54Z</time>
      </trkpt>
      <trkpt lat="44.38069" lon="5.68114">
        <ele>1384</ele>
        <time>2022-06-09T22:05:58Z</time>
      </trkpt>
      <trkpt lat="44.38064" lon="5.68127">
        <ele>1386</ele>
        <time>2022-06-09T22:06:00Z</time>
      </trkpt>
      <trkpt lat="44.38065" lon="5.6814">
        <ele>1386</ele>
        <time>2022-06-09T22:06:02Z</time>
      </trkpt>
      <trkpt lat="44.38068" lon="5.68142">
        <ele>1386</ele>
        <time>2022-06-09T22:06:03Z</time>
      </trkpt>
      <trkpt lat="44.38091" lon="5.68144">
        <ele>1385</ele>
        <time>2022-06-09T22:06:09Z</time>
      </trkpt>
      <trkpt lat="44.38109" lon="5.68138">
        <ele>1387</ele>
        <time>2022-06-09T22:06:13Z</time>
      </trkpt>
      <trkpt lat="44.38112" lon="5.68141">
        <ele>1388</ele>
        <time>2022-06-09T22:06:14Z</time>
      </trkpt>
      <trkpt lat="44.38132" lon="5.68139">
        <ele>1391</ele>
        <time>2022-06-09T22:06:18Z</time>
      </trkpt>
      <trkpt lat="44.38161" lon="5.68127">
        <ele>1392</ele>
        <time>2022-06-09T22:06:26Z</time>
      </trkpt>
      <trkpt lat="44.38191" lon="5.68105">
        <ele>1391</ele>
        <time>2022-06-09T22:06:33Z</time>
      </trkpt>
      <trkpt lat="44.38208" lon="5.68097">
        <ele>1391</ele>
        <time>2022-06-09T22:06:38Z</time>
      </trkpt>
      <trkpt lat="44.38224" lon="5.68096">
        <ele>1393</ele>
        <time>2022-06-09T22:06:41Z</time>
      </trkpt>
      <trkpt lat="44.38235" lon="5.68101">
        <ele>1397</ele>
        <time>2022-06-09T22:06:44Z</time>
      </trkpt>
      <trkpt lat="44.38238" lon="5.68097">
        <ele>1396</ele>
        <time>2022-06-09T22:06:45Z</time>
      </trkpt>
      <trkpt lat="44.38262" lon="5.68099">
        <ele>1397</ele>
        <time>2022-06-09T22:06:51Z</time>
      </trkpt>
      <trkpt lat="44.38267" lon="5.68102">
        <ele>1398</ele>
        <time>2022-06-09T22:06:52Z</time>
      </trkpt>
      <trkpt lat="44.38268" lon="5.68108">
        <ele>1400</ele>
        <time>2022-06-09T22:06:53Z</time>
      </trkpt>
      <trkpt lat="44.38254" lon="5.68116">
        <ele>1403</ele>
        <time>2022-06-09T22:06:56Z</time>
      </trkpt>
      <trkpt lat="44.38247" lon="5.68124">
        <ele>1406</ele>
        <time>2022-06-09T22:06:59Z</time>
      </trkpt>
      <trkpt lat="44.38244" lon="5.68123">
        <ele>1405</ele>
        <time>2022-06-09T22:06:59Z</time>
      </trkpt>
      <trkpt lat="44.38233" lon="5.6813">
        <ele>1405</ele>
        <time>2022-06-09T22:07:02Z</time>
      </trkpt>
      <trkpt lat="44.38214" lon="5.68149">
        <ele>1407</ele>
        <time>2022-06-09T22:07:08Z</time>
      </trkpt>
      <trkpt lat="44.38206" lon="5.68154">
        <ele>1407</ele>
        <time>2022-06-09T22:07:10Z</time>
      </trkpt>
      <trkpt lat="44.38196" lon="5.68164">
        <ele>1408</ele>
        <time>2022-06-09T22:07:12Z</time>
      </trkpt>
      <trkpt lat="44.38191" lon="5.68174">
        <ele>1410</ele>
        <time>2022-06-09T22:07:15Z</time>
      </trkpt>
      <trkpt lat="44.3818" lon="5.68187">
        <ele>1411</ele>
        <time>2022-06-09T22:07:18Z</time>
      </trkpt>
      <trkpt lat="44.38169" lon="5.6821">
        <ele>1415</ele>
        <time>2022-06-09T22:07:23Z</time>
      </trkpt>
      <trkpt lat="44.38152" lon="5.68234">
        <ele>1417</ele>
        <time>2022-06-09T22:07:28Z</time>
      </trkpt>
      <trkpt lat="44.38151" lon="5.68241">
        <ele>1418</ele>
        <time>2022-06-09T22:07:29Z</time>
      </trkpt>
      <trkpt lat="44.38136" lon="5.68275">
        <ele>1422</ele>
        <time>2022-06-09T22:07:36Z</time>
      </trkpt>
      <trkpt lat="44.38129" lon="5.68283">
        <ele>1422</ele>
        <time>2022-06-09T22:07:38Z</time>
      </trkpt>
      <trkpt lat="44.38121" lon="5.68302">
        <ele>1424</ele>
        <time>2022-06-09T22:07:42Z</time>
      </trkpt>
      <trkpt lat="44.3812" lon="5.68311">
        <ele>1426</ele>
        <time>2022-06-09T22:07:43Z</time>
      </trkpt>
      <trkpt lat="44.38115" lon="5.68315">
        <ele>1425</ele>
        <time>2022-06-09T22:07:45Z</time>
      </trkpt>
      <trkpt lat="44.38114" lon="5.68329">
        <ele>1428</ele>
        <time>2022-06-09T22:07:47Z</time>
      </trkpt>
      <trkpt lat="44.38098" lon="5.68383">
        <ele>1435</ele>
        <time>2022-06-09T22:07:57Z</time>
      </trkpt>
      <trkpt lat="44.381" lon="5.68384">
        <ele>1436</ele>
        <time>2022-06-09T22:07:57Z</time>
      </trkpt>
      <trkpt lat="44.38099" lon="5.68388">
        <ele>1436</ele>
        <time>2022-06-09T22:07:58Z</time>
      </trkpt>
      <trkpt lat="44.38082" lon="5.6842">
        <ele>1439</ele>
        <time>2022-06-09T22:08:05Z</time>
      </trkpt>
      <trkpt lat="44.38073" lon="5.68428">
        <ele>1441</ele>
        <time>2022-06-09T22:08:07Z</time>
      </trkpt>
      <trkpt lat="44.38062" lon="5.68431">
        <ele>1443</ele>
        <time>2022-06-09T22:08:10Z</time>
      </trkpt>
      <trkpt lat="44.38053" lon="5.68431">
        <ele>1443</ele>
        <time>2022-06-09T22:08:12Z</time>
      </trkpt>
      <trkpt lat="44.38036" lon="5.68425">
        <ele>1442</ele>
        <time>2022-06-09T22:08:16Z</time>
      </trkpt>
      <trkpt lat="44.38021" lon="5.68431">
        <ele>1444</ele>
        <time>2022-06-09T22:08:20Z</time>
      </trkpt>
      <trkpt lat="44.38002" lon="5.68428">
        <ele>1444</ele>
        <time>2022-06-09T22:08:24Z</time>
      </trkpt>
      <trkpt lat="44.37962" lon="5.68441">
        <ele>1447</ele>
        <time>2022-06-09T22:08:34Z</time>
      </trkpt>
      <trkpt lat="44.37947" lon="5.68443">
        <ele>1447</ele>
        <time>2022-06-09T22:08:37Z</time>
      </trkpt>
      <trkpt lat="44.37933" lon="5.68455">
        <ele>1448</ele>
        <time>2022-06-09T22:08:41Z</time>
      </trkpt>
      <trkpt lat="44.37924" lon="5.68471">
        <ele>1451</ele>
        <time>2022-06-09T22:08:44Z</time>
      </trkpt>
      <trkpt lat="44.37917" lon="5.68477">
        <ele>1452</ele>
        <time>2022-06-09T22:08:46Z</time>
      </trkpt>
      <trkpt lat="44.37898" lon="5.68506">
        <ele>1452</ele>
        <time>2022-06-09T22:08:53Z</time>
      </trkpt>
      <trkpt lat="44.37898" lon="5.68518">
        <ele>1454</ele>
        <time>2022-06-09T22:08:55Z</time>
      </trkpt>
      <trkpt lat="44.37892" lon="5.68542">
        <ele>1454</ele>
        <time>2022-06-09T22:08:59Z</time>
      </trkpt>
      <trkpt lat="44.37892" lon="5.68551">
        <ele>1455</ele>
        <time>2022-06-09T22:09:01Z</time>
      </trkpt>
      <trkpt lat="44.3789" lon="5.68555">
        <ele>1455</ele>
        <time>2022-06-09T22:09:01Z</time>
      </trkpt>
      <trkpt lat="44.37889" lon="5.68553">
        <ele>1455</ele>
        <time>2022-06-09T22:09:02Z</time>
      </trkpt>
      <trkpt lat="44.37888" lon="5.68571">
        <ele>1456</ele>
        <time>2022-06-09T22:09:05Z</time>
      </trkpt>
      <trkpt lat="44.3789" lon="5.68576">
        <ele>1457</ele>
        <time>2022-06-09T22:09:06Z</time>
      </trkpt>
      <trkpt lat="44.37897" lon="5.68576">
        <ele>1460</ele>
        <time>2022-06-09T22:09:07Z</time>
      </trkpt>
      <trkpt lat="44.37916" lon="5.68554">
        <ele>1464</ele>
        <time>2022-06-09T22:09:13Z</time>
      </trkpt>
      <trkpt lat="44.37925" lon="5.68555">
        <ele>1465</ele>
        <time>2022-06-09T22:09:15Z</time>
      </trkpt>
      <trkpt lat="44.37946" lon="5.68547">
        <ele>1465</ele>
        <time>2022-06-09T22:09:20Z</time>
      </trkpt>
      <trkpt lat="44.37976" lon="5.68552">
        <ele>1469</ele>
        <time>2022-06-09T22:09:27Z</time>
      </trkpt>
      <trkpt lat="44.37996" lon="5.68562">
        <ele>1473</ele>
        <time>2022-06-09T22:09:32Z</time>
      </trkpt>
      <trkpt lat="44.38004" lon="5.68569">
        <ele>1474</ele>
        <time>2022-06-09T22:09:35Z</time>
      </trkpt>
      <trkpt lat="44.38008" lon="5.68569">
        <ele>1474</ele>
        <time>2022-06-09T22:09:36Z</time>
      </trkpt>
      <trkpt lat="44.38024" lon="5.68588">
        <ele>1477</ele>
        <time>2022-06-09T22:09:40Z</time>
      </trkpt>
      <trkpt lat="44.38083" lon="5.68629">
        <ele>1483</ele>
        <time>2022-06-09T22:09:56Z</time>
      </trkpt>
      <trkpt lat="44.3809" lon="5.68633">
        <ele>1484</ele>
        <time>2022-06-09T22:09:58Z</time>
      </trkpt>
      <trkpt lat="44.3811" lon="5.68637">
        <ele>1484</ele>
        <time>2022-06-09T22:10:02Z</time>
      </trkpt>
      <trkpt lat="44.38133" lon="5.68629">
        <ele>1485</ele>
        <time>2022-06-09T22:10:08Z</time>
      </trkpt>
      <trkpt lat="44.3814" lon="5.68625">
        <ele>1485</ele>
        <time>2022-06-09T22:10:10Z</time>
      </trkpt>
      <trkpt lat="44.38142" lon="5.6862">
        <ele>1485</ele>
        <time>2022-06-09T22:10:11Z</time>
      </trkpt>
      <trkpt lat="44.3815" lon="5.6862">
        <ele>1486</ele>
        <time>2022-06-09T22:10:12Z</time>
      </trkpt>
      <trkpt lat="44.38198" lon="5.68582">
        <ele>1487</ele>
        <time>2022-06-09T22:10:25Z</time>
      </trkpt>
      <trkpt lat="44.38232" lon="5.68543">
        <ele>1491</ele>
        <time>2022-06-09T22:10:36Z</time>
      </trkpt>
      <trkpt lat="44.38256" lon="5.68493">
        <ele>1503</ele>
        <time>2022-06-09T22:10:46Z</time>
      </trkpt>
      <trkpt lat="44.38256" lon="5.68495">
        <ele>1503</ele>
        <time>2022-06-09T22:10:46Z</time>
      </trkpt>
      <trkpt lat="44.38265" lon="5.68486">
        <ele>1503</ele>
        <time>2022-06-09T22:10:49Z</time>
      </trkpt>
      <trkpt lat="44.38278" lon="5.68478">
        <ele>1503</ele>
        <time>2022-06-09T22:10:52Z</time>
      </trkpt>
      <trkpt lat="44.38281" lon="5.68479">
        <ele>1503</ele>
        <time>2022-06-09T22:10:53Z</time>
      </trkpt>
      <trkpt lat="44.38294" lon="5.68475">
        <ele>1504</ele>
        <time>2022-06-09T22:10:56Z</time>
      </trkpt>
      <trkpt lat="44.38326" lon="5.68476">
        <ele>1508</ele>
        <time>2022-06-09T22:11:03Z</time>
      </trkpt>
      <trkpt lat="44.3834" lon="5.68482">
        <ele>1510</ele>
        <time>2022-06-09T22:11:07Z</time>
      </trkpt>
      <trkpt lat="44.38358" lon="5.68486">
        <ele>1510</ele>
        <time>2022-06-09T22:11:11Z</time>
      </trkpt>
      <trkpt lat="44.38376" lon="5.68497">
        <ele>1512</ele>
        <time>2022-06-09T22:11:15Z</time>
      </trkpt>
      <trkpt lat="44.38387" lon="5.685">
        <ele>1513</ele>
        <time>2022-06-09T22:11:18Z</time>
      </trkpt>
      <trkpt lat="44.38415" lon="5.68513">
        <ele>1506</ele>
        <time>2022-06-09T22:11:25Z</time>
      </trkpt>
      <trkpt lat="44.38425" lon="5.6852">
        <ele>1504</ele>
        <time>2022-06-09T22:11:28Z</time>
      </trkpt>
      <trkpt lat="44.3843" lon="5.6852">
        <ele>1504</ele>
        <time>2022-06-09T22:11:29Z</time>
      </trkpt>
      <trkpt lat="44.3844" lon="5.68525">
        <ele>1503</ele>
        <time>2022-06-09T22:11:31Z</time>
      </trkpt>
      <trkpt lat="44.38455" lon="5.68535">
        <ele>1502</ele>
        <time>2022-06-09T22:11:35Z</time>
      </trkpt>
      <trkpt lat="44.38459" lon="5.68543">
        <ele>1500</ele>
        <time>2022-06-09T22:11:37Z</time>
      </trkpt>
      <trkpt lat="44.38462" lon="5.68542">
        <ele>1501</ele>
        <time>2022-06-09T22:11:37Z</time>
      </trkpt>
      <trkpt lat="44.38462" lon="5.68538">
        <ele>1502</ele>
        <time>2022-06-09T22:11:38Z</time>
      </trkpt>
      <trkpt lat="44.38466" lon="5.68537">
        <ele>1503</ele>
        <time>2022-06-09T22:11:39Z</time>
      </trkpt>
      <trkpt lat="44.38467" lon="5.68534">
        <ele>1503</ele>
        <time>2022-06-09T22:11:40Z</time>
      </trkpt>
      <trkpt lat="44.38497" lon="5.68545">
        <ele>1506</ele>
        <time>2022-06-09T22:11:47Z</time>
      </trkpt>
      <trkpt lat="44.38524" lon="5.6855">
        <ele>1505</ele>
        <time>2022-06-09T22:11:53Z</time>
      </trkpt>
      <trkpt lat="44.38532" lon="5.6855">
        <ele>1505</ele>
        <time>2022-06-09T22:11:55Z</time>
      </trkpt>
      <trkpt lat="44.38532" lon="5.68548">
        <ele>1504</ele>
        <time>2022-06-09T22:11:55Z</time>
      </trkpt>
      <trkpt lat="44.38528" lon="5.6855">
        <ele>1505</ele>
        <time>2022-06-09T22:11:56Z</time>
      </trkpt>
      <trkpt lat="44.38488" lon="5.68538">
        <ele>1506</ele>
        <time>2022-06-09T22:12:06Z</time>
      </trkpt>
      <trkpt lat="44.38496" lon="5.68531">
        <ele>1508</ele>
        <time>2022-06-09T22:12:08Z</time>
      </trkpt>
      <trkpt lat="44.38507" lon="5.68531">
        <ele>1507</ele>
        <time>2022-06-09T22:12:11Z</time>
      </trkpt>
      <trkpt lat="44.38508" lon="5.68533">
        <ele>1507</ele>
        <time>2022-06-09T22:12:11Z</time>
      </trkpt>
      <trkpt lat="44.3851" lon="5.68528">
        <ele>1507</ele>
        <time>2022-06-09T22:12:12Z</time>
      </trkpt>
      <trkpt lat="44.38523" lon="5.68528">
        <ele>1505</ele>
        <time>2022-06-09T22:12:15Z</time>
      </trkpt>
      <trkpt lat="44.38531" lon="5.68524">
        <ele>1503</ele>
        <time>2022-06-09T22:12:17Z</time>
      </trkpt>
      <trkpt lat="44.38532" lon="5.6852">
        <ele>1503</ele>
        <time>2022-06-09T22:12:18Z</time>
      </trkpt>
      <trkpt lat="44.38535" lon="5.68519">
        <ele>1502</ele>
        <time>2022-06-09T22:12:19Z</time>
      </trkpt>
      <trkpt lat="44.38534" lon="5.68508">
        <ele>1502</ele>
        <time>2022-06-09T22:12:20Z</time>
      </trkpt>
      <trkpt lat="44.38534" lon="5.6851">
        <ele>1502</ele>
        <time>2022-06-09T22:12:21Z</time>
      </trkpt>
      <trkpt lat="44.38542" lon="5.68511">
        <ele>1500</ele>
        <time>2022-06-09T22:12:23Z</time>
      </trkpt>
      <trkpt lat="44.38559" lon="5.6851">
        <ele>1496</ele>
        <time>2022-06-09T22:12:27Z</time>
      </trkpt>
      <trkpt lat="44.3857" lon="5.68503">
        <ele>1492</ele>
        <time>2022-06-09T22:12:29Z</time>
      </trkpt>
      <trkpt lat="44.38579" lon="5.68505">
        <ele>1490</ele>
        <time>2022-06-09T22:12:32Z</time>
      </trkpt>
      <trkpt lat="44.38582" lon="5.68508">
        <ele>1490</ele>
        <time>2022-06-09T22:12:32Z</time>
      </trkpt>
      <trkpt lat="44.38614" lon="5.68511">
        <ele>1480</ele>
        <time>2022-06-09T22:12:40Z</time>
      </trkpt>
      <trkpt lat="44.38638" lon="5.68524">
        <ele>1473</ele>
        <time>2022-06-09T22:12:46Z</time>
      </trkpt>
      <trkpt lat="44.38647" lon="5.68522">
        <ele>1469</ele>
        <time>2022-06-09T22:12:48Z</time>
      </trkpt>
      <trkpt lat="44.38663" lon="5.68523">
        <ele>1463</ele>
        <time>2022-06-09T22:12:52Z</time>
      </trkpt>
      <trkpt lat="44.38672" lon="5.68531">
        <ele>1460</ele>
        <time>2022-06-09T22:12:54Z</time>
      </trkpt>
      <trkpt lat="44.38692" lon="5.68541">
        <ele>1454</ele>
        <time>2022-06-09T22:12:59Z</time>
      </trkpt>
      <trkpt lat="44.38697" lon="5.68538">
        <ele>1452</ele>
        <time>2022-06-09T22:13:00Z</time>
      </trkpt>
      <trkpt lat="44.3872" lon="5.68537">
        <ele>1444</ele>
        <time>2022-06-09T22:13:06Z</time>
      </trkpt>
      <trkpt lat="44.38731" lon="5.68539">
        <ele>1441</ele>
        <time>2022-06-09T22:13:08Z</time>
      </trkpt>
      <trkpt lat="44.38759" lon="5.68551">
        <ele>1431</ele>
        <time>2022-06-09T22:13:15Z</time>
      </trkpt>
      <trkpt lat="44.38757" lon="5.6855">
        <ele>1432</ele>
        <time>2022-06-09T22:13:16Z</time>
      </trkpt>
      <trkpt lat="44.38767" lon="5.68552">
        <ele>1429</ele>
        <time>2022-06-09T22:13:18Z</time>
      </trkpt>
      <trkpt lat="44.38783" lon="5.6855">
        <ele>1426</ele>
        <time>2022-06-09T22:13:22Z</time>
      </trkpt>
      <trkpt lat="44.38796" lon="5.68554">
        <ele>1423</ele>
        <time>2022-06-09T22:13:25Z</time>
      </trkpt>
      <trkpt lat="44.38828" lon="5.68552">
        <ele>1416</ele>
        <time>2022-06-09T22:13:32Z</time>
      </trkpt>
      <trkpt lat="44.38845" lon="5.68543">
        <ele>1414</ele>
        <time>2022-06-09T22:13:37Z</time>
      </trkpt>
      <trkpt lat="44.3893" lon="5.68521">
        <ele>1403</ele>
        <time>2022-06-09T22:13:57Z</time>
      </trkpt>
      <trkpt lat="44.38942" lon="5.68514">
        <ele>1403</ele>
        <time>2022-06-09T22:14:00Z</time>
      </trkpt>
      <trkpt lat="44.38965" lon="5.68511">
        <ele>1400</ele>
        <time>2022-06-09T22:14:05Z</time>
      </trkpt>
      <trkpt lat="44.39034" lon="5.68522">
        <ele>1388</ele>
        <time>2022-06-09T22:14:22Z</time>
      </trkpt>
      <trkpt lat="44.39054" lon="5.68522">
        <ele>1388</ele>
        <time>2022-06-09T22:14:26Z</time>
      </trkpt>
      <trkpt lat="44.39087" lon="5.68529">
        <ele>1385</ele>
        <time>2022-06-09T22:14:34Z</time>
      </trkpt>
      <trkpt lat="44.39109" lon="5.6853">
        <ele>1384</ele>
        <time>2022-06-09T22:14:39Z</time>
      </trkpt>
      <trkpt lat="44.39121" lon="5.68535">
        <ele>1382</ele>
        <time>2022-06-09T22:14:42Z</time>
      </trkpt>
      <trkpt lat="44.39137" lon="5.68531">
        <ele>1382</ele>
        <time>2022-06-09T22:14:46Z</time>
      </trkpt>
      <trkpt lat="44.39161" lon="5.68531">
        <ele>1381</ele>
        <time>2022-06-09T22:14:51Z</time>
      </trkpt>
      <trkpt lat="44.39167" lon="5.68534">
        <ele>1380</ele>
        <time>2022-06-09T22:14:53Z</time>
      </trkpt>
      <trkpt lat="44.39178" lon="5.68529">
        <ele>1382</ele>
        <time>2022-06-09T22:14:56Z</time>
      </trkpt>
      <trkpt lat="44.39183" lon="5.68531">
        <ele>1381</ele>
        <time>2022-06-09T22:14:57Z</time>
      </trkpt>
      <trkpt lat="44.39199" lon="5.68531">
        <ele>1381</ele>
        <time>2022-06-09T22:15:01Z</time>
      </trkpt>
      <trkpt lat="44.39209" lon="5.68535">
        <ele>1381</ele>
        <time>2022-06-09T22:15:03Z</time>
      </trkpt>
      <trkpt lat="44.39221" lon="5.68532">
        <ele>1381</ele>
        <time>2022-06-09T22:15:06Z</time>
      </trkpt>
      <trkpt lat="44.3924" lon="5.68533">
        <ele>1381</ele>
        <time>2022-06-09T22:15:10Z</time>
      </trkpt>
      <trkpt lat="44.39247" lon="5.68532">
        <ele>1381</ele>
        <time>2022-06-09T22:15:12Z</time>
      </trkpt>
      <trkpt lat="44.3925" lon="5.68526">
        <ele>1381</ele>
        <time>2022-06-09T22:15:13Z</time>
      </trkpt>
      <trkpt lat="44.39253" lon="5.68526">
        <ele>1380</ele>
        <time>2022-06-09T22:15:14Z</time>
      </trkpt>
      <trkpt lat="44.39255" lon="5.68521">
        <ele>1379</ele>
        <time>2022-06-09T22:15:15Z</time>
      </trkpt>
      <trkpt lat="44.39266" lon="5.68513">
        <ele>1374</ele>
        <time>2022-06-09T22:15:18Z</time>
      </trkpt>
      <trkpt lat="44.39274" lon="5.68512">
        <ele>1370</ele>
        <time>2022-06-09T22:15:20Z</time>
      </trkpt>
      <trkpt lat="44.39276" lon="5.68508">
        <ele>1369</ele>
        <time>2022-06-09T22:15:20Z</time>
      </trkpt>
      <trkpt lat="44.39287" lon="5.68502">
        <ele>1363</ele>
        <time>2022-06-09T22:15:23Z</time>
      </trkpt>
      <trkpt lat="44.39294" lon="5.68493">
        <ele>1356</ele>
        <time>2022-06-09T22:15:25Z</time>
      </trkpt>
      <trkpt lat="44.39296" lon="5.68504">
        <ele>1358</ele>
        <time>2022-06-09T22:15:27Z</time>
      </trkpt>
      <trkpt lat="44.39304" lon="5.68522">
        <ele>1356</ele>
        <time>2022-06-09T22:15:31Z</time>
      </trkpt>
      <trkpt lat="44.39306" lon="5.68518">
        <ele>1354</ele>
        <time>2022-06-09T22:15:32Z</time>
      </trkpt>
      <trkpt lat="44.39311" lon="5.68523">
        <ele>1352</ele>
        <time>2022-06-09T22:15:33Z</time>
      </trkpt>
      <trkpt lat="44.39321" lon="5.68526">
        <ele>1348</ele>
        <time>2022-06-09T22:15:35Z</time>
      </trkpt>
      <trkpt lat="44.39317" lon="5.68577">
        <ele>1354</ele>
        <time>2022-06-09T22:15:44Z</time>
      </trkpt>
      <trkpt lat="44.39333" lon="5.68581">
        <ele>1349</ele>
        <time>2022-06-09T22:15:48Z</time>
      </trkpt>
      <trkpt lat="44.39333" lon="5.68592">
        <ele>1345</ele>
        <time>2022-06-09T22:15:50Z</time>
      </trkpt>
      <trkpt lat="44.3934" lon="5.68594">
        <ele>1341</ele>
        <time>2022-06-09T22:15:51Z</time>
      </trkpt>
      <trkpt lat="44.39367" lon="5.68616">
        <ele>1325</ele>
        <time>2022-06-09T22:15:59Z</time>
      </trkpt>
      <trkpt lat="44.39394" lon="5.68627">
        <ele>1316</ele>
        <time>2022-06-09T22:16:05Z</time>
      </trkpt>
      <trkpt lat="44.39402" lon="5.68642">
        <ele>1315</ele>
        <time>2022-06-09T22:16:08Z</time>
      </trkpt>
      <trkpt lat="44.39411" lon="5.68649">
        <ele>1314</ele>
        <time>2022-06-09T22:16:11Z</time>
      </trkpt>
      <trkpt lat="44.39413" lon="5.68656">
        <ele>1315</ele>
        <time>2022-06-09T22:16:12Z</time>
      </trkpt>
      <trkpt lat="44.39418" lon="5.68661">
        <ele>1315</ele>
        <time>2022-06-09T22:16:13Z</time>
      </trkpt>
      <trkpt lat="44.3942" lon="5.68671">
        <ele>1313</ele>
        <time>2022-06-09T22:16:15Z</time>
      </trkpt>
      <trkpt lat="44.39431" lon="5.68675">
        <ele>1307</ele>
        <time>2022-06-09T22:16:18Z</time>
      </trkpt>
      <trkpt lat="44.3944" lon="5.68684">
        <ele>1302</ele>
        <time>2022-06-09T22:16:20Z</time>
      </trkpt>
      <trkpt lat="44.39447" lon="5.68712">
        <ele>1295</ele>
        <time>2022-06-09T22:16:25Z</time>
      </trkpt>
      <trkpt lat="44.39452" lon="5.68714">
        <ele>1294</ele>
        <time>2022-06-09T22:16:27Z</time>
      </trkpt>
      <trkpt lat="44.39457" lon="5.68726">
        <ele>1293</ele>
        <time>2022-06-09T22:16:29Z</time>
      </trkpt>
      <trkpt lat="44.3947" lon="5.68738">
        <ele>1292</ele>
        <time>2022-06-09T22:16:33Z</time>
      </trkpt>
      <trkpt lat="44.39475" lon="5.6875">
        <ele>1293</ele>
        <time>2022-06-09T22:16:35Z</time>
      </trkpt>
      <trkpt lat="44.39485" lon="5.68762">
        <ele>1291</ele>
        <time>2022-06-09T22:16:38Z</time>
      </trkpt>
      <trkpt lat="44.395" lon="5.6877">
        <ele>1291</ele>
        <time>2022-06-09T22:16:42Z</time>
      </trkpt>
      <trkpt lat="44.39507" lon="5.6878">
        <ele>1289</ele>
        <time>2022-06-09T22:16:44Z</time>
      </trkpt>
      <trkpt lat="44.39507" lon="5.68778">
        <ele>1289</ele>
        <time>2022-06-09T22:16:44Z</time>
      </trkpt>
      <trkpt lat="44.3954" lon="5.68808">
        <ele>1287</ele>
        <time>2022-06-09T22:16:54Z</time>
      </trkpt>
      <trkpt lat="44.39586" lon="5.68866">
        <ele>1287</ele>
        <time>2022-06-09T22:17:08Z</time>
      </trkpt>
      <trkpt lat="44.39604" lon="5.68879">
        <ele>1284</ele>
        <time>2022-06-09T22:17:13Z</time>
      </trkpt>
      <trkpt lat="44.39645" lon="5.689">
        <ele>1286</ele>
        <time>2022-06-09T22:17:23Z</time>
      </trkpt>
      <trkpt lat="44.3968" lon="5.68933">
        <ele>1286</ele>
        <time>2022-06-09T22:17:33Z</time>
      </trkpt>
      <trkpt lat="44.39693" lon="5.68941">
        <ele>1283</ele>
        <time>2022-06-09T22:17:36Z</time>
      </trkpt>
      <trkpt lat="44.39691" lon="5.68943">
        <ele>1283</ele>
        <time>2022-06-09T22:17:37Z</time>
      </trkpt>
      <trkpt lat="44.397" lon="5.68947">
        <ele>1282</ele>
        <time>2022-06-09T22:17:39Z</time>
      </trkpt>
      <trkpt lat="44.39738" lon="5.68988">
        <ele>1285</ele>
        <time>2022-06-09T22:17:50Z</time>
      </trkpt>
      <trkpt lat="44.3975" lon="5.68993">
        <ele>1289</ele>
        <time>2022-06-09T22:17:53Z</time>
      </trkpt>
      <trkpt lat="44.3977" lon="5.69017">
        <ele>1283</ele>
        <time>2022-06-09T22:17:59Z</time>
      </trkpt>
      <trkpt lat="44.39789" lon="5.69034">
        <ele>1280</ele>
        <time>2022-06-09T22:18:04Z</time>
      </trkpt>
      <trkpt lat="44.39818" lon="5.69073">
        <ele>1285</ele>
        <time>2022-06-09T22:18:14Z</time>
      </trkpt>
      <trkpt lat="44.39847" lon="5.69102">
        <ele>1281</ele>
        <time>2022-06-09T22:18:22Z</time>
      </trkpt>
      <trkpt lat="44.3985" lon="5.69108">
        <ele>1278</ele>
        <time>2022-06-09T22:18:23Z</time>
      </trkpt>
      <trkpt lat="44.39893" lon="5.69143">
        <ele>1276</ele>
        <time>2022-06-09T22:18:35Z</time>
      </trkpt>
      <trkpt lat="44.39917" lon="5.69171">
        <ele>1283</ele>
        <time>2022-06-09T22:18:42Z</time>
      </trkpt>
      <trkpt lat="44.39946" lon="5.69211">
        <ele>1261</ele>
        <time>2022-06-09T22:18:52Z</time>
      </trkpt>
      <trkpt lat="44.39986" lon="5.69258">
        <ele>1260</ele>
        <time>2022-06-09T22:19:04Z</time>
      </trkpt>
      <trkpt lat="44.40005" lon="5.69274">
        <ele>1254</ele>
        <time>2022-06-09T22:19:09Z</time>
      </trkpt>
      <trkpt lat="44.40032" lon="5.69292">
        <ele>1245</ele>
        <time>2022-06-09T22:19:16Z</time>
      </trkpt>
      <trkpt lat="44.4005" lon="5.693">
        <ele>1247</ele>
        <time>2022-06-09T22:19:21Z</time>
      </trkpt>
      <trkpt lat="44.4009" lon="5.69336">
        <ele>1258</ele>
        <time>2022-06-09T22:19:32Z</time>
      </trkpt>
      <trkpt lat="44.40116" lon="5.6934">
        <ele>1251</ele>
        <time>2022-06-09T22:19:38Z</time>
      </trkpt>
      <trkpt lat="44.40166" lon="5.69384">
        <ele>1240</ele>
        <time>2022-06-09T22:19:52Z</time>
      </trkpt>
      <trkpt lat="44.40206" lon="5.69407">
        <ele>1237</ele>
        <time>2022-06-09T22:20:02Z</time>
      </trkpt>
      <trkpt lat="44.40287" lon="5.69468">
        <ele>1219</ele>
        <time>2022-06-09T22:20:23Z</time>
      </trkpt>
      <trkpt lat="44.40295" lon="5.69473">
        <ele>1217</ele>
        <time>2022-06-09T22:20:25Z</time>
      </trkpt>
      <trkpt lat="44.40299" lon="5.69472">
        <ele>1217</ele>
        <time>2022-06-09T22:20:26Z</time>
      </trkpt>
      <trkpt lat="44.40306" lon="5.69478">
        <ele>1216</ele>
        <time>2022-06-09T22:20:28Z</time>
      </trkpt>
      <trkpt lat="44.40325" lon="5.69482">
        <ele>1215</ele>
        <time>2022-06-09T22:20:33Z</time>
      </trkpt>
      <trkpt lat="44.40331" lon="5.69488">
        <ele>1215</ele>
        <time>2022-06-09T22:20:34Z</time>
      </trkpt>
      <trkpt lat="44.40368" lon="5.69503">
        <ele>1209</ele>
        <time>2022-06-09T22:20:43Z</time>
      </trkpt>
      <trkpt lat="44.40391" lon="5.69507">
        <ele>1205</ele>
        <time>2022-06-09T22:20:49Z</time>
      </trkpt>
      <trkpt lat="44.40416" lon="5.6953">
        <ele>1197</ele>
        <time>2022-06-09T22:20:56Z</time>
      </trkpt>
      <trkpt lat="44.40445" lon="5.69543">
        <ele>1189</ele>
        <time>2022-06-09T22:21:03Z</time>
      </trkpt>
      <trkpt lat="44.40458" lon="5.69564">
        <ele>1185</ele>
        <time>2022-06-09T22:21:07Z</time>
      </trkpt>
      <trkpt lat="44.40511" lon="5.69595">
        <ele>1175</ele>
        <time>2022-06-09T22:21:21Z</time>
      </trkpt>
      <trkpt lat="44.40522" lon="5.69598">
        <ele>1172</ele>
        <time>2022-06-09T22:21:23Z</time>
      </trkpt>
      <trkpt lat="44.40532" lon="5.69596">
        <ele>1170</ele>
        <time>2022-06-09T22:21:26Z</time>
      </trkpt>
      <trkpt lat="44.40573" lon="5.6963">
        <ele>1154</ele>
        <time>2022-06-09T22:21:37Z</time>
      </trkpt>
      <trkpt lat="44.40579" lon="5.69631">
        <ele>1153</ele>
        <time>2022-06-09T22:21:38Z</time>
      </trkpt>
      <trkpt lat="44.40583" lon="5.69628">
        <ele>1153</ele>
        <time>2022-06-09T22:21:39Z</time>
      </trkpt>
      <trkpt lat="44.40612" lon="5.69645">
        <ele>1143</ele>
        <time>2022-06-09T22:21:47Z</time>
      </trkpt>
      <trkpt lat="44.40627" lon="5.69648">
        <ele>1139</ele>
        <time>2022-06-09T22:21:50Z</time>
      </trkpt>
      <trkpt lat="44.40635" lon="5.69654">
        <ele>1137</ele>
        <time>2022-06-09T22:21:52Z</time>
      </trkpt>
      <trkpt lat="44.40643" lon="5.69654">
        <ele>1135</ele>
        <time>2022-06-09T22:21:54Z</time>
      </trkpt>
      <trkpt lat="44.40648" lon="5.69658">
        <ele>1134</ele>
        <time>2022-06-09T22:21:56Z</time>
      </trkpt>
      <trkpt lat="44.40672" lon="5.6966">
        <ele>1129</ele>
        <time>2022-06-09T22:22:01Z</time>
      </trkpt>
      <trkpt lat="44.40694" lon="5.69677">
        <ele>1121</ele>
        <time>2022-06-09T22:22:07Z</time>
      </trkpt>
      <trkpt lat="44.40698" lon="5.69676">
        <ele>1120</ele>
        <time>2022-06-09T22:22:08Z</time>
      </trkpt>
      <trkpt lat="44.40704" lon="5.69684">
        <ele>1117</ele>
        <time>2022-06-09T22:22:10Z</time>
      </trkpt>
      <trkpt lat="44.40711" lon="5.69686">
        <ele>1115</ele>
        <time>2022-06-09T22:22:12Z</time>
      </trkpt>
      <trkpt lat="44.40724" lon="5.69683">
        <ele>1112</ele>
        <time>2022-06-09T22:22:15Z</time>
      </trkpt>
      <trkpt lat="44.40725" lon="5.69691">
        <ele>1111</ele>
        <time>2022-06-09T22:22:16Z</time>
      </trkpt>
      <trkpt lat="44.40732" lon="5.69697">
        <ele>1109</ele>
        <time>2022-06-09T22:22:18Z</time>
      </trkpt>
      <trkpt lat="44.40758" lon="5.69707">
        <ele>1104</ele>
        <time>2022-06-09T22:22:24Z</time>
      </trkpt>
      <trkpt lat="44.40787" lon="5.6971">
        <ele>1099</ele>
        <time>2022-06-09T22:22:31Z</time>
      </trkpt>
      <trkpt lat="44.40789" lon="5.6972">
        <ele>1099</ele>
        <time>2022-06-09T22:22:33Z</time>
      </trkpt>
      <trkpt lat="44.40802" lon="5.69728">
        <ele>1097</ele>
        <time>2022-06-09T22:22:36Z</time>
      </trkpt>
      <trkpt lat="44.40832" lon="5.69727">
        <ele>1093</ele>
        <time>2022-06-09T22:22:43Z</time>
      </trkpt>
      <trkpt lat="44.4084" lon="5.69723">
        <ele>1092</ele>
        <time>2022-06-09T22:22:45Z</time>
      </trkpt>
      <trkpt lat="44.40848" lon="5.69724">
        <ele>1092</ele>
        <time>2022-06-09T22:22:47Z</time>
      </trkpt>
      <trkpt lat="44.40852" lon="5.69727">
        <ele>1092</ele>
        <time>2022-06-09T22:22:48Z</time>
      </trkpt>
      <trkpt lat="44.40857" lon="5.69724">
        <ele>1092</ele>
        <time>2022-06-09T22:22:49Z</time>
      </trkpt>
      <trkpt lat="44.4086" lon="5.69725">
        <ele>1092</ele>
        <time>2022-06-09T22:22:50Z</time>
      </trkpt>
      <trkpt lat="44.40862" lon="5.6973">
        <ele>1092</ele>
        <time>2022-06-09T22:22:51Z</time>
      </trkpt>
      <trkpt lat="44.40874" lon="5.69735">
        <ele>1093</ele>
        <time>2022-06-09T22:22:54Z</time>
      </trkpt>
      <trkpt lat="44.40888" lon="5.6973">
        <ele>1092</ele>
        <time>2022-06-09T22:22:57Z</time>
      </trkpt>
      <trkpt lat="44.40897" lon="5.69732">
        <ele>1092</ele>
        <time>2022-06-09T22:22:59Z</time>
      </trkpt>
      <trkpt lat="44.40902" lon="5.69729">
        <ele>1091</ele>
        <time>2022-06-09T22:23:01Z</time>
      </trkpt>
      <trkpt lat="44.40928" lon="5.69747">
        <ele>1091</ele>
        <time>2022-06-09T22:23:07Z</time>
      </trkpt>
      <trkpt lat="44.40931" lon="5.69754">
        <ele>1089</ele>
        <time>2022-06-09T22:23:09Z</time>
      </trkpt>
      <trkpt lat="44.40948" lon="5.69772">
        <ele>1078</ele>
        <time>2022-06-09T22:23:14Z</time>
      </trkpt>
      <trkpt lat="44.40959" lon="5.69773">
        <ele>1075</ele>
        <time>2022-06-09T22:23:16Z</time>
      </trkpt>
      <trkpt lat="44.4097" lon="5.69781">
        <ele>1070</ele>
        <time>2022-06-09T22:23:19Z</time>
      </trkpt>
      <trkpt lat="44.40976" lon="5.69781">
        <ele>1069</ele>
        <time>2022-06-09T22:23:21Z</time>
      </trkpt>
      <trkpt lat="44.40983" lon="5.69776">
        <ele>1069</ele>
        <time>2022-06-09T22:23:22Z</time>
      </trkpt>
      <trkpt lat="44.40987" lon="5.69782">
        <ele>1067</ele>
        <time>2022-06-09T22:23:24Z</time>
      </trkpt>
      <trkpt lat="44.41003" lon="5.69786">
        <ele>1063</ele>
        <time>2022-06-09T22:23:28Z</time>
      </trkpt>
      <trkpt lat="44.41015" lon="5.69785">
        <ele>1060</ele>
        <time>2022-06-09T22:23:30Z</time>
      </trkpt>
      <trkpt lat="44.41048" lon="5.69792">
        <ele>1052</ele>
        <time>2022-06-09T22:23:38Z</time>
      </trkpt>
      <trkpt lat="44.41064" lon="5.69791">
        <ele>1049</ele>
        <time>2022-06-09T22:23:42Z</time>
      </trkpt>
      <trkpt lat="44.41074" lon="5.69794">
        <ele>1046</ele>
        <time>2022-06-09T22:23:44Z</time>
      </trkpt>
      <trkpt lat="44.41078" lon="5.69792">
        <ele>1046</ele>
        <time>2022-06-09T22:23:45Z</time>
      </trkpt>
      <trkpt lat="44.4109" lon="5.69795">
        <ele>1043</ele>
        <time>2022-06-09T22:23:48Z</time>
      </trkpt>
      <trkpt lat="44.41109" lon="5.69805">
        <ele>1040</ele>
        <time>2022-06-09T22:23:53Z</time>
      </trkpt>
      <trkpt lat="44.41114" lon="5.69811">
        <ele>1040</ele>
        <time>2022-06-09T22:23:55Z</time>
      </trkpt>
      <trkpt lat="44.41149" lon="5.69833">
        <ele>1037</ele>
        <time>2022-06-09T22:24:03Z</time>
      </trkpt>
      <trkpt lat="44.41163" lon="5.69836">
        <ele>1035</ele>
        <time>2022-06-09T22:24:07Z</time>
      </trkpt>
      <trkpt lat="44.4119" lon="5.69848">
        <ele>1027</ele>
        <time>2022-06-09T22:24:13Z</time>
      </trkpt>
      <trkpt lat="44.41216" lon="5.69854">
        <ele>1022</ele>
        <time>2022-06-09T22:24:20Z</time>
      </trkpt>
      <trkpt lat="44.41227" lon="5.69852">
        <ele>1022</ele>
        <time>2022-06-09T22:24:22Z</time>
      </trkpt>
      <trkpt lat="44.41234" lon="5.69845">
        <ele>1024</ele>
        <time>2022-06-09T22:24:24Z</time>
      </trkpt>
      <trkpt lat="44.41245" lon="5.69853">
        <ele>1020</ele>
        <time>2022-06-09T22:24:27Z</time>
      </trkpt>
      <trkpt lat="44.41258" lon="5.69856">
        <ele>1017</ele>
        <time>2022-06-09T22:24:30Z</time>
      </trkpt>
      <trkpt lat="44.41263" lon="5.69853">
        <ele>1018</ele>
        <time>2022-06-09T22:24:31Z</time>
      </trkpt>
      <trkpt lat="44.41271" lon="5.69856">
        <ele>1015</ele>
        <time>2022-06-09T22:24:33Z</time>
      </trkpt>
      <trkpt lat="44.41296" lon="5.69847">
        <ele>1016</ele>
        <time>2022-06-09T22:24:39Z</time>
      </trkpt>
      <trkpt lat="44.41357" lon="5.69844">
        <ele>1009</ele>
        <time>2022-06-09T22:24:54Z</time>
      </trkpt>
      <trkpt lat="44.4139" lon="5.69835">
        <ele>1010</ele>
        <time>2022-06-09T22:25:01Z</time>
      </trkpt>
      <trkpt lat="44.41406" lon="5.69826">
        <ele>1008</ele>
        <time>2022-06-09T22:25:05Z</time>
      </trkpt>
      <trkpt lat="44.41422" lon="5.69832">
        <ele>1006</ele>
        <time>2022-06-09T22:25:09Z</time>
      </trkpt>
      <trkpt lat="44.41438" lon="5.69831">
        <ele>1002</ele>
        <time>2022-06-09T22:25:13Z</time>
      </trkpt>
      <trkpt lat="44.41434" lon="5.69835">
        <ele>1003</ele>
        <time>2022-06-09T22:25:14Z</time>
      </trkpt>
      <trkpt lat="44.41436" lon="5.6984">
        <ele>1000</ele>
        <time>2022-06-09T22:25:15Z</time>
      </trkpt>
      <trkpt lat="44.4143" lon="5.69845">
        <ele>999</ele>
        <time>2022-06-09T22:25:17Z</time>
      </trkpt>
      <trkpt lat="44.41432" lon="5.69853">
        <ele>994</ele>
        <time>2022-06-09T22:25:18Z</time>
      </trkpt>
      <trkpt lat="44.41426" lon="5.69856">
        <ele>995</ele>
        <time>2022-06-09T22:25:20Z</time>
      </trkpt>
      <trkpt lat="44.41427" lon="5.69863">
        <ele>991</ele>
        <time>2022-06-09T22:25:21Z</time>
      </trkpt>
      <trkpt lat="44.4142" lon="5.69865">
        <ele>992</ele>
        <time>2022-06-09T22:25:23Z</time>
      </trkpt>
      <trkpt lat="44.41416" lon="5.69859">
        <ele>996</ele>
        <time>2022-06-09T22:25:24Z</time>
      </trkpt>
      <trkpt lat="44.41414" lon="5.6986">
        <ele>996</ele>
        <time>2022-06-09T22:25:24Z</time>
      </trkpt>
      <trkpt lat="44.41416" lon="5.69872">
        <ele>990</ele>
        <time>2022-06-09T22:25:27Z</time>
      </trkpt>
      <trkpt lat="44.41412" lon="5.69873">
        <ele>990</ele>
        <time>2022-06-09T22:25:27Z</time>
      </trkpt>
      <trkpt lat="44.41413" lon="5.69879">
        <ele>987</ele>
        <time>2022-06-09T22:25:28Z</time>
      </trkpt>
      <trkpt lat="44.41415" lon="5.69878">
        <ele>987</ele>
        <time>2022-06-09T22:25:29Z</time>
      </trkpt>
      <trkpt lat="44.41412" lon="5.69887">
        <ele>983</ele>
        <time>2022-06-09T22:25:31Z</time>
      </trkpt>
      <trkpt lat="44.41416" lon="5.69888">
        <ele>982</ele>
        <time>2022-06-09T22:25:32Z</time>
      </trkpt>
      <trkpt lat="44.41415" lon="5.69892">
        <ele>980</ele>
        <time>2022-06-09T22:25:32Z</time>
      </trkpt>
      <trkpt lat="44.41417" lon="5.69892">
        <ele>980</ele>
        <time>2022-06-09T22:25:33Z</time>
      </trkpt>
      <trkpt lat="44.41418" lon="5.699">
        <ele>976</ele>
        <time>2022-06-09T22:25:34Z</time>
      </trkpt>
      <trkpt lat="44.41412" lon="5.69911">
        <ele>972</ele>
        <time>2022-06-09T22:25:36Z</time>
      </trkpt>
      <trkpt lat="44.41429" lon="5.69912">
        <ele>966</ele>
        <time>2022-06-09T22:25:40Z</time>
      </trkpt>
      <trkpt lat="44.41418" lon="5.69925">
        <ele>963</ele>
        <time>2022-06-09T22:25:44Z</time>
      </trkpt>
      <trkpt lat="44.41427" lon="5.6993">
        <ele>958</ele>
        <time>2022-06-09T22:25:46Z</time>
      </trkpt>
      <trkpt lat="44.41427" lon="5.69933">
        <ele>957</ele>
        <time>2022-06-09T22:25:47Z</time>
      </trkpt>
      <trkpt lat="44.41423" lon="5.69936">
        <ele>957</ele>
        <time>2022-06-09T22:25:48Z</time>
      </trkpt>
      <trkpt lat="44.41424" lon="5.69943">
        <ele>953</ele>
        <time>2022-06-09T22:25:49Z</time>
      </trkpt>
      <trkpt lat="44.41421" lon="5.69947">
        <ele>952</ele>
        <time>2022-06-09T22:25:50Z</time>
      </trkpt>
      <trkpt lat="44.41436" lon="5.6995">
        <ele>946</ele>
        <time>2022-06-09T22:25:53Z</time>
      </trkpt>
      <trkpt lat="44.41437" lon="5.69953">
        <ele>944</ele>
        <time>2022-06-09T22:25:54Z</time>
      </trkpt>
      <trkpt lat="44.41442" lon="5.69952">
        <ele>943</ele>
        <time>2022-06-09T22:25:55Z</time>
      </trkpt>
      <trkpt lat="44.41444" lon="5.69958">
        <ele>940</ele>
        <time>2022-06-09T22:25:56Z</time>
      </trkpt>
      <trkpt lat="44.41462" lon="5.6996">
        <ele>934</ele>
        <time>2022-06-09T22:26:00Z</time>
      </trkpt>
      <trkpt lat="44.41464" lon="5.69962">
        <ele>933</ele>
        <time>2022-06-09T22:26:01Z</time>
      </trkpt>
      <trkpt lat="44.41461" lon="5.69963">
        <ele>933</ele>
        <time>2022-06-09T22:26:02Z</time>
      </trkpt>
      <trkpt lat="44.41456" lon="5.69971">
        <ele>931</ele>
        <time>2022-06-09T22:26:03Z</time>
      </trkpt>
      <trkpt lat="44.41461" lon="5.69978">
        <ele>926</ele>
        <time>2022-06-09T22:26:05Z</time>
      </trkpt>
      <trkpt lat="44.41477" lon="5.69984">
        <ele>920</ele>
        <time>2022-06-09T22:26:09Z</time>
      </trkpt>
      <trkpt lat="44.41506" lon="5.69989">
        <ele>909</ele>
        <time>2022-06-09T22:26:16Z</time>
      </trkpt>
      <trkpt lat="44.41511" lon="5.70009">
        <ele>899</ele>
        <time>2022-06-09T22:26:19Z</time>
      </trkpt>
      <trkpt lat="44.41522" lon="5.70007">
        <ele>896</ele>
        <time>2022-06-09T22:26:22Z</time>
      </trkpt>
      <trkpt lat="44.41532" lon="5.70009">
        <ele>891</ele>
        <time>2022-06-09T22:26:24Z</time>
      </trkpt>
      <trkpt lat="44.41536" lon="5.70006">
        <ele>891</ele>
        <time>2022-06-09T22:26:25Z</time>
      </trkpt>
      <trkpt lat="44.41544" lon="5.70005">
        <ele>888</ele>
        <time>2022-06-09T22:26:27Z</time>
      </trkpt>
      <trkpt lat="44.4156" lon="5.70011">
        <ele>880</ele>
        <time>2022-06-09T22:26:31Z</time>
      </trkpt>
      <trkpt lat="44.41566" lon="5.70018">
        <ele>875</ele>
        <time>2022-06-09T22:26:33Z</time>
      </trkpt>
      <trkpt lat="44.41568" lon="5.70017">
        <ele>875</ele>
        <time>2022-06-09T22:26:33Z</time>
      </trkpt>
      <trkpt lat="44.41571" lon="5.70023">
        <ele>872</ele>
        <time>2022-06-09T22:26:35Z</time>
      </trkpt>
      <trkpt lat="44.41577" lon="5.70016">
        <ele>872</ele>
        <time>2022-06-09T22:26:36Z</time>
      </trkpt>
      <trkpt lat="44.41584" lon="5.7002">
        <ele>868</ele>
        <time>2022-06-09T22:26:38Z</time>
      </trkpt>
      <trkpt lat="44.41582" lon="5.70034">
        <ele>864</ele>
        <time>2022-06-09T22:26:41Z</time>
      </trkpt>
      <trkpt lat="44.41577" lon="5.70043">
        <ele>863</ele>
        <time>2022-06-09T22:26:42Z</time>
      </trkpt>
      <trkpt lat="44.41577" lon="5.7007">
        <ele>853</ele>
        <time>2022-06-09T22:26:47Z</time>
      </trkpt>
      <trkpt lat="44.41571" lon="5.70107">
        <ele>845</ele>
        <time>2022-06-09T22:26:53Z</time>
      </trkpt>
      <trkpt lat="44.4154" lon="5.70203">
        <ele>830</ele>
        <time>2022-06-09T22:27:11Z</time>
      </trkpt>
      <trkpt lat="44.41568" lon="5.70174">
        <ele>831</ele>
        <time>2022-06-09T22:27:19Z</time>
      </trkpt>
      <trkpt lat="44.41589" lon="5.70166">
        <ele>827</ele>
        <time>2022-06-09T22:27:24Z</time>
      </trkpt>
      <trkpt lat="44.41634" lon="5.70162">
        <ele>813</ele>
        <time>2022-06-09T22:27:35Z</time>
      </trkpt>
      <trkpt lat="44.41654" lon="5.70153">
        <ele>808</ele>
        <time>2022-06-09T22:27:40Z</time>
      </trkpt>
      <trkpt lat="44.41656" lon="5.70144">
        <ele>809</ele>
        <time>2022-06-09T22:27:41Z</time>
      </trkpt>
      <trkpt lat="44.41666" lon="5.70137">
        <ele>807</ele>
        <time>2022-06-09T22:27:44Z</time>
      </trkpt>
      <trkpt lat="44.41697" lon="5.70144">
        <ele>794</ele>
        <time>2022-06-09T22:27:51Z</time>
      </trkpt>
      <trkpt lat="44.41707" lon="5.70144">
        <ele>790</ele>
        <time>2022-06-09T22:27:53Z</time>
      </trkpt>
      <trkpt lat="44.41729" lon="5.70139">
        <ele>783</ele>
        <time>2022-06-09T22:27:59Z</time>
      </trkpt>
      <trkpt lat="44.41737" lon="5.70134">
        <ele>781</ele>
        <time>2022-06-09T22:28:01Z</time>
      </trkpt>
      <trkpt lat="44.41746" lon="5.70124">
        <ele>779</ele>
        <time>2022-06-09T22:28:03Z</time>
      </trkpt>
      <trkpt lat="44.41792" lon="5.70123">
        <ele>764</ele>
        <time>2022-06-09T22:28:14Z</time>
      </trkpt>
      <trkpt lat="44.418" lon="5.70133">
        <ele>760</ele>
        <time>2022-06-09T22:28:17Z</time>
      </trkpt>
      <trkpt lat="44.41804" lon="5.70152">
        <ele>756</ele>
        <time>2022-06-09T22:28:20Z</time>
      </trkpt>
      <trkpt lat="44.41822" lon="5.70174">
        <ele>748</ele>
        <time>2022-06-09T22:28:25Z</time>
      </trkpt>
      <trkpt lat="44.41832" lon="5.702">
        <ele>742</ele>
        <time>2022-06-09T22:28:30Z</time>
      </trkpt>
      <trkpt lat="44.41847" lon="5.70224">
        <ele>731</ele>
        <time>2022-06-09T22:28:36Z</time>
      </trkpt>
      <trkpt lat="44.41848" lon="5.70232">
        <ele>730</ele>
        <time>2022-06-09T22:28:37Z</time>
      </trkpt>
      <trkpt lat="44.41848" lon="5.7024">
        <ele>729</ele>
        <time>2022-06-09T22:28:38Z</time>
      </trkpt>
      <trkpt lat="44.41827" lon="5.70285">
        <ele>728</ele>
        <time>2022-06-09T22:28:47Z</time>
      </trkpt>
      <trkpt lat="44.41811" lon="5.7031">
        <ele>726</ele>
        <time>2022-06-09T22:28:53Z</time>
      </trkpt>
      <trkpt lat="44.41797" lon="5.70321">
        <ele>727</ele>
        <time>2022-06-09T22:28:57Z</time>
      </trkpt>
      <trkpt lat="44.41789" lon="5.70342">
        <ele>724</ele>
        <time>2022-06-09T22:29:01Z</time>
      </trkpt>
      <trkpt lat="44.41792" lon="5.7035">
        <ele>722</ele>
        <time>2022-06-09T22:29:02Z</time>
      </trkpt>
      <trkpt lat="44.41811" lon="5.7037">
        <ele>712</ele>
        <time>2022-06-09T22:29:08Z</time>
      </trkpt>
      <trkpt lat="44.41813" lon="5.70377">
        <ele>710</ele>
        <time>2022-06-09T22:29:09Z</time>
      </trkpt>
      <trkpt lat="44.41816" lon="5.70396">
        <ele>705</ele>
        <time>2022-06-09T22:29:12Z</time>
      </trkpt>
      <trkpt lat="44.41813" lon="5.70451">
        <ele>695</ele>
        <time>2022-06-09T22:29:21Z</time>
      </trkpt>
      <trkpt lat="44.41816" lon="5.70498">
        <ele>686</ele>
        <time>2022-06-09T22:29:29Z</time>
      </trkpt>
      <trkpt lat="44.41819" lon="5.70507">
        <ele>684</ele>
        <time>2022-06-09T22:29:31Z</time>
      </trkpt>
      <trkpt lat="44.41821" lon="5.70529">
        <ele>680</ele>
        <time>2022-06-09T22:29:35Z</time>
      </trkpt>
      <trkpt lat="44.41824" lon="5.70532">
        <ele>679</ele>
        <time>2022-06-09T22:29:35Z</time>
      </trkpt>
      <trkpt lat="44.41822" lon="5.70541">
        <ele>678</ele>
        <time>2022-06-09T22:29:37Z</time>
      </trkpt>
      <trkpt lat="44.41825" lon="5.70544">
        <ele>677</ele>
        <time>2022-06-09T22:29:38Z</time>
      </trkpt>
      <trkpt lat="44.41823" lon="5.70546">
        <ele>677</ele>
        <time>2022-06-09T22:29:38Z</time>
      </trkpt>
      <trkpt lat="44.41839" lon="5.70548">
        <ele>674</ele>
        <time>2022-06-09T22:29:42Z</time>
      </trkpt>
      <trkpt lat="44.41851" lon="5.70539">
        <ele>673</ele>
        <time>2022-06-09T22:29:45Z</time>
      </trkpt>
      <trkpt lat="44.41877" lon="5.70507">
        <ele>671</ele>
        <time>2022-06-09T22:29:54Z</time>
      </trkpt>
      <trkpt lat="44.41881" lon="5.70505">
        <ele>670</ele>
        <time>2022-06-09T22:29:55Z</time>
      </trkpt>
      <trkpt lat="44.41887" lon="5.70508">
        <ele>669</ele>
        <time>2022-06-09T22:29:56Z</time>
      </trkpt>
      <trkpt lat="44.41892" lon="5.70517">
        <ele>667</ele>
        <time>2022-06-09T22:29:58Z</time>
      </trkpt>
      <trkpt lat="44.41911" lon="5.70582">
        <ele>659</ele>
        <time>2022-06-09T22:30:10Z</time>
      </trkpt>
      <trkpt lat="44.41909" lon="5.70587">
        <ele>659</ele>
        <time>2022-06-09T22:30:11Z</time>
      </trkpt>
      <trkpt lat="44.4192" lon="5.70616">
        <ele>657</ele>
        <time>2022-06-09T22:30:16Z</time>
      </trkpt>
      <trkpt lat="44.41929" lon="5.70629">
        <ele>657</ele>
        <time>2022-06-09T22:30:19Z</time>
      </trkpt>
      <trkpt lat="44.41953" lon="5.70646">
        <ele>659</ele>
        <time>2022-06-09T22:30:25Z</time>
      </trkpt>
      <trkpt lat="44.41958" lon="5.70657">
        <ele>659</ele>
        <time>2022-06-09T22:30:28Z</time>
      </trkpt>
      <trkpt lat="44.41969" lon="5.70708">
        <ele>659</ele>
        <time>2022-06-09T22:30:36Z</time>
      </trkpt>
      <trkpt lat="44.41979" lon="5.70803">
        <ele>657</ele>
        <time>2022-06-09T22:30:52Z</time>
      </trkpt>
      <trkpt lat="44.41982" lon="5.70814">
        <ele>657</ele>
        <time>2022-06-09T22:30:54Z</time>
      </trkpt>
      <trkpt lat="44.41992" lon="5.70827">
        <ele>657</ele>
        <time>2022-06-09T22:30:58Z</time>
      </trkpt>
      <trkpt lat="44.4202" lon="5.70851">
        <ele>658</ele>
        <time>2022-06-09T22:31:05Z</time>
      </trkpt>
      <trkpt lat="44.42051" lon="5.70887">
        <ele>658</ele>
        <time>2022-06-09T22:31:15Z</time>
      </trkpt>
      <trkpt lat="44.42058" lon="5.70899">
        <ele>657</ele>
        <time>2022-06-09T22:31:17Z</time>
      </trkpt>
      <trkpt lat="44.42066" lon="5.70983">
        <ele>653</ele>
        <time>2022-06-09T22:31:31Z</time>
      </trkpt>
      <trkpt lat="44.42064" lon="5.71007">
        <ele>652</ele>
        <time>2022-06-09T22:31:35Z</time>
      </trkpt>
      <trkpt lat="44.42087" lon="5.71011">
        <ele>652</ele>
        <time>2022-06-09T22:31:41Z</time>
      </trkpt>
      <trkpt lat="44.4214" lon="5.71011">
        <ele>652</ele>
        <time>2022-06-09T22:31:53Z</time>
      </trkpt>
      <trkpt lat="44.42208" lon="5.71018">
        <ele>652</ele>
        <time>2022-06-09T22:32:09Z</time>
      </trkpt>
      <trkpt lat="44.42231" lon="5.71014">
        <ele>652</ele>
        <time>2022-06-09T22:32:15Z</time>
      </trkpt>
      <trkpt lat="44.42266" lon="5.71002">
        <ele>652</ele>
        <time>2022-06-09T22:32:23Z</time>
      </trkpt>
      <trkpt lat="44.4232" lon="5.70989">
        <ele>654</ele>
        <time>2022-06-09T22:32:36Z</time>
      </trkpt>
      <trkpt lat="44.42342" lon="5.70985">
        <ele>654</ele>
        <time>2022-06-09T22:32:41Z</time>
      </trkpt>
      <trkpt lat="44.42384" lon="5.70982">
        <ele>656</ele>
        <time>2022-06-09T22:32:51Z</time>
      </trkpt>
      <trkpt lat="44.42415" lon="5.70976">
        <ele>658</ele>
        <time>2022-06-09T22:32:58Z</time>
      </trkpt>
      <trkpt lat="44.42427" lon="5.70978">
        <ele>659</ele>
        <time>2022-06-09T22:33:01Z</time>
      </trkpt>
      <trkpt lat="44.42441" lon="5.70985">
        <ele>659</ele>
        <time>2022-06-09T22:33:04Z</time>
      </trkpt>
      <trkpt lat="44.4248" lon="5.71019">
        <ele>659</ele>
        <time>2022-06-09T22:33:15Z</time>
      </trkpt>
      <trkpt lat="44.42498" lon="5.71029">
        <ele>660</ele>
        <time>2022-06-09T22:33:20Z</time>
      </trkpt>
      <trkpt lat="44.42526" lon="5.71027">
        <ele>661</ele>
        <time>2022-06-09T22:33:26Z</time>
      </trkpt>
      <trkpt lat="44.42533" lon="5.71021">
        <ele>662</ele>
        <time>2022-06-09T22:33:28Z</time>
      </trkpt>
      <trkpt lat="44.42547" lon="5.71018">
        <ele>663</ele>
        <time>2022-06-09T22:33:31Z</time>
      </trkpt>
      <trkpt lat="44.42567" lon="5.71016">
        <ele>664</ele>
        <time>2022-06-09T22:33:36Z</time>
      </trkpt>
      <trkpt lat="44.42594" lon="5.71017">
        <ele>666</ele>
        <time>2022-06-09T22:33:42Z</time>
      </trkpt>
      <trkpt lat="44.4261" lon="5.71013">
        <ele>669</ele>
        <time>2022-06-09T22:33:46Z</time>
      </trkpt>
      <trkpt lat="44.42616" lon="5.71016">
        <ele>669</ele>
        <time>2022-06-09T22:33:48Z</time>
      </trkpt>
      <trkpt lat="44.42644" lon="5.71051">
        <ele>670</ele>
        <time>2022-06-09T22:33:56Z</time>
      </trkpt>
      <trkpt lat="44.42666" lon="5.71073">
        <ele>670</ele>
        <time>2022-06-09T22:34:03Z</time>
      </trkpt>
      <trkpt lat="44.42695" lon="5.71108">
        <ele>671</ele>
        <time>2022-06-09T22:34:12Z</time>
      </trkpt>
      <trkpt lat="44.42744" lon="5.71193">
        <ele>672</ele>
        <time>2022-06-09T22:34:30Z</time>
      </trkpt>
      <trkpt lat="44.42765" lon="5.71265">
        <ele>671</ele>
        <time>2022-06-09T22:34:43Z</time>
      </trkpt>
      <trkpt lat="44.42785" lon="5.71308">
        <ele>673</ele>
        <time>2022-06-09T22:34:51Z</time>
      </trkpt>
      <trkpt lat="44.42796" lon="5.71356">
        <ele>672</ele>
        <time>2022-06-09T22:35:00Z</time>
      </trkpt>
      <trkpt lat="44.428" lon="5.71413">
        <ele>669</ele>
        <time>2022-06-09T22:35:09Z</time>
      </trkpt>
      <trkpt lat="44.42824" lon="5.71486">
        <ele>669</ele>
        <time>2022-06-09T22:35:23Z</time>
      </trkpt>
      <trkpt lat="44.42839" lon="5.71541">
        <ele>668</ele>
        <time>2022-06-09T22:35:33Z</time>
      </trkpt>
      <trkpt lat="44.42909" lon="5.7169">
        <ele>667</ele>
        <time>2022-06-09T22:36:02Z</time>
      </trkpt>
      <trkpt lat="44.42915" lon="5.71694">
        <ele>667</ele>
        <time>2022-06-09T22:36:04Z</time>
      </trkpt>
      <trkpt lat="44.42925" lon="5.71692">
        <ele>668</ele>
        <time>2022-06-09T22:36:06Z</time>
      </trkpt>
      <trkpt lat="44.42928" lon="5.71696">
        <ele>667</ele>
        <time>2022-06-09T22:36:07Z</time>
      </trkpt>
      <trkpt lat="44.42935" lon="5.71697">
        <ele>667</ele>
        <time>2022-06-09T22:36:09Z</time>
      </trkpt>
      <trkpt lat="44.42938" lon="5.717">
        <ele>667</ele>
        <time>2022-06-09T22:36:10Z</time>
      </trkpt>
      <trkpt lat="44.42938" lon="5.71705">
        <ele>667</ele>
        <time>2022-06-09T22:36:11Z</time>
      </trkpt>
      <trkpt lat="44.4293" lon="5.71699">
        <ele>667</ele>
        <time>2022-06-09T22:36:13Z</time>
      </trkpt>
      <trkpt lat="44.42931" lon="5.71695">
        <ele>667</ele>
        <time>2022-06-09T22:36:13Z</time>
      </trkpt>
      <trkpt lat="44.42932" lon="5.71699">
        <ele>667</ele>
        <time>2022-06-09T22:36:14Z</time>
      </trkpt>
    </trkseg>
  </trk>
</gpx>